ftp/pub/palmer/observations_modified/2017/June/AR170607_BASE.txt

Download

Sample DateTime	Unit Id	WS Avg 2min	WD Avg 2min	WGS 10min	WGD 10min	Air Temp	Rel Humidity	Dew Point	Pyranometer	Quantum	Air Pressure	Snow Level	Rainfall	PW Current	Visibility	CBase 1	CBase 2	CBase 3	Vert Vis
2017/06/07 00:00:00	BASE	23.59	16	28.24	18	-2.6	73	-6.7	0	0	976.1	NA	0.0000	-SN	3600	0	0	0	620
2017/06/07 00:01:00	BASE	22.64	15	28.24	18	-2.6	73	-6.7	0	0	976.0	NA	0.0000	-SN	3400	0	0	0	660
2017/06/07 00:02:00	BASE	23.72	18	28.24	18	-2.6	74	-6.7	0	0	976.0	NA	0.0000	-SN	3500	0	0	0	790
2017/06/07 00:03:00	BASE	23.20	16	28.24	18	-2.6	74	-6.7	0	0	976.0	NA	0.0000	-SN	3700	0	0	0	950
2017/06/07 00:04:00	BASE	23.38	16	28.24	18	-2.6	74	-6.6	0	0	975.9	NA	0.0000	-SN	3400	0	0	0	980
2017/06/07 00:05:00	BASE	24.07	18	28.24	18	-2.6	74	-6.6	0	0	976.0	NA	0.0000	-SN	3300	330	0	0	0
2017/06/07 00:06:00	BASE	23.66	17	28.24	18	-2.7	74	-6.6	0	0	976.0	NA	0.0000	-SN	3500	0	0	0	1050
2017/06/07 00:07:00	BASE	22.43	17	28.24	18	-2.6	75	-6.5	0	0	976.2	NA	0.0000	-SN	2600	0	0	0	1120
2017/06/07 00:08:00	BASE	22.70	17	28.24	18	-2.6	75	-6.5	0	0	976.1	NA	0.0000	-SN	2600	0	0	0	1150
2017/06/07 00:09:00	BASE	22.93	17	27.06	16	-2.6	75	-6.5	0	0	976.2	NA	0.0000	-SN	3400	7280	0	0	0
2017/06/07 00:10:00	BASE	23.02	18	27.16	14	-2.6	75	-6.5	0	0	976.1	NA	0.0000	-SN	3400	330	0	0	0
2017/06/07 00:11:00	BASE	23.61	17	27.16	14	-2.6	75	-6.5	0	0	976.3	NA	0.0000	-SN	3400	300	0	0	0
2017/06/07 00:12:00	BASE	22.81	17	27.16	14	-2.7	75	-6.5	0	0	976.3	NA	0.0000	-SN	3300	0	0	0	980
2017/06/07 00:13:00	BASE	22.58	17	27.16	14	-2.7	75	-6.5	0	0	976.2	NA	0.0000	-SN	3000	0	0	0	1350
2017/06/07 00:14:00	BASE	22.21	19	27.16	14	-2.7	75	-6.5	0	0	976.4	NA	0.0000	-SN	3100	360	7940	0	0
2017/06/07 00:15:00	BASE	21.52	19	27.16	14	-2.7	75	-6.5	0	0	976.4	NA	0.0000	-SN	3500	7940	0	0	0
2017/06/07 00:16:00	BASE	20.78	17	27.16	14	-2.6	75	-6.5	0	0	976.4	NA	0.0000	-SN	3500	7710	0	0	0
2017/06/07 00:17:00	BASE	21.77	19	27.16	14	-2.6	75	-6.5	0	0	976.4	NA	0.0000	-SN	3400	7320	0	0	0
2017/06/07 00:18:00	BASE	22.91	20	27.16	14	-2.7	75	-6.5	0	0	976.5	NA	0.0000	-SN	3200	7250	0	0	0
2017/06/07 00:19:00	BASE	22.23	19	27.16	14	-2.7	75	-6.5	0	0	976.5	NA	0.0000	-SN	3100	7610	0	0	0
2017/06/07 00:20:00	BASE	21.89	20	26.24	24	-2.7	75	-6.5	0	0	976.5	NA	0.0000	-SN	3200	7280	0	0	0
2017/06/07 00:21:00	BASE	21.72	20	26.24	24	-2.7	75	-6.5	0	0	976.5	NA	0.0000	-SN	2500	7610	0	0	0
2017/06/07 00:22:00	BASE	21.78	20	26.24	24	-2.7	75	-6.5	0	0	976.5	NA	0.0000	-SN	2600	7910	0	0	0
2017/06/07 00:23:00	BASE	21.57	22	26.03	18	-2.7	75	-6.5	0	0	976.6	NA	0.0000	-SN	3700	7480	0	0	0
2017/06/07 00:24:00	BASE	21.33	20	26.03	18	-2.7	75	-6.5	0	0	976.4	NA	0.0000	-SN	3700	7420	0	0	0
2017/06/07 00:25:00	BASE	21.81	17	26.03	18	-2.7	75	-6.6	0	0	976.4	NA	0.0000	-SN	3900	7840	0	0	0
2017/06/07 00:26:00	BASE	22.20	19	26.03	18	-2.7	74	-6.6	0	0	976.5	NA	0.0000	-SN	4800	7710	0	0	0
2017/06/07 00:27:00	BASE	21.63	19	26.03	18	-2.7	74	-6.6	0	0	976.7	NA	0.0000	-SN	5000	8460	0	0	0
2017/06/07 00:28:00	BASE	22.26	18	26.29	24	-2.7	74	-6.7	0	0	976.4	NA	0.0000	-SN	4600	330	8630	0	0
2017/06/07 00:29:00	BASE	22.80	19	26.29	24	-2.6	74	-6.7	0	0	976.5	NA	0.0000	-SN	3700	8200	0	0	0
2017/06/07 00:30:00	BASE	21.91	18	26.29	24	-2.6	74	-6.7	0	0	976.5	NA	0.0000	-SN	3400	8660	0	0	0
2017/06/07 00:31:00	BASE	21.35	19	26.29	24	-2.6	73	-6.7	0	0	976.6	NA	0.0000	-SN	3500	8600	0	0	0
2017/06/07 00:32:00	BASE	21.07	21	26.29	24	-2.6	73	-6.8	0	0	976.6	NA	0.0000	-SN	3300	330	8600	0	0
2017/06/07 00:33:00	BASE	21.24	18	26.29	24	-2.6	73	-6.8	0	0	976.6	NA	0.0000	-SN	3100	8600	0	0	0
2017/06/07 00:34:00	BASE	21.01	16	26.29	24	-2.6	73	-6.8	0	0	976.6	NA	0.0000	-SN	3400	8300	0	0	0
2017/06/07 00:35:00	BASE	20.93	16	26.29	24	-2.6	73	-6.7	0	0	976.6	NA	0.0000	-SN	3600	8170	0	0	0
2017/06/07 00:36:00	BASE	21.60	18	26.29	24	-2.6	74	-6.7	0	0	976.6	NA	0.0000	-SN	3400	8200	0	0	0
2017/06/07 00:37:00	BASE	22.48	20	26.29	24	-2.6	74	-6.6	0	0	976.5	NA	0.0000	-SN	3400	8140	0	0	0
2017/06/07 00:38:00	BASE	22.29	19	25.57	20	-2.6	74	-6.6	0	0	976.6	NA	0.0000	-SN	3400	8070	0	0	0
2017/06/07 00:39:00	BASE	22.16	18	25.57	20	-2.6	74	-6.6	0	0	976.6	NA	0.0000	-SN	3300	360	8040	0	0
2017/06/07 00:40:00	BASE	22.32	19	25.57	20	-2.6	74	-6.6	0	0	976.7	NA	0.0000	-SN	3500	360	7940	0	0
2017/06/07 00:41:00	BASE	22.05	19	25.57	20	-2.6	74	-6.6	0	0	976.6	NA	0.0000	-SN	3200	330	0	0	0
2017/06/07 00:42:00	BASE	21.25	20	25.57	20	-2.6	74	-6.6	0	0	976.6	NA	0.0000	-SN	3200	7810	0	0	0
2017/06/07 00:43:00	BASE	21.40	21	25.57	20	-2.6	74	-6.6	0	0	976.5	NA	0.0000	-SN	3400	7780	0	0	0
2017/06/07 00:44:00	BASE	22.32	21	25.57	20	-2.6	74	-6.6	0	0	976.6	NA	0.0000	-SN	3400	7680	0	0	0
2017/06/07 00:45:00	BASE	22.39	18	25.57	20	-2.6	74	-6.6	0	0	976.6	NA	0.0000	-SN	4000	7640	0	0	0
2017/06/07 00:46:00	BASE	21.91	18	25.57	20	-2.6	74	-6.6	0	0	976.7	NA	0.0000	-SN	4700	7320	0	0	0
2017/06/07 00:47:00	BASE	20.76	20	25.31	20	-2.6	74	-6.6	0	0	976.8	NA	0.0000	-SN	4200	7120	0	0	0
2017/06/07 00:48:00	BASE	21.34	20	25.57	17	-2.6	74	-6.6	0	0	976.6	NA	0.0000	-SN	3600	360	7190	0	0
2017/06/07 00:49:00	BASE	22.40	19	25.57	17	-2.6	74	-6.6	0	0	976.6	NA	0.0000	-SN	3500	7150	0	0	0
2017/06/07 00:50:00	BASE	21.40	20	25.57	17	-2.5	73	-6.7	0	0	976.7	NA	0.0000	-SN	3700	330	7480	0	0
2017/06/07 00:51:00	BASE	21.20	19	25.57	17	-2.5	73	-6.7	0	0	976.6	NA	0.0000	-SN	3400	0	0	0	1150
2017/06/07 00:52:00	BASE	20.81	16	25.57	17	-2.6	73	-6.7	0	0	976.7	NA	0.0000	-SN	3100	6500	0	0	0
2017/06/07 00:53:00	BASE	20.20	16	25.57	17	-2.6	73	-6.7	0	0	976.7	NA	0.0000	-SN	3200	0	0	0	1120
2017/06/07 00:54:00	BASE	21.16	15	25.57	17	-2.6	74	-6.6	0	0	976.7	NA	0.0000	-SN	2900	0	0	0	1510
2017/06/07 00:55:00	BASE	21.18	15	25.57	17	-2.6	74	-6.6	0	0	976.8	NA	0.0000	-SN	2800	0	0	0	1440
2017/06/07 00:56:00	BASE	21.40	16	25.57	17	-2.6	75	-6.5	0	0	976.7	NA	0.0000	-SN	3200	0	0	0	1610
2017/06/07 00:57:00	BASE	21.76	17	25.57	17	-2.6	75	-6.5	0	0	976.7	NA	0.0000	-SN	3300	0	0	0	1670
2017/06/07 00:58:00	BASE	21.67	18	25.31	21	-2.7	75	-6.5	0	0	976.7	NA	0.0000	-SN	2900	7090	0	0	0
2017/06/07 00:59:00	BASE	21.74	17	25.31	21	-2.7	75	-6.5	0	0	976.6	NA	0.0000	-SN	2700	260	0	0	0
2017/06/07 01:00:00	BASE	21.80	17	25.31	21	-2.7	75	-6.5	0	0	976.7	NA	0.0000	-SN	2900	0	0	0	920
2017/06/07 01:01:00	BASE	21.83	15	25.31	21	-2.7	75	-6.5	0	0	976.7	NA	0.0000	-SN	3200	0	0	0	1120
2017/06/07 01:02:00	BASE	21.00	16	25.31	21	-2.6	75	-6.5	0	0	976.8	NA	0.0000	-SN	3400	330	0	0	0
2017/06/07 01:03:00	BASE	21.45	18	25.16	17	-2.6	75	-6.4	0	0	976.6	NA	0.0000	-SN	3700	330	0	0	0
2017/06/07 01:04:00	BASE	21.09	19	25.16	17	-2.6	75	-6.4	0	0	976.9	NA	0.0000	-SN	3600	300	0	0	0
2017/06/07 01:05:00	BASE	20.41	20	25.16	17	-2.6	75	-6.4	0	0	976.8	NA	0.0000	-SN	3500	330	0	0	0
2017/06/07 01:06:00	BASE	20.51	18	25.16	17	-2.6	75	-6.4	0	0	977.0	NA	0.0000	-SN	3500	330	0	0	0
2017/06/07 01:07:00	BASE	20.06	16	25.16	17	-2.6	75	-6.4	0	0	976.9	NA	0.0000	-SN	3600	360	0	0	0
2017/06/07 01:08:00	BASE	20.33	18	25.16	17	-2.5	75	-6.4	0	0	976.8	NA	0.0000	-SN	4300	0	0	0	1210
2017/06/07 01:09:00	BASE	20.71	18	25.16	17	-2.5	75	-6.4	0	0	976.8	NA	0.0000	-SN	5000	390	0	0	0
2017/06/07 01:10:00	BASE	21.13	18	25.16	17	-2.5	74	-6.4	0	0	977.0	NA	0.0000	-SN	4100	330	0	0	0
2017/06/07 01:11:00	BASE	21.27	18	24.74	15	-2.5	74	-6.4	0	0	976.9	NA	0.0000	-SN	3300	300	0	0	0
2017/06/07 01:12:00	BASE	21.23	18	24.74	15	-2.4	74	-6.4	0	0	976.8	NA	0.0000	-SN	3000	300	0	0	0
2017/06/07 01:13:00	BASE	21.86	17	25.57	13	-2.4	74	-6.4	0	0	976.9	NA	0.0000	-SN	3000	0	0	0	1250
2017/06/07 01:14:00	BASE	21.94	15	25.57	13	-2.5	74	-6.5	0	0	977.0	NA	0.0000	-SN	2800	0	0	0	1440
2017/06/07 01:15:00	BASE	21.95	16	25.57	13	-2.5	74	-6.4	0	0	976.9	NA	0.0000	-SN	2000	0	0	0	1540
2017/06/07 01:16:00	BASE	21.88	17	25.57	13	-2.5	74	-6.4	0	0	976.9	NA	0.0000	-SN	1900	260	0	0	0
2017/06/07 01:17:00	BASE	21.45	17	25.57	13	-2.5	75	-6.4	0	0	976.8	NA	0.0000	-SN	2200	300	0	0	0
2017/06/07 01:18:00	BASE	21.32	17	25.57	13	-2.5	75	-6.4	0	0	976.9	NA	0.0000	-SN	2600	330	0	0	0
2017/06/07 01:19:00	BASE	21.06	17	25.57	13	-2.5	75	-6.3	0	0	976.8	NA	0.0000	-SN	3200	330	0	0	0
2017/06/07 01:20:00	BASE	21.59	17	25.72	23	-2.4	75	-6.3	0	0	976.8	NA	0.0000	-SN	3700	360	6230	0	0
2017/06/07 01:21:00	BASE	21.61	16	25.72	23	-2.4	75	-6.3	0	0	977.0	NA	0.0000	-SN	3800	6170	0	0	0
2017/06/07 01:22:00	BASE	22.04	17	25.72	23	-2.3	74	-6.3	0	0	976.8	NA	0.0000	-SN	4500	5940	0	0	0
2017/06/07 01:23:00	BASE	21.89	15	25.72	23	-2.2	74	-6.3	0	0	976.9	NA	0.0000	-SN	6000	6040	7420	0	0
2017/06/07 01:24:00	BASE	21.77	15	25.72	23	-2.2	73	-6.3	0	0	976.7	NA	0.0000	-SN	8000	6170	7380	0	0
2017/06/07 01:25:00	BASE	21.94	16	25.72	23	-2.1	73	-6.4	0	0	976.9	NA	0.0000	-SN	7000	6040	0	0	0
2017/06/07 01:26:00	BASE	20.90	15	25.72	23	-2.1	72	-6.5	0	0	977.0	NA	0.0000	-SN	7000	6070	0	0	0
2017/06/07 01:27:00	BASE	21.57	16	25.72	23	-2.2	72	-6.5	0	0	976.8	NA	0.0000	-SN	9000	6300	0	0	0
2017/06/07 01:28:00	BASE	22.18	15	25.72	23	-2.3	72	-6.6	0	0	976.8	NA	0.0000	-SN	9999	6330	0	0	0
2017/06/07 01:29:00	BASE	21.79	14	25.72	23	-2.3	73	-6.6	0	0	976.7	NA	0.0000	-SN	9000	6430	0	0	0
2017/06/07 01:30:00	BASE	21.75	15	25.46	19	-2.4	73	-6.5	0	0	976.9	NA	0.0000	-SN	4800	6370	0	0	0
2017/06/07 01:31:00	BASE	21.38	15	25.46	19	-2.4	73	-6.5	0	0	977.0	NA	0.0000	-SN	3600	6230	0	0	0
2017/06/07 01:32:00	BASE	21.93	14	25.46	19	-2.4	74	-6.5	0	0	976.8	NA	0.0000	-SN	3500	6140	0	0	0
2017/06/07 01:33:00	BASE	22.34	17	25.46	19	-2.4	74	-6.4	0	0	976.8	NA	0.0000	-SN	4200	5970	0	0	0
2017/06/07 01:34:00	BASE	21.51	17	25.41	20	-2.4	74	-6.4	0	0	976.9	NA	0.0000	-SN	4700	6000	0	0	0
2017/06/07 01:35:00	BASE	21.50	17	25.41	20	-2.3	74	-6.4	0	0	976.9	NA	0.0000	-SN	5000	6000	0	0	0
2017/06/07 01:36:00	BASE	21.79	20	25.41	9	-2.3	73	-6.4	0	0	976.9	NA	0.0000	-SN	4700	360	6070	0	0
2017/06/07 01:37:00	BASE	21.56	17	25.41	9	-2.2	73	-6.4	0	0	976.9	NA	0.0000	-SN	4200	6170	0	0	0
2017/06/07 01:38:00	BASE	21.88	19	25.46	18	-2.2	72	-6.5	0	0	976.9	NA	0.0000	-SN	4800	6170	0	0	0
2017/06/07 01:39:00	BASE	21.29	20	25.46	18	-2.1	72	-6.5	0	0	977.1	NA	0.0000	-SN	4900	6690	0	0	0
2017/06/07 01:40:00	BASE	20.80	19	25.46	18	-2.1	72	-6.5	0	0	977.1	NA	0.0000	-SN	5000	6530	0	0	0
2017/06/07 01:41:00	BASE	20.59	18	25.46	18	-2.1	72	-6.5	0	0	977.2	NA	0.0000	-SN	5000	6990	0	0	0
2017/06/07 01:42:00	BASE	19.96	15	25.46	18	-2.1	72	-6.5	0	0	977.1	NA	0.0000	-SN	5000	7020	0	0	0
2017/06/07 01:43:00	BASE	21.14	16	25.57	20	-2.1	72	-6.5	0	0	976.9	NA	0.0000	-SN	6000	0	0	0	1050
2017/06/07 01:44:00	BASE	21.32	19	25.57	20	-2.1	72	-6.5	0	0	977.2	NA	0.0000	-SN	6000	0	0	0	1180
2017/06/07 01:45:00	BASE	19.66	19	25.57	20	-2.1	72	-6.5	0	0	977.3	NA	0.0000	-SN	4700	7250	0	0	0
2017/06/07 01:46:00	BASE	20.19	18	25.57	20	-2.1	72	-6.5	0	0	977.1	NA	0.0000	-SN	5000	7280	0	0	0
2017/06/07 01:47:00	BASE	21.27	16	25.57	20	-2.1	72	-6.5	0	0	977.2	NA	0.0000	-SN	7000	5610	7280	0	0
2017/06/07 01:48:00	BASE	20.62	15	25.57	20	-2.1	72	-6.5	0	0	977.2	NA	0.0000	-SN	8000	5350	6100	0	0
2017/06/07 01:49:00	BASE	20.76	16	25.57	20	-2.1	72	-6.5	0	0	977.2	NA	0.0000	-SN	9999	5380	6230	0	0
2017/06/07 01:50:00	BASE	21.38	18	25.57	20	-2.1	72	-6.6	0	0	977.2	NA	0.0000	-SN	9999	5540	6330	0	0
2017/06/07 01:51:00	BASE	21.06	17	25.57	20	-2.1	71	-6.6	0	0	977.3	NA	0.0000	-SN	9999	5810	6860	0	0
2017/06/07 01:52:00	BASE	20.51	18	25.57	20	-2.1	71	-6.6	0	0	977.3	NA	0.0000	-SN	8000	6370	6960	0	0
2017/06/07 01:53:00	BASE	20.15	19	23.61	18	-2.1	71	-6.6	0	0	977.3	NA	0.0000	-SN	8000	6330	7020	0	0
2017/06/07 01:54:00	BASE	20.14	18	23.61	18	-2.1	71	-6.6	0	0	977.4	NA	0.0000	-SN	9999	6430	0	0	0
2017/06/07 01:55:00	BASE	20.34	15	23.61	18	-2.1	71	-6.6	0	0	977.4	NA	0.0000	-SN	9999	6530	0	0	0
2017/06/07 01:56:00	BASE	20.80	16	24.54	15	-2.1	71	-6.6	0	0	977.3	NA	0.0000	-SN	9999	6560	0	0	0
2017/06/07 01:57:00	BASE	20.94	17	24.54	15	-2.1	71	-6.6	0	0	977.5	NA	0.0000	-SN	8000	6630	0	0	0
2017/06/07 01:58:00	BASE	19.64	15	24.54	15	-2.1	72	-6.5	0	0	977.5	NA	0.0000	-SN	6000	6630	0	0	0
2017/06/07 01:59:00	BASE	19.42	16	24.54	15	-2.0	72	-6.5	0	0	977.5	NA	0.0000	-SN	6000	6400	0	0	0
2017/06/07 02:00:00	BASE	21.21	18	24.54	15	-2.0	72	-6.4	0	0	977.4	NA	0.0000	-SN	9000	6230	0	0	0
2017/06/07 02:01:00	BASE	21.68	19	24.54	15	-2.0	72	-6.4	0	0	977.4	NA	0.0000	-SN	9999	6170	0	0	0
2017/06/07 02:02:00	BASE	20.78	17	24.54	15	-2.0	72	-6.4	0	0	977.5	NA	0.0000	-SN	9999	6100	0	0	0
2017/06/07 02:03:00	BASE	21.28	18	24.54	15	-2.0	71	-6.5	0	0	977.5	NA	0.0000	-SN	9999	6070	0	0	0
2017/06/07 02:04:00	BASE	21.05	16	24.54	15	-2.0	71	-6.5	0	0	977.6	NA	0.0000	-SN	9999	5940	0	0	0
2017/06/07 02:05:00	BASE	19.49	14	24.54	15	-2.0	71	-6.6	0	0	977.6	NA	0.0000	-SN	9999	5910	0	0	0
2017/06/07 02:06:00	BASE	19.72	17	24.38	16	-2.0	71	-6.6	0	0	977.5	NA	0.0000	-SN	9999	6370	0	0	0
2017/06/07 02:07:00	BASE	20.88	18	24.38	16	-2.0	71	-6.6	0	0	977.6	NA	0.0000	-SN	9999	6430	0	0	0
2017/06/07 02:08:00	BASE	20.39	17	24.38	16	-2.0	71	-6.6	0	0	977.6	NA	0.0000	-SN	9999	6460	0	0	0
2017/06/07 02:09:00	BASE	20.07	14	24.38	16	-2.0	71	-6.6	0	0	977.6	NA	0.0000	-SN	9999	6430	0	0	0
2017/06/07 02:10:00	BASE	20.56	13	23.56	18	-1.9	70	-6.6	0	0	977.7	NA	0.0000	-SN	9999	6500	0	0	0
2017/06/07 02:11:00	BASE	20.94	12	23.56	18	-1.9	70	-6.6	0	0	977.5	NA	0.0000	-SN	9999	6530	0	0	0
2017/06/07 02:12:00	BASE	20.57	13	23.56	18	-1.9	70	-6.6	0	0	977.6	NA	0.0000	-SN	9000	6460	0	0	0
2017/06/07 02:13:00	BASE	20.59	15	24.74	10	-1.9	70	-6.5	0	0	977.4	NA	0.0000	-SN	7000	6500	0	0	0
2017/06/07 02:14:00	BASE	22.41	18	26.08	21	-1.9	71	-6.5	0	0	977.4	NA	0.0000	-SN	6000	6400	0	0	0
2017/06/07 02:15:00	BASE	22.24	18	26.08	21	-1.9	71	-6.5	0	0	977.7	NA	0.0000	-SN	5000	6530	0	0	0
2017/06/07 02:16:00	BASE	20.65	18	26.08	21	-1.9	71	-6.5	0	0	977.8	NA	0.0000	-SN	4900	6660	0	0	0
2017/06/07 02:17:00	BASE	21.08	18	26.08	21	-1.9	71	-6.5	0	0	977.6	NA	0.0000	-SN	4200	6300	0	0	0
2017/06/07 02:18:00	BASE	21.66	15	26.08	21	-1.9	71	-6.5	0	0	977.8	NA	0.0000	-SN	4000	6300	0	0	0
2017/06/07 02:19:00	BASE	21.50	14	26.08	21	-2.0	71	-6.5	0	0	977.8	NA	0.0000	-SN	3600	6430	0	0	0
2017/06/07 02:20:00	BASE	20.53	13	26.08	21	-2.0	71	-6.5	0	0	977.9	NA	0.0000	-SN	3600	6460	0	0	0
2017/06/07 02:21:00	BASE	19.39	14	26.08	21	-2.0	72	-6.5	0	0	977.9	NA	0.0000	-SN	3700	6200	0	0	0
2017/06/07 02:22:00	BASE	20.81	15	26.08	21	-2.0	72	-6.4	0	0	977.6	NA	0.0000	-SN	3700	6330	0	0	0
2017/06/07 02:23:00	BASE	21.27	15	26.08	21	-2.0	72	-6.4	0	0	977.9	NA	0.0000	-SN	3400	6000	0	0	0
2017/06/07 02:24:00	BASE	20.29	15	24.18	7	-2.0	72	-6.4	0	0	977.9	NA	0.0000	-SN	3900	6370	0	0	0
2017/06/07 02:25:00	BASE	20.94	15	24.28	28	-2.0	72	-6.4	0	0	977.7	NA	0.0000	-SN	5000	0	0	0	1510
2017/06/07 02:26:00	BASE	20.86	16	24.28	28	-2.0	72	-6.4	0	0	977.7	NA	0.0000	-SN	6000	0	0	0	1480
2017/06/07 02:27:00	BASE	20.54	15	24.28	28	-2.0	72	-6.4	0	0	977.7	NA	0.0000	-SN	8000	0	0	0	1440
2017/06/07 02:28:00	BASE	21.31	15	24.28	28	-2.1	72	-6.4	0	0	977.7	NA	0.0000	-SN	9000	0	0	0	1410
2017/06/07 02:29:00	BASE	21.54	17	24.28	28	-2.0	72	-6.4	0	0	977.7	NA	0.0000	-SN	7000	4950	0	0	0
2017/06/07 02:30:00	BASE	21.68	17	24.28	28	-2.0	72	-6.4	0	0	977.7	NA	0.0000	-SN	6000	5050	0	0	0
2017/06/07 02:31:00	BASE	21.76	16	24.28	28	-2.0	72	-6.4	0	0	977.8	NA	0.0000	-SN	7000	4950	0	0	0
2017/06/07 02:32:00	BASE	21.75	16	24.28	10	-2.0	72	-6.5	0	0	977.6	NA	0.0000	-SN	9999	5380	0	0	0
2017/06/07 02:33:00	BASE	21.61	17	24.28	10	-2.0	71	-6.5	0	0	977.8	NA	0.0000	-SN	7000	5180	0	0	0
2017/06/07 02:34:00	BASE	20.43	17	24.28	10	-2.0	71	-6.6	0	0	978.0	NA	0.0000	-SN	7000	5150	0	0	0
2017/06/07 02:35:00	BASE	20.93	17	24.74	20	-2.1	71	-6.6	0	0	977.6	NA	0.0000	-SN	7000	4990	0	0	0
2017/06/07 02:36:00	BASE	22.98	16	25.16	10	-2.1	71	-6.6	0	0	977.5	NA	0.0000	-SN	6000	4720	0	0	0
2017/06/07 02:37:00	BASE	22.21	14	25.16	10	-2.1	71	-6.6	0	0	977.9	NA	0.0000	-SN	8000	4950	0	0	0
2017/06/07 02:38:00	BASE	19.48	15	25.16	10	-2.0	71	-6.6	0	0	978.0	NA	0.0000	-SN	9999	0	0	0	1440
2017/06/07 02:39:00	BASE	19.19	14	25.16	10	-1.9	71	-6.5	0	0	977.7	NA	0.0000	-SN	9999	0	0	0	1050
2017/06/07 02:40:00	BASE	20.37	13	25.16	10	-1.9	71	-6.5	0	0	977.8	NA	0.0000	-SN	9999	0	0	0	1180
2017/06/07 02:41:00	BASE	20.81	15	25.16	10	-1.8	71	-6.4	0	0	977.7	NA	0.0000	-SN	9999	4920	0	0	0
2017/06/07 02:42:00	BASE	21.61	14	25.16	10	-1.8	71	-6.4	0	0	977.6	NA	0.0000	-SN	9999	4530	6920	0	0
2017/06/07 02:43:00	BASE	21.58	13	25.16	10	-1.7	71	-6.4	0	0	977.7	NA	0.0000	-SN	9999	5450	7220	0	0
2017/06/07 02:44:00	BASE	20.65	12	25.16	10	-1.7	71	-6.4	0	0	977.8	NA	0.0000	-SN	9999	4890	0	0	0
2017/06/07 02:45:00	BASE	20.18	13	25.16	10	-1.8	70	-6.5	0	0	977.8	NA	0.0000	-SN	9999	4890	0	0	0
2017/06/07 02:46:00	BASE	20.96	16	24.64	11	-1.8	70	-6.5	0	0	977.6	NA	0.0000	-SN	9999	0	0	0	950
2017/06/07 02:47:00	BASE	21.18	15	24.64	11	-1.9	70	-6.6	0	0	977.8	NA	0.0000		9999	0	0	0	1150
2017/06/07 02:48:00	BASE	20.39	12	24.64	11	-1.9	70	-6.6	0	0	977.8	NA	0.0000		9999	0	0	0	790
2017/06/07 02:49:00	BASE	20.54	13	24.64	11	-1.9	70	-6.6	0	0	977.9	NA	0.0000		8000	8400	0	0	0
2017/06/07 02:50:00	BASE	20.54	12	24.64	11	-1.9	71	-6.5	0	0	977.8	NA	0.0000	-SN	9999	16670	0	0	0
2017/06/07 02:51:00	BASE	21.05	11	25.00	14	-1.9	71	-6.5	0	0	977.6	NA	0.0000	-SN	9999	430	16210	0	0
2017/06/07 02:52:00	BASE	21.54	11	25.77	12	-1.9	71	-6.4	0	0	977.7	NA	0.0000	-SN	9000	390	7940	0	0
2017/06/07 02:53:00	BASE	20.54	11	25.77	12	-1.8	71	-6.4	0	0	978.0	NA	0.0000	-SN	7000	390	7320	0	0
2017/06/07 02:54:00	BASE	19.74	11	25.77	12	-1.8	71	-6.4	0	0	977.8	NA	0.0000	-SN	6000	6990	0	0	0
2017/06/07 02:55:00	BASE	21.04	12	25.77	12	-1.8	71	-6.3	0	0	977.6	NA	0.0000	-SN	7000	7090	0	0	0
2017/06/07 02:56:00	BASE	20.79	12	25.77	12	-1.8	71	-6.3	0	0	978.0	NA	0.0000	-SN	7000	390	7320	0	0
2017/06/07 02:57:00	BASE	18.87	11	25.77	12	-1.8	72	-6.2	0	0	978.0	NA	0.0000	-SN	7000	6890	0	0	0
2017/06/07 02:58:00	BASE	19.38	14	25.77	12	-1.8	72	-6.2	0	0	977.8	NA	0.0000	-SN	9000	6760	7550	0	0
2017/06/07 02:59:00	BASE	19.83	14	25.77	12	-1.8	72	-6.2	0	0	977.9	NA	0.0000	-SN	9999	7380	0	0	0
2017/06/07 03:00:00	BASE	19.47	13	25.77	12	-1.8	72	-6.2	0	0	978.0	NA	0.0000	-SN	9999	7250	0	0	0
2017/06/07 03:01:00	BASE	19.96	15	25.77	12	-1.8	72	-6.2	0	0	978.0	NA	0.0000	-SN	9999	7090	0	0	0
2017/06/07 03:02:00	BASE	20.16	16	23.87	9	-1.8	72	-6.2	0	0	978.0	NA	0.0000	-SN	9999	5840	0	0	0
2017/06/07 03:03:00	BASE	21.41	15	25.77	17	-1.8	72	-6.2	0	0	977.6	NA	0.0000	-SN	9999	7120	0	0	0
2017/06/07 03:04:00	BASE	22.03	13	25.77	17	-1.8	72	-6.2	0	0	978.0	NA	0.0000	-SN	9999	7090	0	0	0
2017/06/07 03:05:00	BASE	20.60	14	25.77	17	-1.8	72	-6.2	0	0	978.0	NA	0.0000	-SN	9999	7050	0	0	0
2017/06/07 03:06:00	BASE	20.35	13	25.77	17	-1.8	72	-6.2	0	0	978.0	NA	0.0000	-SN	9999	6200	7120	0	0
2017/06/07 03:07:00	BASE	21.33	13	25.77	17	-1.8	72	-6.2	0	0	977.9	NA	0.0000	-SN	9999	7640	0	0	0
2017/06/07 03:08:00	BASE	20.74	14	25.77	17	-1.8	72	-6.2	0	0	978.1	NA	0.0000		9999	0	0	0	0
2017/06/07 03:09:00	BASE	20.07	15	25.77	17	-1.8	72	-6.2	0	0	978.1	NA	0.0000		9999	0	0	0	750
2017/06/07 03:10:00	BASE	20.71	13	25.77	17	-1.8	72	-6.2	0	0	978.1	NA	0.0000		9999	6990	0	0	0
2017/06/07 03:11:00	BASE	21.31	11	25.77	17	-1.8	72	-6.2	0	0	978.1	NA	0.0000		9999	6330	0	0	0
2017/06/07 03:12:00	BASE	21.44	11	25.77	17	-1.8	72	-6.2	0	0	978.1	NA	0.0000	-SN	9999	6460	0	0	0
2017/06/07 03:13:00	BASE	21.44	15	25.36	18	-1.7	72	-6.1	0	0	978.0	NA	0.0000	-SN	9999	6500	0	0	0
2017/06/07 03:14:00	BASE	21.57	15	25.36	18	-1.7	72	-6.1	0	0	978.1	NA	0.0000	-SN	9999	6730	0	0	0
2017/06/07 03:15:00	BASE	20.58	14	25.36	18	-1.7	72	-6.0	0	0	978.3	NA	0.0000	-SN	9999	6270	7350	0	0
2017/06/07 03:16:00	BASE	19.92	14	25.36	18	-1.6	72	-6.0	0	0	978.3	NA	0.0000	-SN	9999	5840	0	0	0
2017/06/07 03:17:00	BASE	20.71	16	25.36	18	-1.6	72	-6.0	0	0	978.1	NA	0.0000	-SN	9999	5870	0	0	0
2017/06/07 03:18:00	BASE	22.02	17	25.36	18	-1.6	72	-6.0	0	0	978.0	NA	0.0000	-SN	9999	5710	0	0	0
2017/06/07 03:19:00	BASE	21.92	16	25.36	18	-1.7	72	-6.1	0	0	978.2	NA	0.0000	-SN	7000	5610	0	0	0
2017/06/07 03:20:00	BASE	21.03	16	25.36	18	-1.7	72	-6.1	0	0	978.1	NA	0.0000	-SN	6000	6200	0	0	0
2017/06/07 03:21:00	BASE	20.49	16	25.36	18	-1.7	72	-6.1	0	0	978.3	NA	0.0000	-SN	5000	6890	18050	0	0
2017/06/07 03:22:00	BASE	19.67	18	25.36	18	-1.8	72	-6.1	0	0	978.2	NA	0.0000	-SN	6000	6920	18080	0	0
2017/06/07 03:23:00	BASE	19.79	16	25.31	15	-1.8	73	-6.1	0	0	978.1	NA	0.0000	-SN	7000	0	0	0	1080
2017/06/07 03:24:00	BASE	20.49	12	25.31	15	-1.9	73	-6.1	0	0	978.1	NA	0.0000	-SN	7000	0	0	0	1120
2017/06/07 03:25:00	BASE	20.65	12	25.31	15	-1.9	73	-6.0	0	0	978.1	NA	0.0000	-SN	5000	360	0	0	0
2017/06/07 03:26:00	BASE	20.69	11	25.31	15	-1.9	73	-6.0	0	0	978.1	NA	0.0000	-SN	4500	360	0	0	0
2017/06/07 03:27:00	BASE	19.86	10	25.31	15	-1.8	74	-5.9	0	0	978.2	NA	0.0000	-SN	4500	360	0	0	0
2017/06/07 03:28:00	BASE	19.79	11	24.74	20	-1.8	74	-5.9	0	0	978.0	NA	0.0000	-SN	3900	6660	0	0	0
2017/06/07 03:29:00	BASE	21.02	10	24.74	20	-1.9	74	-5.8	0	0	978.0	NA	0.0000	-SN	3200	0	0	0	790
2017/06/07 03:30:00	BASE	21.90	9	24.90	10	-1.9	74	-5.8	0	0	977.8	NA	0.0000	-SN	3200	330	0	0	0
2017/06/07 03:31:00	BASE	22.50	9	24.90	10	-1.9	75	-5.8	0	0	977.9	NA	0.0000	-SN	3600	0	0	0	1120
2017/06/07 03:32:00	BASE	21.78	9	24.90	10	-2.0	75	-5.8	0	0	978.1	NA	0.0000	-SN	3600	0	0	0	1210
2017/06/07 03:33:00	BASE	20.36	8	24.90	10	-2.0	75	-5.8	0	0	978.2	NA	0.0000	-SN	3700	0	0	0	1180
2017/06/07 03:34:00	BASE	20.13	8	24.90	10	-2.0	75	-5.9	0	0	978.0	NA	0.0000	-SN	3800	0	0	0	1210
2017/06/07 03:35:00	BASE	21.18	11	24.90	10	-2.0	75	-5.8	0	0	977.9	NA	0.0000	-SN	3900	0	0	0	820
2017/06/07 03:36:00	BASE	21.34	12	24.90	10	-2.1	75	-5.8	0	0	978.1	NA	0.0000	-SN	6000	0	0	0	750
2017/06/07 03:37:00	BASE	21.95	13	25.16	4	-2.1	76	-5.8	0	0	978.0	NA	0.0000	-SN	9999	0	0	0	0
2017/06/07 03:38:00	BASE	22.44	11	25.16	4	-2.1	76	-5.8	0	0	978.1	NA	0.0000	-SN	9999	0	0	0	0
2017/06/07 03:39:00	BASE	20.91	9	25.16	4	-2.1	76	-5.8	0	0	978.1	NA	0.0000	-SN	9999	0	0	0	0
2017/06/07 03:40:00	BASE	21.35	10	26.91	14	-2.0	76	-5.8	0	0	977.9	NA	0.0000	-SN	9999	0	0	0	890
2017/06/07 03:41:00	BASE	22.23	12	26.91	14	-2.0	75	-5.8	0	0	978.0	NA	0.0000	-SN	9999	0	0	0	0
2017/06/07 03:42:00	BASE	21.72	14	26.91	14	-2.0	75	-5.9	0	0	978.1	NA	0.0000	-SN	9999	0	0	0	0
2017/06/07 03:43:00	BASE	21.08	12	26.91	14	-2.0	74	-5.9	0	0	978.2	NA	0.0000	-SN	9999	0	0	0	0
2017/06/07 03:44:00	BASE	20.24	12	26.91	14	-2.0	74	-6.0	0	0	978.3	NA	0.0000	-SN	9999	0	0	0	0
2017/06/07 03:45:00	BASE	20.37	12	26.91	14	-2.0	74	-6.0	0	0	978.2	NA	0.0000	-SN	9999	0	0	0	0
2017/06/07 03:46:00	BASE	20.64	10	26.91	14	-2.0	74	-6.0	0	0	978.1	NA	0.0000		9999	0	0	0	0
2017/06/07 03:47:00	BASE	21.26	12	26.91	14	-2.0	74	-6.1	0	0	978.0	NA	0.0000		9999	0	0	0	0
2017/06/07 03:48:00	BASE	21.75	12	26.91	14	-2.0	74	-6.1	0	0	978.1	NA	0.0000		9999	0	0	0	0
2017/06/07 03:49:00	BASE	21.48	9	26.91	14	-2.0	73	-6.1	0	0	978.1	NA	0.0000		9999	0	0	0	0
2017/06/07 03:50:00	BASE	20.90	13	25.05	10	-2.0	73	-6.2	0	0	978.2	NA	0.0000		9999	0	0	0	0
2017/06/07 03:51:00	BASE	20.75	13	25.05	10	-2.0	73	-6.2	0	0	978.1	NA	0.0000		9999	0	0	0	0
2017/06/07 03:52:00	BASE	21.11	10	25.05	10	-2.0	73	-6.2	0	0	978.1	NA	0.0000		9999	0	0	0	0
2017/06/07 03:53:00	BASE	21.12	8	25.05	10	-2.1	73	-6.2	0	0	978.0	NA	0.0000		9999	0	0	0	0
2017/06/07 03:54:00	BASE	21.95	7	25.88	6	-2.1	73	-6.2	0	0	977.9	NA	0.0000		9999	0	0	0	0
2017/06/07 03:55:00	BASE	21.72	6	25.88	6	-2.1	73	-6.2	0	0	978.1	NA	0.0000		9999	0	0	0	0
2017/06/07 03:56:00	BASE	21.27	9	25.88	6	-2.1	73	-6.2	0	0	977.9	NA	0.0000		9999	0	0	0	0
2017/06/07 03:57:00	BASE	22.17	12	27.01	3	-2.1	73	-6.2	0	0	977.8	NA	0.0000		9999	0	0	0	0
2017/06/07 03:58:00	BASE	22.73	10	27.01	3	-2.1	73	-6.2	0	0	978.0	NA	0.0000		9999	0	0	0	0
2017/06/07 03:59:00	BASE	22.14	8	27.01	3	-2.1	73	-6.2	0	0	978.1	NA	0.0000		9999	0	0	0	0
2017/06/07 04:00:00	BASE	20.96	6	27.01	3	-2.1	73	-6.3	0	0	978.2	NA	0.0000		9999	0	0	0	0
2017/06/07 04:01:00	BASE	21.01	5	27.01	3	-2.1	73	-6.2	0	0	978.1	NA	0.0000		9999	0	0	0	0
2017/06/07 04:02:00	BASE	20.89	8	27.01	3	-2.1	74	-6.2	0	0	978.2	NA	0.0000		9999	0	0	0	0
2017/06/07 04:03:00	BASE	21.33	11	27.01	3	-2.1	74	-6.2	0	0	977.9	NA	0.0000		9999	0	0	0	0
2017/06/07 04:04:00	BASE	22.11	11	27.01	3	-2.1	74	-6.2	0	0	978.0	NA	0.0000		9999	0	0	0	0
2017/06/07 04:05:00	BASE	23.23	11	27.47	1	-2.1	74	-6.1	0	0	977.9	NA	0.0000		9999	0	0	0	0
2017/06/07 04:06:00	BASE	23.17	12	27.47	1	-2.1	74	-6.1	0	0	978.1	NA	0.0000		9999	0	0	0	0
2017/06/07 04:07:00	BASE	22.07	10	27.47	1	-2.2	74	-6.2	0	0	978.1	NA	0.0000		9999	18210	0	0	0
2017/06/07 04:08:00	BASE	22.63	9	27.47	1	-2.1	74	-6.1	0	0	978.2	NA	0.0000		9999	18280	0	0	0
2017/06/07 04:09:00	BASE	22.72	9	27.47	1	-2.1	74	-6.1	0	0	978.2	NA	0.0000		9999	0	0	0	0
2017/06/07 04:10:00	BASE	22.12	8	27.47	1	-2.1	74	-6.0	0	0	978.3	NA	0.0000		9999	18080	0	0	0
2017/06/07 04:11:00	BASE	21.71	7	27.47	1	-2.1	74	-6.0	0	0	978.2	NA	0.0000		9999	17910	0	0	0
2017/06/07 04:12:00	BASE	22.26	6	27.47	1	-2.0	74	-6.0	0	0	978.1	NA	0.0000		9999	0	0	0	0
2017/06/07 04:13:00	BASE	22.76	7	27.47	1	-2.0	74	-6.0	0	0	978.1	NA	0.0000		9999	0	0	0	0
2017/06/07 04:14:00	BASE	22.17	9	27.47	1	-2.0	74	-6.1	0	0	978.2	NA	0.0000		9999	0	0	0	0
2017/06/07 04:15:00	BASE	21.95	9	27.21	15	-2.0	73	-6.2	0	0	978.2	NA	0.0000		9999	0	0	0	0
2017/06/07 04:16:00	BASE	22.78	9	27.21	15	-2.0	73	-6.2	0	0	978.1	NA	0.0000		9999	0	0	0	0
2017/06/07 04:17:00	BASE	22.11	9	27.21	15	-2.0	73	-6.2	0	0	978.3	NA	0.0000		9999	0	0	0	0
2017/06/07 04:18:00	BASE	21.09	8	27.21	15	-2.0	73	-6.2	0	0	978.2	NA	0.0000		9999	0	0	0	0
2017/06/07 04:19:00	BASE	21.81	7	27.21	15	-2.0	73	-6.2	0	0	978.2	NA	0.0000		9999	0	0	0	0
2017/06/07 04:20:00	BASE	21.95	8	27.21	15	-2.0	73	-6.2	0	0	978.4	NA	0.0000		9999	0	0	0	0
2017/06/07 04:21:00	BASE	21.62	8	27.21	15	-2.0	73	-6.2	0	0	978.3	NA	0.0000		9999	0	0	0	0
2017/06/07 04:22:00	BASE	21.56	8	27.21	15	-2.0	73	-6.2	0	0	978.5	NA	0.0000		9999	0	0	0	0
2017/06/07 04:23:00	BASE	21.17	7	27.21	15	-2.0	73	-6.2	0	0	978.5	NA	0.0000		9999	0	0	0	0
2017/06/07 04:24:00	BASE	21.96	6	27.21	15	-2.0	73	-6.2	0	0	978.3	NA	0.0000		9999	0	0	0	0
2017/06/07 04:25:00	BASE	23.04	7	25.77	15	-2.0	73	-6.3	0	0	978.3	NA	0.0000		9999	0	0	0	0
2017/06/07 04:26:00	BASE	22.42	7	25.72	10	-2.0	72	-6.3	0	0	978.5	NA	0.0000		9999	15520	0	0	0
2017/06/07 04:27:00	BASE	21.97	4	25.72	10	-2.0	72	-6.3	0	0	978.5	NA	0.0000		9999	15580	0	0	0
2017/06/07 04:28:00	BASE	21.81	4	25.72	10	-1.9	72	-6.4	0	0	978.7	NA	0.0000		9999	15580	0	0	0
2017/06/07 04:29:00	BASE	21.33	8	25.72	10	-1.9	72	-6.4	0	0	978.7	NA	0.0000		9999	15620	0	0	0
2017/06/07 04:30:00	BASE	21.51	7	25.72	10	-1.9	71	-6.4	0	0	978.6	NA	0.0000		9999	15650	0	0	0
2017/06/07 04:31:00	BASE	22.13	2	25.72	10	-1.9	71	-6.4	0	0	978.5	NA	0.0000		9999	0	0	0	0
2017/06/07 04:32:00	BASE	22.52	4	25.72	10	-1.9	71	-6.5	0	0	978.6	NA	0.0000		9999	15750	0	0	0
2017/06/07 04:33:00	BASE	21.95	8	25.72	10	-1.9	71	-6.5	0	0	978.6	NA	0.0000		9999	15810	0	0	0
2017/06/07 04:34:00	BASE	20.83	8	25.72	10	-1.9	71	-6.5	0	0	978.8	NA	0.0000		9999	15850	0	0	0
2017/06/07 04:35:00	BASE	20.38	7	24.85	8	-1.9	71	-6.5	0	0	978.7	NA	0.0000		9999	15780	0	0	0
2017/06/07 04:36:00	BASE	20.72	6	24.85	8	-1.9	71	-6.5	0	0	978.8	NA	0.0000		9999	0	0	0	0
2017/06/07 04:37:00	BASE	20.35	6	24.85	8	-1.9	71	-6.5	0	0	978.8	NA	0.0000		9999	0	0	0	0
2017/06/07 04:38:00	BASE	20.59	8	24.85	8	-1.9	71	-6.5	0	0	978.7	NA	0.0000		9999	0	0	0	0
2017/06/07 04:39:00	BASE	21.22	6	24.85	8	-1.9	71	-6.5	0	0	978.8	NA	0.0000		9999	0	0	0	0
2017/06/07 04:40:00	BASE	20.54	3	24.85	8	-1.9	71	-6.5	0	0	978.9	NA	0.0000		9999	0	0	0	0
2017/06/07 04:41:00	BASE	19.68	2	24.85	8	-1.9	71	-6.5	0	0	979.0	NA	0.0000		9999	0	0	0	0
2017/06/07 04:42:00	BASE	20.58	4	24.85	8	-2.0	71	-6.5	0	0	978.9	NA	0.0000		9999	0	0	0	0
2017/06/07 04:43:00	BASE	21.99	5	24.85	8	-2.0	71	-6.5	0	0	978.9	NA	0.0000		9999	0	0	0	0
2017/06/07 04:44:00	BASE	21.87	4	24.85	8	-2.0	71	-6.5	0	0	979.0	NA	0.0000		9999	0	0	0	0
2017/06/07 04:45:00	BASE	21.66	4	24.08	2	-2.0	71	-6.5	0	0	979.0	NA	0.0000		9999	0	0	0	0
2017/06/07 04:46:00	BASE	20.95	8	24.08	2	-2.0	71	-6.5	0	0	979.1	NA	0.0000		9999	0	0	0	0
2017/06/07 04:47:00	BASE	20.74	9	24.08	2	-2.0	71	-6.5	0	0	979.0	NA	0.0000		9999	0	0	0	0
2017/06/07 04:48:00	BASE	21.14	4	24.08	2	-2.0	71	-6.6	0	0	979.1	NA	0.0000		9999	0	0	0	0
2017/06/07 04:49:00	BASE	21.04	4	24.08	2	-2.0	71	-6.6	0	0	979.2	NA	0.0000		9999	0	0	0	0
2017/06/07 04:50:00	BASE	20.83	7	24.08	2	-2.0	71	-6.6	0	0	979.2	NA	0.0000		9999	0	0	0	0
2017/06/07 04:51:00	BASE	20.56	4	24.08	2	-2.1	71	-6.6	0	0	979.3	NA	0.0000		9999	0	0	0	0
2017/06/07 04:52:00	BASE	20.40	3	23.61	8	-2.1	71	-6.6	0	0	979.3	NA	0.0000		9999	0	0	0	0
2017/06/07 04:53:00	BASE	20.16	5	23.56	4	-2.1	71	-6.7	0	0	979.4	NA	0.0000		9999	0	0	0	0
2017/06/07 04:54:00	BASE	20.16	4	23.51	7	-2.1	71	-6.7	0	0	979.4	NA	0.0000		9999	0	0	0	0
2017/06/07 04:55:00	BASE	20.58	5	23.41	8	-2.1	71	-6.6	0	0	979.4	NA	0.0000		9999	0	0	0	0
2017/06/07 04:56:00	BASE	20.68	8	23.41	8	-2.1	71	-6.7	0	0	979.4	NA	0.0000		9999	0	0	0	0
2017/06/07 04:57:00	BASE	20.17	6	23.41	8	-2.1	71	-6.7	0	0	979.5	NA	0.0000		9999	0	0	0	0
2017/06/07 04:58:00	BASE	19.98	4	23.41	8	-2.1	70	-6.7	0	0	979.5	NA	0.0000		9999	0	0	0	0
2017/06/07 04:59:00	BASE	19.93	4	23.41	8	-2.1	70	-6.8	0	0	979.6	NA	0.0000		9999	0	0	0	0
2017/06/07 05:00:00	BASE	20.00	4	23.41	8	-2.1	70	-6.8	0	0	979.5	NA	0.0000		9999	0	0	0	0
2017/06/07 05:01:00	BASE	19.81	3	23.41	8	-2.2	70	-6.9	0	0	979.7	NA	0.0000		9999	0	0	0	0
2017/06/07 05:02:00	BASE	19.47	3	23.41	8	-2.2	70	-6.9	0	0	979.7	NA	0.0000		9999	0	0	0	0
2017/06/07 05:03:00	BASE	19.94	5	23.41	8	-2.2	70	-6.9	0	0	979.7	NA	0.0000		9999	0	0	0	0
2017/06/07 05:04:00	BASE	19.32	6	23.41	8	-2.1	70	-6.8	0	0	979.8	NA	0.0000		9999	0	0	0	0
2017/06/07 05:05:00	BASE	18.35	5	22.48	7	-2.1	70	-6.9	0	0	979.8	NA	0.0000		9999	0	0	0	0
2017/06/07 05:06:00	BASE	18.87	6	22.48	7	-2.1	70	-6.9	0	0	979.7	NA	0.0000		9999	0	0	0	0
2017/06/07 05:07:00	BASE	19.12	7	22.48	7	-2.1	70	-6.8	0	0	979.7	NA	0.0000		9999	0	0	0	0
2017/06/07 05:08:00	BASE	18.75	6	22.48	7	-2.1	70	-6.9	0	0	979.8	NA	0.0000		9999	0	0	0	0
2017/06/07 05:09:00	BASE	18.75	5	22.48	7	-2.1	70	-6.9	0	0	979.8	NA	0.0000		9999	0	0	0	0
2017/06/07 05:10:00	BASE	19.14	6	22.48	7	-2.1	69	-6.9	0	0	979.8	NA	0.0000		9999	0	0	0	0
2017/06/07 05:11:00	BASE	19.75	5	22.48	7	-2.1	69	-7.0	0	0	979.8	NA	0.0000		9999	0	0	0	0
2017/06/07 05:12:00	BASE	19.69	6	22.12	6	-2.1	69	-7.0	0	0	979.9	NA	0.0000		9999	0	0	0	0
2017/06/07 05:13:00	BASE	19.42	6	22.12	6	-2.1	69	-7.0	0	0	979.9	NA	0.0000		9999	0	0	0	0
2017/06/07 05:14:00	BASE	19.34	5	22.12	6	-2.1	69	-7.0	0	0	979.9	NA	0.0000		9999	0	0	0	0
2017/06/07 05:15:00	BASE	19.21	8	21.97	6	-2.1	69	-7.0	0	0	979.9	NA	0.0000		9999	0	0	0	0
2017/06/07 05:16:00	BASE	19.21	7	21.86	10	-2.2	70	-7.0	0	0	979.9	NA	0.0000		9999	0	0	0	0
2017/06/07 05:17:00	BASE	18.95	6	21.86	10	-2.2	70	-7.0	0	0	980.1	NA	0.0000		9999	0	0	0	0
2017/06/07 05:18:00	BASE	18.58	7	21.86	10	-2.2	70	-6.9	0	0	980.1	NA	0.0000		9999	0	0	0	0
2017/06/07 05:19:00	BASE	17.44	7	21.86	10	-2.3	70	-6.9	0	0	980.2	NA	0.0000		9999	0	0	0	0
2017/06/07 05:20:00	BASE	17.02	8	21.86	10	-2.3	71	-6.9	0	0	980.1	NA	0.0000		9999	0	0	0	0
2017/06/07 05:21:00	BASE	17.18	8	21.86	10	-2.3	71	-6.9	0	0	980.3	NA	0.0000		9999	0	0	0	0
2017/06/07 05:22:00	BASE	16.91	10	21.86	10	-2.3	71	-6.8	0	0	980.2	NA	0.0000		9999	0	0	0	0
2017/06/07 05:23:00	BASE	17.48	8	21.86	10	-2.2	71	-6.8	0	0	980.1	NA	0.0000		9999	0	0	0	0
2017/06/07 05:24:00	BASE	17.65	6	21.86	10	-2.2	71	-6.8	0	0	980.3	NA	0.0000		9999	0	0	0	0
2017/06/07 05:25:00	BASE	17.43	9	21.86	10	-2.2	71	-6.8	0	0	980.2	NA	0.0000		9999	0	0	0	0
2017/06/07 05:26:00	BASE	17.03	8	20.22	3	-2.1	70	-6.8	0	0	980.2	NA	0.0000		9999	0	0	0	0
2017/06/07 05:27:00	BASE	16.93	7	20.11	11	-2.1	70	-6.8	0	0	980.3	NA	0.0000		9999	0	0	0	0
2017/06/07 05:28:00	BASE	16.40	9	20.11	11	-2.1	70	-6.8	0	0	980.4	NA	0.0000		9999	0	0	0	0
2017/06/07 05:29:00	BASE	15.64	11	20.11	11	-2.1	70	-6.8	0	0	980.3	NA	0.0000		9999	0	0	0	0
2017/06/07 05:30:00	BASE	15.63	8	20.11	11	-2.1	70	-6.8	0	0	980.4	NA	0.0000		9999	0	0	0	0
2017/06/07 05:31:00	BASE	16.45	9	21.35	13	-2.1	70	-6.8	0	0	980.3	NA	0.0000		9999	0	0	0	0
2017/06/07 05:32:00	BASE	17.28	8	21.35	13	-2.1	70	-6.8	0	0	980.3	NA	0.0000		9999	0	0	0	0
2017/06/07 05:33:00	BASE	17.24	9	21.35	13	-2.1	70	-6.9	0	0	980.3	NA	0.0000		9999	0	0	0	0
2017/06/07 05:34:00	BASE	17.27	10	21.35	13	-2.1	70	-6.9	0	0	980.4	NA	0.0000		9999	0	0	0	0
2017/06/07 05:35:00	BASE	16.62	8	21.35	13	-2.1	69	-6.9	0	0	980.5	NA	0.0000		9999	0	0	0	0
2017/06/07 05:36:00	BASE	16.56	9	21.35	13	-2.0	69	-6.9	0	0	980.4	NA	0.0000		9999	0	0	0	0
2017/06/07 05:37:00	BASE	16.36	10	21.35	13	-2.0	69	-7.0	0	0	980.4	NA	0.0000		9999	0	0	0	0
2017/06/07 05:38:01	BASE	15.87	10	21.35	13	-2.0	69	-6.9	0	0	980.4	NA	0.0000		9999	0	0	0	0
2017/06/07 05:39:00	BASE	15.63	10	21.35	13	-2.0	69	-7.0	0	0	980.5	NA	0.0000		9999	19290	0	0	0
2017/06/07 05:40:00	BASE	14.96	11	21.35	13	-2.1	69	-7.0	0	0	980.6	NA	0.0000		9999	0	0	0	0
2017/06/07 05:41:00	BASE	15.35	11	19.50	11	-2.1	69	-7.0	0	0	980.5	NA	0.0000		9999	0	0	0	0
2017/06/07 05:42:01	BASE	16.19	10	19.50	11	-2.1	69	-7.0	0	0	980.4	NA	0.0000		9999	0	0	0	0
2017/06/07 05:43:00	BASE	15.57	7	19.50	11	-2.2	70	-7.0	0	0	980.6	NA	0.0000		9999	0	0	0	0
2017/06/07 05:44:01	BASE	15.38	6	19.50	11	-2.2	70	-7.0	0	0	980.5	NA	0.0000		9999	0	0	0	0
2017/06/07 05:45:00	BASE	16.64	9	19.50	11	-2.2	70	-7.0	0	0	980.5	NA	0.0000		9999	0	0	0	0
2017/06/07 05:46:01	BASE	17.21	9	19.34	14	-2.2	70	-7.0	0	0	980.4	NA	0.0000		9999	0	0	0	0
2017/06/07 05:47:00	BASE	16.45	11	19.34	14	-2.2	70	-7.0	0	0	980.5	NA	0.0000		9999	0	0	0	0
2017/06/07 05:48:01	BASE	15.64	11	19.34	14	-2.2	70	-7.0	0	0	980.6	NA	0.0000		9999	0	0	0	0
2017/06/07 05:49:00	BASE	15.76	8	19.55	10	-2.2	70	-6.9	0	0	980.6	NA	0.0000		9999	0	0	0	0
2017/06/07 05:50:01	BASE	15.57	9	19.55	10	-2.2	70	-6.9	0	0	980.6	NA	0.0000		9999	0	0	0	0
2017/06/07 05:51:01	BASE	15.05	10	19.55	10	-2.2	70	-6.9	0	0	980.6	NA	0.0000		9999	0	0	0	0
2017/06/07 05:52:01	BASE	14.57	7	19.55	10	-2.2	70	-6.9	0	0	980.7	NA	0.0000		9999	0	0	0	0
2017/06/07 05:53:01	BASE	13.81	6	19.55	10	-2.2	70	-7.0	0	0	980.7	NA	0.0000		9999	0	0	0	0
2017/06/07 05:54:01	BASE	13.75	9	19.55	10	-2.2	70	-6.9	0	0	980.7	NA	0.0000		9999	0	0	0	0
2017/06/07 05:55:01	BASE	14.17	8	19.55	10	-2.3	70	-6.9	0	0	980.8	NA	0.0000		9999	0	0	0	0
2017/06/07 05:56:01	BASE	14.89	8	19.55	10	-2.3	71	-6.9	0	0	980.8	NA	0.0000		9999	0	0	0	0
2017/06/07 05:57:01	BASE	15.04	9	19.55	10	-2.3	71	-6.9	0	0	980.8	NA	0.0000		9999	0	0	0	0
2017/06/07 05:58:01	BASE	14.54	10	19.55	10	-2.3	71	-6.9	0	0	980.8	NA	0.0000		9999	0	0	0	0
2017/06/07 05:59:01	BASE	14.18	9	18.78	11	-2.3	71	-6.9	0	0	980.8	NA	0.0000		9999	0	0	0	0
2017/06/07 06:00:01	BASE	14.03	9	18.78	11	-2.3	70	-6.9	0	0	980.8	NA	0.0000		9999	0	0	0	0
2017/06/07 06:01:01	BASE	13.75	10	18.78	11	-2.3	70	-7.0	0	0	981.0	NA	0.0000		9999	0	0	0	0
2017/06/07 06:02:01	BASE	13.07	9	18.78	11	-2.3	70	-7.0	0	0	981.0	NA	0.0000		9999	0	0	0	0
2017/06/07 06:03:01	BASE	12.81	8	18.78	11	-2.3	70	-7.0	0	0	981.0	NA	0.0000		9999	0	0	0	0
2017/06/07 06:04:01	BASE	12.58	10	18.78	11	-2.3	70	-7.0	0	0	981.0	NA	0.0000		9999	0	0	0	0
2017/06/07 06:05:01	BASE	12.41	14	17.34	354	-2.3	70	-7.0	0	0	981.1	NA	0.0000		9999	0	0	0	0
2017/06/07 06:06:01	BASE	12.06	15	16.98	8	-2.3	70	-7.0	0	0	981.1	NA	0.0000		9999	0	0	0	0
2017/06/07 06:07:01	BASE	11.35	13	16.15	1	-2.4	70	-7.0	0	0	981.1	NA	0.0000		9999	0	0	0	0
2017/06/07 06:08:01	BASE	10.75	10	16.15	1	-2.4	71	-7.0	0	0	981.1	NA	0.0000		9999	0	0	0	0
2017/06/07 06:09:01	BASE	10.50	12	16.15	1	-2.4	71	-7.0	0	0	981.1	NA	0.0000		9999	18080	0	0	0
2017/06/07 06:10:01	BASE	10.83	14	15.02	18	-2.4	71	-7.0	0	0	981.1	NA	0.0000		9999	0	0	0	0
2017/06/07 06:11:01	BASE	10.57	15	15.02	18	-2.5	71	-7.0	0	0	981.2	NA	0.0000		9999	0	0	0	0
2017/06/07 06:12:01	BASE	10.33	13	14.25	3	-2.5	71	-7.0	0	0	981.1	NA	0.0000		9999	0	0	0	0
2017/06/07 06:13:01	BASE	11.42	10	13.94	10	-2.5	71	-7.0	0	0	981.1	NA	0.0000		9999	0	0	0	0
2017/06/07 06:14:01	BASE	11.68	12	13.94	10	-2.5	71	-6.9	0	0	981.1	NA	0.0000		9999	0	0	0	0
2017/06/07 06:15:01	BASE	11.79	10	13.89	14	-2.4	71	-6.9	0	0	981.1	NA	0.0000		9999	0	0	0	0
2017/06/07 06:16:01	BASE	12.86	7	16.05	9	-2.4	71	-6.9	0	0	981.1	NA	0.0000		9999	0	0	0	0
2017/06/07 06:17:01	BASE	12.44	8	16.05	9	-2.4	71	-6.9	0	0	981.2	NA	0.0000		9999	5870	0	0	0
2017/06/07 06:18:01	BASE	12.24	4	16.05	9	-2.3	71	-6.9	0	0	981.1	NA	0.0000		9999	6200	6690	0	0
2017/06/07 06:19:01	BASE	12.91	5	16.05	9	-2.3	70	-6.9	0	0	981.1	NA	0.0000		9999	6890	0	0	0
2017/06/07 06:20:01	BASE	12.21	9	16.05	9	-2.2	70	-6.9	0	0	981.2	NA	0.0000		9999	0	0	0	0
2017/06/07 06:21:01	BASE	12.25	7	18.21	6	-2.2	70	-7.0	0	0	981.2	NA	0.0000		9999	0	0	0	0
2017/06/07 06:22:01	BASE	12.78	11	18.21	6	-2.2	70	-7.0	0	0	981.2	NA	0.0000		9999	0	0	0	0
2017/06/07 06:23:01	BASE	12.37	14	18.21	6	-2.2	70	-6.9	0	0	981.2	NA	0.0000		9999	0	0	0	0
2017/06/07 06:24:01	BASE	12.46	10	18.21	6	-2.2	70	-7.0	0	0	981.2	NA	0.0000		9999	7420	0	0	0
2017/06/07 06:25:01	BASE	12.66	10	18.21	6	-2.2	70	-7.0	0	0	981.3	NA	0.0000		9999	0	0	0	0
2017/06/07 06:26:01	BASE	12.38	11	18.21	6	-2.2	69	-7.0	0	0	981.3	NA	0.0000		9999	0	0	0	0
2017/06/07 06:27:01	BASE	12.84	16	18.21	6	-2.2	69	-7.1	0	0	981.3	NA	0.0000		9999	17980	0	0	0
2017/06/07 06:28:01	BASE	13.25	22	18.21	6	-2.1	69	-7.1	0	0	981.3	NA	0.0000		9999	17980	0	0	0
2017/06/07 06:29:01	BASE	12.30	23	18.21	6	-2.2	68	-7.2	0	0	981.4	NA	0.0000		9999	17490	18010	0	0
2017/06/07 06:30:01	BASE	11.24	20	18.21	6	-2.2	68	-7.2	0	0	981.4	NA	0.0000		9999	18010	0	0	0
2017/06/07 06:31:01	BASE	10.96	21	16.20	15	-2.2	68	-7.3	0	0	981.4	NA	0.0000		9999	0	0	0	0
2017/06/07 06:32:01	BASE	10.69	23	16.20	15	-2.2	68	-7.3	0	0	981.4	NA	0.0000		9999	0	0	0	0
2017/06/07 06:33:01	BASE	11.08	22	16.20	15	-2.3	68	-7.3	0	0	981.4	NA	0.0000		9999	17490	0	0	0
2017/06/07 06:34:01	BASE	12.32	21	16.20	15	-2.3	68	-7.3	0	0	981.3	NA	0.0000		9999	17490	0	0	0
2017/06/07 06:35:01	BASE	12.39	23	16.20	15	-2.3	69	-7.3	0	0	981.3	NA	0.0000		9999	17420	0	0	0
2017/06/07 06:36:01	BASE	13.08	22	16.20	15	-2.3	69	-7.3	0	0	981.2	NA	0.0000		9999	0	0	0	0
2017/06/07 06:37:01	BASE	13.58	18	16.00	26	-2.3	69	-7.3	0	0	981.3	NA	0.0000		9999	5810	0	0	0
2017/06/07 06:38:01	BASE	12.83	18	16.00	26	-2.3	68	-7.3	0	0	981.3	NA	0.0000		9999	17090	0	0	0
2017/06/07 06:39:01	BASE	12.46	17	16.00	26	-2.2	68	-7.3	0	0	981.4	NA	0.0000		9999	17060	0	0	0
2017/06/07 06:40:01	BASE	12.31	17	16.00	26	-2.2	68	-7.3	0	0	981.4	NA	0.0000		9999	5710	0	0	0
2017/06/07 06:41:01	BASE	12.34	18	16.00	26	-2.2	68	-7.3	0	0	981.4	NA	0.0000		9999	5710	0	0	0
2017/06/07 06:42:01	BASE	11.90	19	16.00	26	-2.2	68	-7.3	0	0	981.5	NA	0.0000		9999	5870	0	0	0
2017/06/07 06:43:01	BASE	11.62	22	16.00	26	-2.3	68	-7.3	0	0	981.5	NA	0.0000		9999	5840	0	0	0
2017/06/07 06:44:01	BASE	11.87	24	16.00	26	-2.3	69	-7.3	0	0	981.5	NA	0.0000		9999	6040	0	0	0
2017/06/07 06:45:01	BASE	11.41	29	16.00	26	-2.3	69	-7.2	0	0	981.5	NA	0.0000		9999	6140	0	0	0
2017/06/07 06:46:01	BASE	11.34	32	14.97	24	-2.3	69	-7.2	0	0	981.4	NA	0.0000		9999	6230	0	0	0
2017/06/07 06:47:01	BASE	11.06	29	14.97	24	-2.3	69	-7.2	0	0	981.4	NA	0.0000		9999	6330	0	0	0
2017/06/07 06:48:01	BASE	10.92	23	14.51	5	-2.3	69	-7.2	0	0	981.4	NA	0.0000		9999	6530	0	0	0
2017/06/07 06:49:01	BASE	11.39	15	14.51	5	-2.3	70	-7.1	0	0	981.4	NA	0.0000		9999	17000	0	0	0
2017/06/07 06:50:01	BASE	11.55	12	14.51	5	-2.3	70	-7.1	0	0	981.3	NA	0.0000		9999	6270	0	0	0
2017/06/07 06:51:01	BASE	12.79	15	15.79	15	-2.3	70	-7.0	0	0	981.2	NA	0.0000		9999	6200	0	0	0
2017/06/07 06:52:01	BASE	13.60	16	15.79	15	-2.3	70	-7.0	0	0	981.2	NA	0.0000		9999	6270	0	0	0
2017/06/07 06:53:01	BASE	12.93	17	15.79	15	-2.2	70	-6.9	0	0	981.3	NA	0.0000		9999	6630	0	0	0
2017/06/07 06:54:01	BASE	12.40	17	15.79	15	-2.2	70	-6.9	0	0	981.3	NA	0.0000		9999	17390	0	0	0
2017/06/07 06:55:01	BASE	12.27	18	15.79	15	-2.2	70	-6.9	0	0	981.3	NA	0.0000		9999	17160	0	0	0
2017/06/07 06:56:01	BASE	11.89	18	15.79	15	-2.2	70	-6.9	0	0	981.3	NA	0.0000		9999	0	0	0	0
2017/06/07 06:57:01	BASE	11.63	13	15.79	15	-2.2	70	-7.0	0	0	981.3	NA	0.0000		9999	0	0	0	0
2017/06/07 06:58:01	BASE	11.34	12	15.79	15	-2.3	70	-7.0	0	0	981.3	NA	0.0000		9999	0	0	0	0
2017/06/07 06:59:01	BASE	11.77	14	15.79	15	-2.3	70	-6.9	0	0	981.2	NA	0.0000		9999	0	0	0	0
2017/06/07 07:00:01	BASE	12.32	9	15.79	15	-2.3	71	-6.9	0	0	981.2	NA	0.0000		9999	0	0	0	0
2017/06/07 07:01:01	BASE	13.43	9	17.75	16	-2.3	71	-6.9	0	0	981.0	NA	0.0000		9999	0	0	0	0
2017/06/07 07:02:01	BASE	14.04	13	17.75	16	-2.3	71	-6.8	0	0	981.1	NA	0.0000		9999	0	0	0	0
2017/06/07 07:03:01	BASE	13.83	15	17.75	16	-2.3	71	-6.8	0	0	981.1	NA	0.0000		9999	0	0	0	0
2017/06/07 07:04:01	BASE	13.86	19	17.75	16	-2.3	71	-6.8	0	0	981.1	NA	0.0000		9999	0	0	0	0
2017/06/07 07:05:01	BASE	13.42	22	17.75	16	-2.3	71	-6.8	0	0	981.1	NA	0.0000		9999	17090	0	0	0
2017/06/07 07:06:01	BASE	14.24	23	17.75	16	-2.3	71	-6.8	0	0	981.0	NA	0.0000		9999	16470	17620	0	0
2017/06/07 07:07:01	BASE	13.52	19	17.75	16	-2.3	71	-6.8	0	0	981.2	NA	0.0000		9999	17590	0	0	0
2017/06/07 07:08:01	BASE	12.77	20	17.75	16	-2.3	71	-6.8	0	0	981.1	NA	0.0000		9999	0	0	0	0
2017/06/07 07:09:01	BASE	12.72	28	17.75	16	-2.2	71	-6.8	0	0	981.0	NA	0.0000		9999	0	0	0	0
2017/06/07 07:10:01	BASE	13.14	23	17.75	16	-2.1	70	-6.8	0	0	980.9	NA	0.0000		9999	11420	0	0	0
2017/06/07 07:11:01	BASE	14.43	10	17.23	2	-2.1	70	-6.8	0	0	981.0	NA	0.0000		9999	7120	11450	0	0
2017/06/07 07:12:01	BASE	15.46	9	19.29	12	-2.0	69	-6.9	0	0	980.8	NA	0.0000		9999	6960	0	0	0
2017/06/07 07:13:01	BASE	15.79	10	19.29	12	-1.9	69	-6.8	0	0	981.0	NA	0.0000		9999	6860	0	0	0
2017/06/07 07:14:01	BASE	13.57	12	19.29	12	-1.9	68	-6.9	0	0	981.2	NA	0.0000		9999	6760	0	0	0
2017/06/07 07:15:01	BASE	13.40	14	19.29	12	-1.9	68	-7.0	0	0	981.1	NA	0.0000		9999	6500	0	0	0
2017/06/07 07:16:01	BASE	14.22	17	19.29	12	-1.9	68	-7.1	0	0	981.1	NA	0.0000		9999	6400	0	0	0
2017/06/07 07:17:01	BASE	13.10	21	19.29	12	-1.9	68	-7.1	0	0	981.2	NA	0.0000		9999	6630	0	0	0
2017/06/07 07:18:01	BASE	12.92	18	19.29	12	-2.0	68	-7.2	0	0	981.1	NA	0.0000		9999	6590	0	0	0
2017/06/07 07:19:01	BASE	13.90	14	19.29	12	-2.0	68	-7.2	0	0	981.0	NA	0.0000		9999	6560	0	0	0
2017/06/07 07:20:01	BASE	14.63	18	19.29	12	-2.0	68	-7.1	0	0	981.1	NA	0.0000		9999	6530	0	0	0
2017/06/07 07:21:01	BASE	12.98	25	19.29	12	-2.0	68	-7.2	0	0	981.3	NA	0.0000		9999	6370	11120	0	0
2017/06/07 07:22:01	BASE	10.77	22	17.29	13	-2.0	68	-7.2	0	0	981.2	NA	0.0000		9999	6230	10960	0	0
2017/06/07 07:23:01	BASE	11.88	15	17.29	13	-2.1	68	-7.2	0	0	981.1	NA	0.0000		9999	10890	0	0	0
2017/06/07 07:24:01	BASE	13.56	15	17.29	13	-2.1	68	-7.2	0	0	981.0	NA	0.0000		9999	10930	0	0	0
2017/06/07 07:25:01	BASE	13.62	15	17.29	13	-2.1	68	-7.2	0	0	981.0	NA	0.0000		9999	10960	0	0	0
2017/06/07 07:26:01	BASE	12.49	18	16.41	15	-2.1	68	-7.2	0	0	981.1	NA	0.0000		9999	10960	0	0	0
2017/06/07 07:27:01	BASE	13.46	20	16.67	23	-2.1	68	-7.2	0	0	980.8	NA	0.0000		9999	11020	0	0	0
2017/06/07 07:28:01	BASE	15.44	21	18.57	21	-2.1	68	-7.2	0	0	981.0	NA	0.0000		9999	11090	11650	0	0
2017/06/07 07:29:01	BASE	13.78	17	18.57	21	-2.1	68	-7.3	0	0	981.2	NA	0.0000		9999	11190	0	0	0
2017/06/07 07:30:01	BASE	12.96	19	18.57	21	-2.1	67	-7.3	0	0	981.0	NA	0.0000		9999	11220	0	0	0
2017/06/07 07:31:01	BASE	14.63	22	18.57	21	-2.1	67	-7.4	0	0	981.0	NA	0.0000		9999	11290	0	0	0
2017/06/07 07:32:01	BASE	15.04	16	18.57	21	-2.1	67	-7.4	0	0	980.9	NA	0.0000		9999	11420	0	0	0
2017/06/07 07:33:01	BASE	14.40	18	18.57	21	-2.1	67	-7.4	0	0	981.0	NA	0.0000		9999	6100	0	0	0
2017/06/07 07:34:01	BASE	14.22	17	18.57	21	-2.1	67	-7.4	0	0	980.9	NA	0.0000		9999	6040	0	0	0
2017/06/07 07:35:00	BASE	15.06	13	18.57	21	-2.1	67	-7.4	0	0	980.8	NA	0.0000		9999	5970	0	0	0
2017/06/07 07:36:00	BASE	16.22	15	19.03	19	-2.1	67	-7.3	0	0	980.9	NA	0.0000		9999	5940	0	0	0
2017/06/07 07:37:00	BASE	15.83	21	19.03	19	-2.0	67	-7.3	0	0	981.1	NA	0.0000		9999	5810	0	0	0
2017/06/07 07:38:00	BASE	15.40	33	19.55	41	-2.0	67	-7.3	0	0	980.9	NA	0.0000		9999	5870	0	0	0
2017/06/07 07:39:00	BASE	15.77	32	19.55	41	-2.0	67	-7.4	0	0	981.0	NA	0.0000		9999	0	0	0	0
2017/06/07 07:40:00	BASE	14.76	20	19.55	41	-1.9	66	-7.4	0	0	981.1	NA	0.0000		9999	0	0	0	0
2017/06/07 07:41:00	BASE	14.73	14	19.55	41	-2.0	66	-7.5	0	0	980.9	NA	0.0000		9999	6230	0	0	0
2017/06/07 07:42:00	BASE	16.82	13	19.65	16	-2.0	66	-7.5	0	0	980.7	NA	0.0000		9999	6230	0	0	0
2017/06/07 07:43:00	BASE	17.43	18	19.65	16	-2.0	66	-7.4	0	0	980.9	NA	0.0000		9999	6330	0	0	0
2017/06/07 07:44:00	BASE	15.75	20	19.65	16	-2.0	67	-7.4	0	0	981.1	NA	0.0000		9999	6230	0	0	0
2017/06/07 07:45:00	BASE	13.62	24	19.65	16	-2.0	67	-7.4	0	0	981.1	NA	0.0000		9999	6230	0	0	0
2017/06/07 07:46:00	BASE	13.98	23	19.65	16	-2.0	67	-7.4	0	0	980.9	NA	0.0000		9999	0	0	0	0
2017/06/07 07:47:00	BASE	15.95	18	19.65	16	-2.0	67	-7.4	0	0	980.9	NA	0.0000		9999	6300	0	0	0
2017/06/07 07:48:00	BASE	16.01	19	19.65	16	-2.1	67	-7.4	0	0	981.0	NA	0.0000		9999	6590	0	0	0
2017/06/07 07:49:00	BASE	15.16	19	19.65	16	-2.2	67	-7.4	0	0	981.0	NA	0.0000		9999	0	0	0	0
2017/06/07 07:50:00	BASE	15.13	20	19.65	16	-2.3	68	-7.4	0	0	980.8	NA	0.0000		9999	0	0	0	0
2017/06/07 07:51:00	BASE	16.65	16	19.65	16	-2.3	68	-7.3	0	0	980.7	NA	0.0000		9999	0	0	0	0
2017/06/07 07:52:00	BASE	17.85	13	19.86	22	-2.3	69	-7.3	0	0	980.7	NA	0.0000		9999	0	0	0	0
2017/06/07 07:53:00	BASE	16.98	15	19.86	22	-2.4	69	-7.2	0	0	981.1	NA	0.0000		9999	6430	0	0	0
2017/06/07 07:54:00	BASE	14.77	16	19.86	22	-2.4	70	-7.2	0	0	981.2	NA	0.0000		9999	6230	0	0	0
2017/06/07 07:55:00	BASE	14.90	15	19.86	22	-2.4	70	-7.1	0	0	981.0	NA	0.0000		9999	6330	0	0	0
2017/06/07 07:56:00	BASE	16.91	14	19.86	22	-2.3	70	-7.1	0	0	980.8	NA	0.0000		9999	6270	0	0	0
2017/06/07 07:57:00	BASE	18.05	15	20.06	26	-2.3	70	-7.1	0	0	980.8	NA	0.0000		9999	6300	0	0	0
2017/06/07 07:58:00	BASE	17.68	20	20.06	26	-2.3	69	-7.1	0	0	981.0	NA	0.0000		9999	6300	0	0	0
2017/06/07 07:59:00	BASE	16.84	26	20.06	26	-2.2	69	-7.1	0	0	981.2	NA	0.0000		9999	6630	0	0	0
2017/06/07 08:00:00	BASE	15.90	31	20.06	26	-2.2	69	-7.2	0	0	981.3	NA	0.0000		9999	6730	7380	0	0
2017/06/07 08:01:00	BASE	12.94	30	20.06	26	-2.2	68	-7.2	0	0	981.4	NA	0.0000		9999	7250	0	0	0
2017/06/07 08:02:00	BASE	12.86	18	20.06	26	-2.2	68	-7.3	0	0	981.1	NA	0.0000		9999	7380	0	0	0
2017/06/07 08:03:00	BASE	15.54	10	20.06	26	-2.2	68	-7.3	0	0	980.9	NA	0.0000		9999	7020	0	0	0
2017/06/07 08:04:00	BASE	17.47	15	21.20	21	-2.3	68	-7.3	0	0	980.8	NA	0.0000		9999	7020	0	0	0
2017/06/07 08:05:00	BASE	17.61	19	21.20	21	-2.2	69	-7.2	0	0	981.1	NA	0.0000		9999	7120	0	0	0
2017/06/07 08:06:00	BASE	16.17	21	21.20	21	-2.2	69	-7.2	0	0	981.2	NA	0.0000		9999	7280	7870	0	0
2017/06/07 08:07:00	BASE	15.48	28	21.20	21	-2.1	69	-7.1	0	0	981.3	NA	0.0000		9999	0	0	0	0
2017/06/07 08:08:00	BASE	15.16	37	21.20	21	-2.1	68	-7.2	0	0	981.2	NA	0.0000		9999	0	0	0	0
2017/06/07 08:09:00	BASE	14.59	34	21.20	21	-2.1	68	-7.2	0	0	981.1	NA	0.0000		9999	0	0	0	0
2017/06/07 08:10:00	BASE	15.71	19	21.20	21	-2.1	68	-7.2	0	0	980.9	NA	0.0000		9999	0	0	0	0
2017/06/07 08:11:00	BASE	17.44	12	21.20	21	-2.1	68	-7.2	0	0	980.9	NA	0.0000		9999	0	0	0	0
2017/06/07 08:12:00	BASE	17.02	15	21.20	21	-2.1	68	-7.1	0	0	981.0	NA	0.0000		9999	0	0	0	0
2017/06/07 08:13:00	BASE	16.80	15	21.20	21	-2.1	68	-7.1	0	0	981.0	NA	0.0000		9999	0	0	0	0
2017/06/07 08:14:00	BASE	16.71	17	20.58	7	-2.1	68	-7.1	0	0	981.1	NA	0.0000		9999	0	0	0	0
2017/06/07 08:15:00	BASE	15.35	20	20.58	7	-2.1	68	-7.1	0	0	981.3	NA	0.0000		9999	0	0	0	0
2017/06/07 08:16:00	BASE	14.79	21	20.58	7	-2.1	68	-7.1	0	0	981.4	NA	0.0000		9999	0	0	0	0
2017/06/07 08:17:00	BASE	14.76	22	20.58	7	-2.1	68	-7.2	0	0	981.4	NA	0.0000		9999	0	0	0	0
2017/06/07 08:18:00	BASE	14.17	20	20.58	7	-2.2	69	-7.2	0	0	981.4	NA	0.0000		9999	0	0	0	0
2017/06/07 08:19:00	BASE	14.12	17	20.58	7	-2.3	69	-7.2	0	0	981.4	NA	0.0000		9999	0	0	0	0
2017/06/07 08:20:00	BASE	15.08	16	19.86	17	-2.3	69	-7.2	0	0	981.2	NA	0.0000		9999	0	0	0	0
2017/06/07 08:21:00	BASE	16.30	17	19.65	22	-2.3	69	-7.2	0	0	981.1	NA	0.0000		9999	9090	0	0	0
2017/06/07 08:22:00	BASE	15.56	16	19.65	22	-2.3	69	-7.2	0	0	981.3	NA	0.0000		9999	8690	0	0	0
2017/06/07 08:23:00	BASE	13.87	17	19.34	16	-2.3	69	-7.2	0	0	981.3	NA	0.0000		9999	9090	0	0	0
2017/06/07 08:24:00	BASE	14.93	17	19.34	16	-2.3	69	-7.1	0	0	981.2	NA	0.0000		9999	8860	0	0	0
2017/06/07 08:25:00	BASE	16.47	15	19.34	16	-2.3	69	-7.1	0	0	981.1	NA	0.0000		9999	0	0	0	0
2017/06/07 08:26:00	BASE	15.81	17	19.34	16	-2.3	70	-7.1	0	0	981.1	NA	0.0000		9999	0	0	0	0
2017/06/07 08:27:00	BASE	15.80	17	19.34	16	-2.3	70	-7.1	0	0	981.1	NA	0.0000		9999	0	0	0	0
2017/06/07 08:28:00	BASE	15.76	14	19.34	16	-2.3	70	-7.0	0	0	981.2	NA	0.0000		9999	0	0	0	0
2017/06/07 08:29:00	BASE	15.41	13	19.34	16	-2.3	70	-7.0	0	0	981.1	NA	0.0000		9999	0	0	0	0
2017/06/07 08:30:00	BASE	15.69	14	19.34	16	-2.3	70	-7.0	0	0	981.1	NA	0.0000		9999	0	0	0	0
2017/06/07 08:31:00	BASE	16.13	17	20.68	12	-2.3	70	-7.0	0	0	981.0	NA	0.0000		9999	0	0	0	0
2017/06/07 08:32:00	BASE	16.54	17	20.68	12	-2.2	70	-7.0	0	0	980.9	NA	0.0000		9999	0	0	0	0
2017/06/07 08:33:00	BASE	16.07	17	20.68	12	-2.2	70	-7.0	0	0	981.1	NA	0.0000		9999	0	0	0	0
2017/06/07 08:34:00	BASE	14.97	16	20.68	12	-2.2	70	-7.0	0	0	981.1	NA	0.0000		9999	0	0	0	0
2017/06/07 08:35:00	BASE	14.37	14	20.68	12	-2.2	70	-7.0	0	0	981.1	NA	0.0000		9999	0	0	0	0
2017/06/07 08:36:00	BASE	15.68	13	20.68	12	-2.2	70	-7.0	0	0	981.0	NA	0.0000		9999	12140	0	0	0
2017/06/07 08:37:00	BASE	16.91	13	20.68	12	-2.3	70	-7.1	0	0	980.9	NA	0.0000		9999	12110	0	0	0
2017/06/07 08:38:00	BASE	16.78	14	20.68	12	-2.3	70	-7.1	0	0	980.9	NA	0.0000		9999	12110	0	0	0
2017/06/07 08:39:00	BASE	16.71	14	20.68	12	-2.3	70	-7.0	0	0	980.9	NA	0.0000		9999	12140	0	0	0
2017/06/07 08:40:00	BASE	16.38	13	20.68	12	-2.2	70	-7.0	0	0	981.0	NA	0.0000		9999	12010	0	0	0
2017/06/07 08:41:00	BASE	16.50	14	19.55	14	-2.2	70	-6.9	0	0	980.9	NA	0.0000		9999	11940	0	0	0
2017/06/07 08:42:00	BASE	16.90	14	19.55	14	-2.2	70	-6.9	0	0	981.0	NA	0.0000		9999	12010	0	0	0
2017/06/07 08:43:00	BASE	16.55	13	19.55	14	-2.1	70	-7.0	0	0	981.1	NA	0.0000		9999	12140	0	0	0
2017/06/07 08:44:00	BASE	15.97	12	19.55	14	-2.1	69	-7.0	0	0	981.0	NA	0.0000		9999	12010	0	0	0
2017/06/07 08:45:00	BASE	16.59	15	19.55	10	-2.1	69	-7.0	0	0	980.9	NA	0.0000		9999	12210	0	0	0
2017/06/07 08:46:00	BASE	17.19	17	19.55	10	-2.1	69	-7.1	0	0	980.9	NA	0.0000		9999	12210	0	0	0
2017/06/07 08:47:00	BASE	17.07	18	19.55	10	-2.1	69	-7.1	0	0	981.0	NA	0.0000		9999	12070	0	0	0
2017/06/07 08:48:00	BASE	16.52	17	19.55	10	-2.1	69	-7.0	0	0	981.1	NA	0.0000		9999	12140	0	0	0
2017/06/07 08:49:00	BASE	16.20	15	19.55	10	-2.1	69	-7.0	0	0	981.1	NA	0.0000		9999	12040	0	0	0
2017/06/07 08:50:00	BASE	16.49	15	19.55	18	-2.1	69	-7.1	0	0	981.1	NA	0.0000		9999	11910	0	0	0
2017/06/07 08:51:00	BASE	15.56	13	19.55	18	-2.1	69	-7.1	0	0	981.3	NA	0.0000		9999	11880	0	0	0
2017/06/07 08:52:00	BASE	15.57	15	19.55	18	-2.1	69	-7.1	0	0	981.3	NA	0.0000		9999	11880	0	0	0
2017/06/07 08:53:00	BASE	16.00	15	19.70	17	-2.1	68	-7.2	0	0	981.2	NA	0.0000		9999	11910	0	0	0
2017/06/07 08:54:00	BASE	15.99	17	19.70	17	-2.2	68	-7.2	0	0	981.2	NA	0.0000		9999	11810	0	0	0
2017/06/07 08:55:00	BASE	15.63	17	19.70	17	-2.2	69	-7.2	0	0	981.3	NA	0.0000		9999	11840	0	0	0
2017/06/07 08:56:00	BASE	14.97	15	19.70	17	-2.2	69	-7.2	0	0	981.3	NA	0.0000		9999	11880	0	0	0
2017/06/07 08:57:00	BASE	15.56	14	19.70	17	-2.2	69	-7.2	0	0	981.2	NA	0.0000		9999	11840	0	0	0
2017/06/07 08:58:00	BASE	15.17	14	19.70	17	-2.2	69	-7.1	0	0	981.4	NA	0.0000		9999	11840	0	0	0
2017/06/07 08:59:00	BASE	14.56	17	19.70	17	-2.2	69	-7.1	0	0	981.2	NA	0.0000		9999	11710	0	0	0
2017/06/07 09:00:00	BASE	15.84	16	20.83	17	-2.2	69	-7.2	0	0	981.1	NA	0.0000		9999	11750	0	0	0
2017/06/07 09:01:00	BASE	17.25	17	20.83	17	-2.2	68	-7.2	0	0	981.2	NA	0.0000		9999	11750	0	0	0
2017/06/07 09:02:00	BASE	16.39	18	20.83	17	-2.1	68	-7.3	0	0	981.3	NA	0.0000		9999	11580	0	0	0
2017/06/07 09:03:00	BASE	16.03	14	20.83	17	-2.1	68	-7.3	0	0	981.1	NA	0.0000		9999	11650	0	0	0
2017/06/07 09:04:00	BASE	16.25	12	20.83	17	-2.1	68	-7.3	0	0	981.3	NA	0.0000		9999	11450	0	0	0
2017/06/07 09:05:00	BASE	14.71	10	20.83	17	-2.1	67	-7.3	0	0	981.3	NA	0.0000		9999	11420	0	0	0
2017/06/07 09:06:00	BASE	13.87	9	20.83	17	-2.1	67	-7.4	0	0	981.3	NA	0.0000		9999	11320	0	0	0
2017/06/07 09:07:00	BASE	14.38	11	20.83	17	-2.1	67	-7.4	0	0	981.3	NA	0.0000		9999	11250	0	0	0
2017/06/07 09:08:00	BASE	15.80	12	20.83	17	-2.1	67	-7.3	0	0	981.2	NA	0.0000		9999	11160	0	0	0
2017/06/07 09:09:00	BASE	15.89	13	20.83	17	-2.0	67	-7.4	0	0	981.3	NA	0.0000		9999	11160	0	0	0
2017/06/07 09:10:00	BASE	14.75	11	19.70	19	-2.0	67	-7.4	0	0	981.3	NA	0.0000		9999	11250	0	0	0
2017/06/07 09:11:00	BASE	14.90	11	19.14	8	-2.0	66	-7.4	0	0	981.3	NA	0.0000		9999	11190	0	0	0
2017/06/07 09:12:00	BASE	15.21	12	19.14	8	-1.9	66	-7.4	0	0	981.3	NA	0.0000		9999	11160	0	0	0
2017/06/07 09:13:00	BASE	15.11	11	18.21	17	-1.9	66	-7.4	0	0	981.3	NA	0.0000		9999	11220	0	0	0
2017/06/07 09:14:00	BASE	14.49	13	18.21	17	-1.9	66	-7.5	0	0	981.4	NA	0.0000		9999	11290	0	0	0
2017/06/07 09:15:00	BASE	14.30	14	18.21	17	-1.9	66	-7.5	0	0	981.3	NA	0.0000		9999	11060	0	0	0
2017/06/07 09:16:00	BASE	14.91	12	18.21	17	-1.9	65	-7.6	0	0	981.3	NA	0.0000		9999	11190	0	0	0
2017/06/07 09:17:00	BASE	15.10	10	18.21	17	-2.0	65	-7.6	0	0	981.3	NA	0.0000		9999	11220	0	0	0
2017/06/07 09:18:00	BASE	15.04	11	18.21	7	-2.0	65	-7.6	0	0	981.3	NA	0.0000		9999	11320	0	0	0
2017/06/07 09:19:00	BASE	15.31	13	18.21	7	-2.0	65	-7.6	0	0	981.2	NA	0.0000		9999	11320	0	0	0
2017/06/07 09:20:00	BASE	14.69	12	18.21	7	-2.0	66	-7.6	0	0	981.4	NA	0.0000		9999	11190	0	0	0
2017/06/07 09:21:00	BASE	14.29	8	18.47	10	-2.0	66	-7.5	0	0	981.3	NA	0.0000		9999	11250	0	0	0
2017/06/07 09:22:00	BASE	14.76	9	18.47	10	-1.9	66	-7.5	0	0	981.3	NA	0.0000		9999	11390	0	0	0
2017/06/07 09:23:00	BASE	15.37	12	18.47	10	-1.9	66	-7.5	0	0	981.2	NA	0.0000		9999	11120	0	0	0
2017/06/07 09:24:00	BASE	15.63	10	18.47	10	-1.9	65	-7.5	0	0	981.2	NA	0.0000		9999	11450	0	0	0
2017/06/07 09:25:00	BASE	15.21	11	18.47	10	-1.9	65	-7.5	0	0	981.2	NA	0.0000		9999	11420	0	0	0
2017/06/07 09:26:00	BASE	15.32	13	18.47	10	-1.9	65	-7.5	0	0	981.3	NA	0.0000		9999	11320	0	0	0
2017/06/07 09:27:00	BASE	14.58	16	18.47	10	-1.9	66	-7.5	0	0	981.4	NA	0.0000		9999	11250	0	0	0
2017/06/07 09:28:00	BASE	14.97	17	18.47	10	-1.9	66	-7.5	0	0	981.2	NA	0.0000		9999	11320	0	0	0
2017/06/07 09:29:00	BASE	15.98	13	18.47	10	-1.9	66	-7.5	0	0	981.3	NA	0.0000		9999	11320	0	0	0
2017/06/07 09:30:00	BASE	15.46	14	18.47	10	-1.9	66	-7.5	0	0	981.3	NA	0.0000		9999	11290	0	0	0
2017/06/07 09:31:00	BASE	14.62	12	18.37	19	-1.9	65	-7.5	0	0	981.3	NA	0.0000		9999	11420	0	0	0
2017/06/07 09:32:00	BASE	15.02	9	18.37	19	-1.9	65	-7.5	0	0	981.2	NA	0.0000		9999	11390	0	0	0
2017/06/07 09:33:00	BASE	15.43	10	18.37	19	-1.9	65	-7.6	0	0	981.3	NA	0.0000		9999	11520	0	0	0
2017/06/07 09:34:00	BASE	14.68	10	18.37	19	-1.9	65	-7.6	0	0	981.3	NA	0.0000		9999	11390	0	0	0
2017/06/07 09:35:00	BASE	14.13	11	18.21	9	-1.9	65	-7.6	0	0	981.3	NA	0.0000		9999	11390	0	0	0
2017/06/07 09:36:00	BASE	14.94	10	18.21	9	-1.9	65	-7.6	0	0	981.2	NA	0.0000		9999	11350	0	0	0
2017/06/07 09:37:00	BASE	15.39	11	18.21	9	-1.9	64	-7.7	0	0	981.2	NA	0.0000		9999	11290	0	0	0
2017/06/07 09:38:00	BASE	14.92	13	18.21	9	-1.9	64	-7.7	0	0	981.3	NA	0.0000		9999	11350	0	0	0
2017/06/07 09:39:00	BASE	15.19	13	18.21	9	-1.8	64	-7.8	0	0	981.2	NA	0.0000		9999	11350	0	0	0
2017/06/07 09:40:01	BASE	15.35	15	18.21	9	-1.8	64	-7.8	0	0	981.3	NA	0.0000		9999	11390	0	0	0
2017/06/07 09:41:01	BASE	15.03	13	18.21	9	-1.8	63	-7.8	0	0	981.4	NA	0.0000		9999	11290	0	0	0
2017/06/07 09:42:01	BASE	14.73	11	17.80	3	-1.8	63	-7.9	0	0	981.3	NA	0.0000		9999	11120	0	0	0
2017/06/07 09:43:01	BASE	15.75	13	17.85	12	-1.8	63	-7.9	0	0	981.2	NA	0.0000		9999	10990	0	0	0
2017/06/07 09:44:01	BASE	16.43	14	18.11	10	-1.7	63	-7.9	0	0	981.2	NA	0.0000		9999	10890	0	0	0
2017/06/07 09:45:01	BASE	15.99	14	18.11	10	-1.7	62	-8.0	0	0	981.3	NA	0.0000		9999	11160	0	0	0
2017/06/07 09:46:01	BASE	15.61	15	18.47	12	-1.7	62	-8.0	0	0	981.3	NA	0.0000		9999	10960	0	0	0
2017/06/07 09:47:00	BASE	15.39	14	18.47	12	-1.8	62	-8.1	0	0	981.3	NA	0.0000		9999	11020	0	0	0
2017/06/07 09:48:01	BASE	14.99	16	18.47	12	-1.8	62	-8.0	0	0	981.4	NA	0.0000		9999	11060	0	0	0
2017/06/07 09:49:01	BASE	14.94	16	18.47	12	-1.9	63	-8.0	0	0	981.4	NA	0.0000		9999	11090	0	0	0
2017/06/07 09:50:00	BASE	14.94	17	18.47	12	-1.9	63	-8.0	0	0	981.4	NA	0.0000		9999	10830	0	0	0
2017/06/07 09:51:00	BASE	14.69	17	18.47	12	-1.9	64	-7.9	0	0	981.4	NA	0.0000		9999	10700	0	0	0
2017/06/07 09:52:00	BASE	14.94	15	18.47	12	-1.9	64	-7.9	0	0	981.3	NA	0.0000		9999	10730	0	0	0
2017/06/07 09:53:00	BASE	14.86	15	18.47	12	-1.9	64	-7.9	0	0	981.4	NA	0.0000		9999	10830	0	0	0
2017/06/07 09:54:00	BASE	14.35	18	18.47	12	-1.9	64	-7.9	0	0	981.4	NA	0.0000		9999	10860	0	0	0
2017/06/07 09:55:00	BASE	13.14	19	18.47	12	-1.9	63	-8.0	0	0	981.5	NA	0.0000		9999	10890	0	0	0
2017/06/07 09:56:00	BASE	12.67	18	17.70	18	-1.9	63	-8.0	0	0	981.5	NA	0.0000		9999	10860	0	0	0
2017/06/07 09:57:00	BASE	13.02	17	17.70	18	-2.0	64	-7.9	0	0	981.6	NA	0.0000		9999	10930	0	0	0
2017/06/07 09:58:00	BASE	12.45	17	17.08	14	-2.0	64	-7.9	0	0	981.7	NA	0.0000		9999	10960	0	0	0
2017/06/07 09:59:00	BASE	11.86	17	16.57	10	-2.0	64	-7.9	0	0	981.7	NA	0.0000		9999	10830	0	0	0
2017/06/07 10:00:00	BASE	11.66	19	16.57	10	-2.0	65	-7.8	0	0	981.8	NA	0.0000		9999	11020	0	0	0
2017/06/07 10:01:00	BASE	11.31	21	16.20	30	-2.0	65	-7.7	0	0	981.9	NA	0.0000		9999	10890	0	0	0
2017/06/07 10:02:00	BASE	11.04	22	15.79	15	-2.0	65	-7.7	0	0	982.0	NA	0.0000		9999	10990	0	0	0
2017/06/07 10:03:00	BASE	10.17	21	15.79	15	-2.0	65	-7.7	0	0	982.1	NA	0.0000		9999	11060	0	0	0
2017/06/07 10:04:00	BASE	10.11	22	15.79	15	-2.0	65	-7.7	0	0	982.2	NA	0.0000		9999	10890	0	0	0
2017/06/07 10:05:00	BASE	10.42	24	15.79	15	-2.0	65	-7.7	0	0	982.3	NA	0.0000		9999	10660	0	0	0
2017/06/07 10:06:00	BASE	9.88	23	15.28	23	-1.9	65	-7.6	0	0	982.3	NA	0.0000		9999	10830	0	0	0
2017/06/07 10:07:00	BASE	9.09	19	14.40	19	-1.9	65	-7.7	0	0	982.3	NA	0.0000		9999	10530	0	0	0
2017/06/07 10:08:01	BASE	8.99	17	14.40	19	-1.9	65	-7.7	0	0	982.3	NA	0.0000		9999	10560	0	0	0
2017/06/07 10:09:00	BASE	10.56	18	14.40	19	-1.9	65	-7.7	0	0	982.2	NA	0.0000		9999	10600	0	0	0
2017/06/07 10:10:00	BASE	10.55	19	14.35	13	-2.0	65	-7.7	0	0	982.2	NA	0.0000		9999	10630	0	0	0
2017/06/07 10:11:01	BASE	9.86	19	14.35	13	-2.0	65	-7.7	0	0	982.3	NA	0.0000		9999	10790	0	0	0
2017/06/07 10:12:00	BASE	10.51	18	14.35	13	-2.0	65	-7.7	0	0	982.3	NA	0.0000		9999	10730	0	0	0
2017/06/07 10:13:00	BASE	11.01	17	14.35	13	-2.0	65	-7.7	0	0	982.3	NA	0.0000		9999	10500	0	0	0
2017/06/07 10:14:00	BASE	10.17	17	14.35	13	-2.0	65	-7.7	0	0	982.3	NA	0.0000		9999	10730	0	0	0
2017/06/07 10:15:00	BASE	10.37	19	14.35	13	-2.0	65	-7.7	0	0	982.2	NA	0.0000		9999	9320	10760	0	0
2017/06/07 10:16:00	BASE	11.49	20	15.74	24	-1.9	65	-7.7	0	0	982.2	NA	0.0000		9999	9380	10600	0	0
2017/06/07 10:17:00	BASE	10.98	19	15.74	24	-1.9	65	-7.6	0	0	982.2	NA	0.0000		9999	9290	10660	0	0
2017/06/07 10:18:01	BASE	10.08	16	15.74	24	-2.0	65	-7.6	0	0	982.2	NA	0.0000		9999	9220	10790	0	0
2017/06/07 10:19:01	BASE	10.58	18	15.74	24	-1.9	65	-7.6	0	0	982.2	NA	0.0000		9999	10730	0	0	0
2017/06/07 10:20:01	BASE	11.15	21	15.74	24	-1.9	65	-7.5	0	0	982.3	NA	0.0000		9999	10760	0	0	0
2017/06/07 10:21:01	BASE	10.61	20	15.74	24	-1.9	65	-7.5	0	0	982.3	NA	0.0000		9999	10890	0	0	0
2017/06/07 10:22:01	BASE	9.90	21	15.74	24	-1.9	66	-7.5	0	0	982.3	NA	0.0000		9999	10790	0	0	0
2017/06/07 10:23:01	BASE	9.83	24	15.74	24	-1.9	66	-7.5	0	0	982.3	NA	0.0000		9999	10830	0	0	0
2017/06/07 10:24:01	BASE	10.17	29	15.74	24	-1.9	66	-7.5	0	0	982.5	NA	0.0000		9999	10790	0	0	0
2017/06/07 10:25:01	BASE	8.62	32	15.74	24	-1.9	66	-7.5	0	0	982.6	NA	0.0000		9999	10760	0	0	0
2017/06/07 10:26:01	BASE	6.44	29	13.43	50	-2.0	66	-7.5	0	0	982.7	NA	0.0000		9999	10790	0	0	0
2017/06/07 10:27:01	BASE	7.14	19	13.43	50	-2.0	66	-7.5	0	0	982.5	NA	0.0000		9999	10790	0	0	0
2017/06/07 10:28:01	BASE	8.54	23	13.43	50	-2.0	66	-7.5	0	0	982.6	NA	0.0000		9999	10860	0	0	0
2017/06/07 10:29:01	BASE	7.53	41	13.43	50	-2.0	66	-7.5	0	0	982.7	NA	0.0000		9999	10790	0	0	0
2017/06/07 10:30:01	BASE	6.24	40	13.43	50	-2.0	66	-7.4	0	0	982.7	NA	0.0000		9999	10830	0	0	0
2017/06/07 10:31:01	BASE	6.06	32	13.43	50	-2.0	66	-7.4	0	0	982.7	NA	0.0000		9999	10830	0	0	0
2017/06/07 10:32:01	BASE	6.21	39	13.43	50	-2.0	66	-7.5	0	0	982.8	NA	0.0000		9999	10890	0	0	0
2017/06/07 10:33:01	BASE	6.47	51	13.43	50	-2.0	66	-7.4	0	0	982.8	NA	0.0000		9999	10930	0	0	0
2017/06/07 10:34:01	BASE	5.92	55	12.60	26	-2.0	66	-7.5	0	0	982.8	NA	0.0000		9999	10760	0	0	0
2017/06/07 10:35:01	BASE	5.57	58	12.60	26	-2.0	66	-7.5	0	0	982.8	NA	0.0000		9999	10890	0	0	0
2017/06/07 10:36:01	BASE	5.94	74	12.60	26	-2.0	66	-7.5	0	0	982.8	NA	0.0000		9999	10960	0	0	0
2017/06/07 10:37:01	BASE	4.02	93	12.60	26	-2.0	66	-7.5	0	0	982.8	NA	0.0000		9999	8630	10990	0	0
2017/06/07 10:38:01	BASE	4.30	57	11.21	32	-2.1	66	-7.6	0	0	982.8	NA	0.0000		9999	8790	10860	0	0
2017/06/07 10:39:01	BASE	6.80	32	10.19	52	-2.1	66	-7.5	0	0	982.8	NA	0.0000		9999	8600	10890	0	0
2017/06/07 10:40:01	BASE	5.49	41	10.19	52	-2.1	66	-7.5	0	0	982.9	NA	0.0000		9999	10990	0	0	0
2017/06/07 10:41:01	BASE	4.09	56	10.19	52	-2.0	67	-7.4	0	0	982.9	NA	0.0000		9999	8600	11020	0	0
2017/06/07 10:42:01	BASE	4.14	66	10.19	52	-2.0	67	-7.4	0	0	982.9	NA	0.0000		9999	8600	11220	0	0
2017/06/07 10:43:01	BASE	5.52	71	10.19	52	-2.1	67	-7.4	0	0	982.9	NA	0.0000		9999	8600	11090	0	0
2017/06/07 10:44:01	BASE	6.72	77	10.19	52	-2.1	67	-7.4	0	0	982.9	NA	0.0000		9999	8600	11190	0	0
2017/06/07 10:45:01	BASE	6.49	78	10.19	52	-2.2	67	-7.4	0	0	982.9	NA	0.0000		9999	8760	11120	0	0
2017/06/07 10:46:01	BASE	6.55	89	10.19	52	-2.2	68	-7.4	0	0	982.8	NA	0.0000		9999	8530	11160	0	0
2017/06/07 10:47:01	BASE	6.56	92	10.19	52	-2.2	68	-7.4	0	0	982.9	NA	0.0000		9999	8530	11450	0	0
2017/06/07 10:48:01	BASE	7.21	81	10.34	68	-2.2	68	-7.4	0	0	982.9	NA	0.0000		9999	8500	0	0	0
2017/06/07 10:49:01	BASE	7.79	84	10.34	68	-2.2	67	-7.5	0	0	982.8	NA	0.0000		9999	8500	0	0	0
2017/06/07 10:50:01	BASE	7.25	92	10.34	68	-2.3	67	-7.5	0	0	982.9	NA	0.0000		9999	8500	0	0	0
2017/06/07 10:51:01	BASE	7.06	74	10.34	68	-2.3	67	-7.5	0	0	983.0	NA	0.0000		9999	8530	0	0	0
2017/06/07 10:52:01	BASE	7.49	71	10.34	68	-2.3	67	-7.5	0	0	982.9	NA	0.0000		9999	8460	0	0	0
2017/06/07 10:53:01	BASE	6.85	84	10.34	68	-2.3	67	-7.5	0	0	983.1	NA	0.0000		9999	8460	0	0	0
2017/06/07 10:54:01	BASE	5.40	83	10.34	68	-2.3	67	-7.5	0	0	983.1	NA	0.0000		9999	8430	0	0	0
2017/06/07 10:55:01	BASE	4.95	90	10.34	68	-2.2	67	-7.5	0	0	983.1	NA	0.0000		9999	8430	0	0	0
2017/06/07 10:56:01	BASE	5.59	85	10.34	68	-2.2	67	-7.6	0	0	983.1	NA	0.0000		9999	8400	0	0	0
2017/06/07 10:57:01	BASE	5.04	89	10.34	68	-2.2	67	-7.5	0	0	983.1	NA	0.0000		9999	8370	0	0	0
2017/06/07 10:58:01	BASE	4.38	92	10.03	86	-2.2	67	-7.5	0	0	983.1	NA	0.0000		9999	8330	0	0	0
2017/06/07 10:59:01	BASE	5.21	67	8.64	86	-2.2	67	-7.5	0	0	983.1	NA	0.0000		9999	8400	0	0	0
2017/06/07 11:00:01	BASE	6.48	57	9.98	63	-2.2	67	-7.5	0	0	983.2	NA	0.0000		9999	8460	0	0	0
2017/06/07 11:01:01	BASE	7.96	66	10.80	74	-2.2	67	-7.5	0	0	983.1	NA	0.0000		9999	8500	0	0	0
2017/06/07 11:02:01	BASE	8.79	73	10.91	65	-2.2	67	-7.5	0	0	983.0	NA	0.0000		9999	8430	0	0	0
2017/06/07 11:03:01	BASE	8.44	71	11.01	104	-2.2	67	-7.4	0	0	983.1	NA	0.0000		9999	8370	0	0	0
2017/06/07 11:04:01	BASE	7.34	72	11.01	104	-2.2	67	-7.5	0	0	983.3	NA	0.0000		9999	8330	0	0	0
2017/06/07 11:05:01	BASE	6.94	68	11.01	104	-2.2	67	-7.5	0	0	983.3	NA	0.0000		9999	8300	0	0	0
2017/06/07 11:06:01	BASE	7.36	68	11.01	104	-2.2	67	-7.5	0	0	983.3	NA	0.0000		9999	8240	0	0	0
2017/06/07 11:07:01	BASE	6.08	82	11.01	104	-2.1	66	-7.6	0	0	983.2	NA	0.0000		9999	8240	8790	0	0
2017/06/07 11:08:01	BASE	6.02	76	11.01	104	-2.1	66	-7.6	0	0	983.2	NA	0.0000		9999	8200	0	0	0
2017/06/07 11:09:01	BASE	6.90	77	11.01	104	-2.1	66	-7.7	0	0	983.2	NA	0.0000		9999	8600	11060	0	0
2017/06/07 11:10:01	BASE	7.33	82	11.01	104	-2.1	66	-7.7	0	0	983.2	NA	0.0000		9999	0	0	0	0
2017/06/07 11:11:01	BASE	7.13	84	11.01	104	-2.1	66	-7.7	0	0	983.3	NA	0.0000		9999	8660	0	0	0
2017/06/07 11:12:01	BASE	7.26	94	11.01	104	-2.2	66	-7.7	0	0	983.2	NA	0.0000		9999	10960	0	0	0
2017/06/07 11:13:01	BASE	7.35	94	10.91	61	-2.2	66	-7.7	0	0	983.3	NA	0.0000		9999	11060	0	0	0
2017/06/07 11:14:01	BASE	6.31	78	10.91	61	-2.2	66	-7.6	0	0	983.4	NA	0.0000		9999	10890	0	0	0
2017/06/07 11:15:01	BASE	6.54	50	10.91	61	-2.2	66	-7.6	0	0	983.3	NA	0.0000		9999	10890	0	0	0
2017/06/07 11:16:01	BASE	6.27	53	10.24	37	-2.1	66	-7.5	0	0	983.3	NA	0.0000		9999	0	0	0	0
2017/06/07 11:17:01	BASE	6.17	68	10.24	37	-2.1	66	-7.5	0	0	983.3	NA	0.0000		9999	0	0	0	0
2017/06/07 11:18:01	BASE	7.54	68	10.96	62	-2.1	66	-7.5	0	0	983.3	NA	0.0000		9999	8460	0	0	0
2017/06/07 11:19:01	BASE	8.54	73	12.19	62	-2.1	66	-7.5	0	0	983.3	NA	0.0000		9999	8430	0	0	0
2017/06/07 11:20:01	BASE	7.69	83	12.19	62	-2.1	67	-7.5	0	0	983.3	NA	0.0000		9999	8300	0	0	0
2017/06/07 11:21:01	BASE	6.96	90	12.19	62	-2.2	67	-7.5	0	0	983.3	NA	0.0000		9999	8300	0	0	0
2017/06/07 11:22:01	BASE	6.68	90	12.19	62	-2.2	67	-7.5	0	0	983.3	NA	0.0000		9999	8270	0	0	0
2017/06/07 11:23:01	BASE	6.98	87	12.19	62	-2.2	67	-7.5	0	0	983.3	NA	0.0000		9999	8330	0	0	0
2017/06/07 11:24:01	BASE	7.61	89	12.19	62	-2.2	67	-7.5	0	0	983.4	NA	0.0000		9999	8300	0	0	0
2017/06/07 11:25:01	BASE	6.86	85	12.19	62	-2.1	67	-7.5	0	0	983.5	NA	0.0000		9999	8330	0	0	0
2017/06/07 11:26:01	BASE	5.80	86	12.19	62	-2.1	66	-7.6	0	0	983.4	NA	0.0000		9999	8300	0	0	0
2017/06/07 11:27:01	BASE	6.06	86	12.19	62	-2.0	66	-7.6	0	0	983.5	NA	0.0000		9999	8400	0	0	0
2017/06/07 11:28:01	BASE	6.07	87	12.19	62	-1.9	65	-7.7	0	0	983.5	NA	0.0000		9999	8300	0	0	0
2017/06/07 11:29:01	BASE	5.65	86	9.52	90	-1.9	65	-7.7	0	0	983.5	NA	0.0000		9999	8270	0	0	0
2017/06/07 11:30:01	BASE	5.44	98	9.52	90	-1.9	64	-7.7	0	0	983.4	NA	0.0000		9999	8370	0	0	0
2017/06/07 11:31:01	BASE	6.43	99	9.98	75	-1.9	64	-7.7	0	0	983.5	NA	0.0000		9999	8370	0	0	0
2017/06/07 11:32:01	BASE	7.67	98	9.98	75	-1.8	64	-7.7	0	0	983.3	NA	0.0000		9999	8240	0	0	0
2017/06/07 11:33:01	BASE	6.53	112	9.98	75	-1.8	64	-7.7	0	0	983.4	NA	0.0000		9999	8370	0	0	0
2017/06/07 11:34:01	BASE	4.77	91	9.98	75	-1.9	64	-7.7	0	0	983.6	NA	0.0000		9999	8370	0	0	0
2017/06/07 11:35:01	BASE	4.20	80	9.98	75	-1.9	64	-7.7	0	0	983.6	NA	0.0000		9999	8300	0	0	0
2017/06/07 11:36:01	BASE	5.56	85	9.98	75	-1.9	65	-7.7	0	0	983.6	NA	0.0000		9999	8240	0	0	0
2017/06/07 11:37:01	BASE	6.35	89	9.98	75	-2.0	65	-7.6	0	0	983.5	NA	0.0000		9999	8270	0	0	0
2017/06/07 11:38:01	BASE	6.59	92	9.98	75	-2.0	66	-7.6	0	0	983.5	NA	0.0000		9999	8040	0	0	0
2017/06/07 11:39:01	BASE	7.26	99	9.98	75	-2.0	66	-7.6	0	0	983.5	NA	0.0000		9999	8040	0	0	0
2017/06/07 11:40:01	BASE	7.14	107	9.98	75	-2.0	66	-7.6	0	0	983.5	NA	0.0000		9999	8430	0	0	0
2017/06/07 11:41:01	BASE	5.58	107	9.16	97	-2.0	65	-7.6	0	0	983.5	NA	0.0000		9999	8300	0	0	0
2017/06/07 11:42:01	BASE	5.02	110	8.69	81	-1.9	65	-7.7	0	0	983.4	NA	0.0000		9999	8070	0	0	0
2017/06/07 11:43:01	BASE	6.28	109	8.69	81	-1.9	64	-7.7	0	0	983.4	NA	0.0000		9999	7970	0	0	0
2017/06/07 11:44:01	BASE	6.51	96	8.69	95	-1.9	64	-7.7	0	0	983.5	NA	0.0000		9999	8140	0	0	0
2017/06/07 11:45:01	BASE	5.63	82	8.69	95	-1.9	65	-7.7	0	0	983.5	NA	0.0000		9999	8140	0	0	0
2017/06/07 11:46:01	BASE	4.55	92	8.69	95	-2.0	65	-7.7	0	0	983.6	NA	0.0000		9999	8100	0	0	0
2017/06/07 11:47:01	BASE	4.54	75	8.69	95	-2.0	66	-7.6	0	0	983.6	NA	0.0000		9999	7910	0	0	0
2017/06/07 11:48:01	BASE	6.47	65	10.60	86	-2.1	66	-7.5	0	0	983.6	NA	0.0000		9999	7910	0	0	0
2017/06/07 11:49:01	BASE	6.85	73	10.60	86	-2.2	67	-7.5	0	0	983.6	NA	0.0000		9999	8240	0	0	0
2017/06/07 11:50:01	BASE	6.65	70	10.60	86	-2.3	68	-7.4	0	0	983.5	NA	0.0000		9999	8240	0	0	0
2017/06/07 11:51:01	BASE	6.58	89	10.60	86	-2.3	68	-7.4	0	0	983.5	NA	0.0000		9999	7970	0	0	0
2017/06/07 11:52:01	BASE	6.22	94	10.60	86	-2.4	69	-7.3	0	0	983.5	NA	0.0000		9999	7320	0	0	0
2017/06/07 11:53:01	BASE	6.83	90	10.60	86	-2.4	69	-7.3	0	0	983.6	NA	0.0000		9999	7480	0	0	0
2017/06/07 11:54:01	BASE	7.07	90	11.32	77	-2.4	69	-7.3	0	0	983.6	NA	0.0000		9999	7680	0	0	0
2017/06/07 11:55:01	BASE	6.91	89	11.32	77	-2.4	69	-7.3	0	0	983.5	NA	0.0000		9999	7810	0	0	0
2017/06/07 11:56:01	BASE	6.12	89	11.32	77	-2.4	69	-7.3	0	0	983.6	NA	0.0000		9999	7320	0	0	0
2017/06/07 11:57:01	BASE	6.29	87	11.32	77	-2.4	69	-7.3	0	0	983.5	NA	0.0000		9999	7780	0	0	0
2017/06/07 11:58:01	BASE	6.49	76	11.32	77	-2.3	68	-7.4	0	0	983.6	NA	0.0000		9999	7810	0	0	0
2017/06/07 11:59:01	BASE	5.43	75	11.32	77	-2.3	68	-7.4	0	0	983.6	NA	0.0000		9999	7910	0	0	0
2017/06/07 12:00:01	BASE	5.73	70	11.32	77	-2.3	68	-7.4	0	0	983.6	NA	0.0000		9999	7970	0	0	0
2017/06/07 12:01:01	BASE	5.88	64	11.32	77	-2.3	68	-7.4	0	0	983.7	NA	0.0000		9999	7840	0	0	0
2017/06/07 12:02:01	BASE	5.42	76	11.32	77	-2.3	68	-7.4	0	0	983.6	NA	0.0000		9999	7550	0	0	0
2017/06/07 12:03:00	BASE	5.02	62	11.32	77	-2.3	68	-7.4	0	0	983.7	NA	0.0000		9999	7280	0	0	0
2017/06/07 12:04:00	BASE	5.38	51	9.00	84	-2.3	68	-7.4	0	0	983.7	NA	0.0000		9999	7550	0	0	0
2017/06/07 12:05:00	BASE	7.46	57	11.52	75	-2.3	68	-7.4	0	0	983.7	NA	0.0000		9999	7680	0	0	0
2017/06/07 12:06:00	BASE	7.20	59	11.52	75	-2.4	69	-7.4	0	0	983.7	NA	0.0000		9999	7780	0	0	0
2017/06/07 12:07:00	BASE	6.74	63	11.52	75	-2.4	69	-7.3	0	0	983.7	NA	0.0000		9999	7510	0	0	0
2017/06/07 12:08:00	BASE	7.03	69	11.52	75	-2.4	69	-7.3	0	0	983.7	NA	0.0000		9999	7480	0	0	0
2017/06/07 12:09:00	BASE	7.08	70	11.52	75	-2.4	69	-7.3	0	0	983.7	NA	0.0000		9999	7640	0	0	0
2017/06/07 12:10:00	BASE	6.85	71	11.52	75	-2.4	69	-7.3	0	0	983.7	NA	0.0000		9999	7610	0	0	0
2017/06/07 12:11:00	BASE	7.23	81	11.52	75	-2.4	69	-7.4	0	0	983.7	NA	0.0000		9999	7710	0	0	0
2017/06/07 12:12:00	BASE	6.87	82	11.52	75	-2.4	69	-7.4	0	0	983.9	NA	0.0000		9999	7550	0	0	0
2017/06/07 12:13:00	BASE	5.69	80	11.52	75	-2.4	69	-7.4	0	0	983.8	NA	0.0000		9999	7280	0	0	0
2017/06/07 12:14:00	BASE	5.60	69	11.52	75	-2.4	69	-7.4	0	0	983.7	NA	0.0000		9999	7510	0	0	0
2017/06/07 12:15:00	BASE	5.37	66	10.85	62	-2.4	68	-7.4	0	0	983.7	NA	0.0000		9999	7680	0	0	0
2017/06/07 12:16:00	BASE	5.65	75	10.85	62	-2.3	68	-7.4	0	0	983.9	NA	0.0000		9999	7680	0	0	0
2017/06/07 12:17:00	BASE	5.73	70	10.85	62	-2.3	68	-7.4	0	0	983.8	NA	0.0000		9999	7740	0	0	0
2017/06/07 12:18:00	BASE	7.31	68	16.77	55	-2.3	68	-7.3	0	0	983.7	NA	0.0000		9999	7610	0	0	0
2017/06/07 12:19:00	BASE	8.02	78	16.77	55	-2.3	68	-7.3	0	0	983.8	NA	0.0000		9999	7420	0	0	0
2017/06/07 12:20:00	BASE	6.68	78	16.77	55	-2.3	68	-7.3	0	0	984.0	NA	0.0000		9999	7380	0	0	0
2017/06/07 12:21:00	BASE	5.60	75	16.77	55	-2.2	68	-7.4	0	0	983.9	NA	0.0000		9999	7150	0	0	0
2017/06/07 12:22:00	BASE	3.60	94	16.77	55	-2.2	67	-7.5	0	0	983.9	NA	0.0000		9999	7280	0	0	0
2017/06/07 12:23:00	BASE	3.42	62	16.77	55	-2.1	67	-7.5	0	0	983.9	NA	0.0000		9999	7350	0	0	0
2017/06/07 12:24:00	BASE	4.50	19	16.77	55	-2.1	67	-7.5	0	0	983.8	NA	0.0000		9999	7550	0	0	0
2017/06/07 12:25:00	BASE	4.66	22	16.77	55	-2.1	67	-7.4	0	0	983.8	NA	0.0000		9999	7380	0	0	0
2017/06/07 12:26:00	BASE	4.55	41	16.77	55	-2.1	67	-7.4	0	0	983.7	NA	0.0000		9999	7450	0	0	0
2017/06/07 12:27:00	BASE	5.06	44	16.77	55	-2.1	68	-7.3	0	0	983.9	NA	0.0000		9999	7420	0	0	0
2017/06/07 12:28:00	BASE	5.88	20	10.24	46	-2.1	68	-7.2	0	0	983.7	NA	0.0000		9999	7250	0	0	0
2017/06/07 12:29:00	BASE	7.74	15	14.82	40	-2.1	68	-7.2	0	0	983.5	NA	0.0000		9999	7450	0	0	0
2017/06/07 12:30:00	BASE	10.98	18	14.82	40	-2.1	68	-7.2	0	0	983.4	NA	0.0000		9999	7420	0	0	0
2017/06/07 12:31:00	BASE	11.59	16	14.82	40	-2.1	68	-7.3	0	0	983.2	NA	0.0000		9999	7280	0	0	0
2017/06/07 12:32:00	BASE	11.54	13	15.12	8	-2.1	68	-7.3	0	0	983.1	NA	0.0000		9999	7090	0	0	0
2017/06/07 12:33:00	BASE	12.13	12	15.12	8	-2.2	68	-7.3	0	0	983.1	NA	0.0000		9999	6990	0	0	0
2017/06/07 12:34:00	BASE	12.87	14	17.54	19	-2.2	68	-7.3	0	0	982.9	NA	0.0000		9999	7020	0	0	0
2017/06/07 12:35:00	BASE	14.13	16	17.54	19	-2.2	68	-7.2	0	0	982.8	NA	0.0000		9999	6730	7250	0	0
2017/06/07 12:36:00	BASE	14.36	11	17.54	19	-2.2	69	-7.2	0	0	982.9	NA	0.0000		9999	6960	0	0	0
2017/06/07 12:37:00	BASE	13.63	12	17.54	19	-2.2	69	-7.2	0	0	982.8	NA	0.0000		9999	7150	0	0	0
2017/06/07 12:38:00	BASE	15.43	10	19.34	17	-2.2	69	-7.2	0	0	982.5	NA	0.0000		9999	7120	0	0	0
2017/06/07 12:39:00	BASE	16.05	11	19.34	17	-2.2	68	-7.2	0	0	982.8	NA	0.0000		9999	6890	0	0	0
2017/06/07 12:40:00	BASE	13.34	13	19.34	17	-2.1	68	-7.2	0	0	982.9	NA	0.0000		9999	6960	0	0	0
2017/06/07 12:41:00	BASE	13.79	13	19.34	17	-2.1	68	-7.2	0	0	982.7	NA	0.0000		9999	7350	0	0	0
2017/06/07 12:42:00	BASE	14.48	16	19.34	17	-2.1	68	-7.2	0	0	982.9	NA	0.0000		9999	7380	0	0	0
2017/06/07 12:43:00	BASE	13.42	19	19.34	17	-2.1	68	-7.2	0	0	982.9	NA	0.0000		9999	7280	0	0	0
2017/06/07 12:44:00	BASE	13.78	18	19.34	17	-2.1	68	-7.3	0	0	982.6	NA	0.0000		9999	7190	0	0	0
2017/06/07 12:45:00	BASE	15.93	15	20.37	9	-2.2	68	-7.3	0	0	982.6	NA	0.0000		9999	7020	0	0	0
2017/06/07 12:46:00	BASE	15.69	15	20.37	9	-2.2	68	-7.3	0	0	982.9	NA	0.0000		9999	7020	0	0	0
2017/06/07 12:47:00	BASE	12.27	15	20.37	9	-2.2	68	-7.4	0	0	982.9	NA	0.0000		9999	7190	0	0	0
2017/06/07 12:48:00	BASE	12.17	16	20.37	9	-2.2	68	-7.4	0	0	982.7	NA	0.0000		9999	7220	0	0	0
2017/06/07 12:49:00	BASE	14.59	17	20.37	9	-2.2	68	-7.3	0	0	982.6	NA	0.0000		9999	0	0	0	0
2017/06/07 12:50:00	BASE	15.76	19	20.37	9	-2.2	68	-7.3	0	0	982.6	NA	0.0000		9999	7380	9250	0	0
2017/06/07 12:51:00	BASE	15.22	19	20.37	9	-2.2	68	-7.3	0	0	982.7	NA	0.0000		9999	7380	9250	0	0
2017/06/07 12:52:00	BASE	14.66	17	20.37	9	-2.2	68	-7.3	0	0	982.7	NA	0.0000		9999	6820	0	0	0
2017/06/07 12:53:00	BASE	15.03	15	20.37	9	-2.2	68	-7.3	0	0	982.7	NA	0.0000		9999	6860	0	0	0
2017/06/07 12:54:00	BASE	15.87	13	20.37	9	-2.2	68	-7.3	0	0	982.6	NA	0.0000		9999	7020	0	0	0
2017/06/07 12:55:00	BASE	15.95	16	20.01	22	-2.1	68	-7.3	0	0	982.7	NA	0.0000		9999	7090	0	0	0
2017/06/07 12:56:00	BASE	15.51	18	20.01	22	-2.1	68	-7.3	0	0	982.7	NA	0.0000		9999	7050	0	0	0
2017/06/07 12:57:00	BASE	15.44	18	20.01	22	-2.1	68	-7.3	0	0	982.7	NA	0.0000		9999	7020	0	0	0
2017/06/07 12:58:00	BASE	15.97	18	20.01	22	-2.1	68	-7.3	0	0	982.6	NA	0.0000		9999	6920	0	0	0
2017/06/07 12:59:00	BASE	16.57	19	20.01	22	-2.1	68	-7.3	0	0	982.7	NA	0.0000		9999	6790	0	0	0
2017/06/07 13:00:00	BASE	15.81	17	20.01	22	-2.2	68	-7.3	0	0	982.8	NA	0.0000		9999	6960	0	0	0
2017/06/07 13:01:00	BASE	14.87	16	20.01	22	-2.2	68	-7.3	0	0	982.8	NA	0.0000		9999	6630	0	0	0
2017/06/07 13:02:00	BASE	15.58	16	20.01	22	-2.2	68	-7.3	0	0	982.7	NA	0.0000		9999	6560	0	0	0
2017/06/07 13:03:00	BASE	15.98	18	20.01	22	-2.2	68	-7.2	0	0	982.8	NA	0.0000		9999	6660	0	0	0
2017/06/07 13:04:00	BASE	14.36	20	19.09	15	-2.2	69	-7.2	0	0	982.9	NA	0.0000		9999	6660	0	0	0
2017/06/07 13:05:00	BASE	14.43	19	19.09	15	-2.2	69	-7.2	0	0	982.8	NA	0.0000		9999	6430	0	0	0
2017/06/07 13:06:00	BASE	15.09	19	19.09	15	-2.2	69	-7.1	0	0	982.8	NA	0.0000		9999	6690	0	0	0
2017/06/07 13:07:00	BASE	14.96	20	19.09	15	-2.2	69	-7.2	0	0	982.8	NA	0.0000		9999	6630	0	0	0
2017/06/07 13:08:00	BASE	15.80	16	19.09	15	-2.3	69	-7.2	0	0	982.8	NA	0.0000		9999	6430	0	0	0
2017/06/07 13:09:00	BASE	16.34	13	19.09	15	-2.3	69	-7.2	0	0	982.9	NA	0.0000		9999	6230	0	0	0
2017/06/07 13:10:00	BASE	15.43	13	19.09	15	-2.3	69	-7.2	0	0	982.9	NA	0.0000		9999	6230	0	0	0
2017/06/07 13:11:00	BASE	15.74	15	18.78	20	-2.2	69	-7.2	0	0	982.8	NA	0.0000		9999	6200	0	0	0
2017/06/07 13:12:00	BASE	16.41	16	18.78	20	-2.2	69	-7.2	0	0	982.9	NA	0.0000		9999	6270	0	0	0
2017/06/07 13:13:00	BASE	15.91	17	18.78	20	-2.2	69	-7.1	0	0	983.0	NA	0.0000		9999	6270	0	0	0
2017/06/07 13:14:00	BASE	16.32	19	18.78	20	-2.2	69	-7.1	0	0	982.9	NA	0.0000		9999	6270	0	0	0
2017/06/07 13:15:00	BASE	16.28	18	18.78	20	-2.2	69	-7.2	0	0	983.0	NA	0.0000		9999	6300	0	0	0
2017/06/07 13:16:00	BASE	14.69	18	18.78	20	-2.2	69	-7.2	0	0	983.0	NA	0.0000		9999	6300	0	0	0
2017/06/07 13:17:00	BASE	14.52	17	18.78	20	-2.2	68	-7.2	0	0	983.1	NA	0.0000		9999	6300	0	0	0
2017/06/07 13:18:01	BASE	14.91	16	18.78	20	-2.2	68	-7.3	0	0	983.1	NA	0.0000		9999	6330	7740	0	0
2017/06/07 13:19:00	BASE	15.26	16	18.78	20	-2.2	68	-7.3	0	0	983.0	NA	0.0000		9999	6430	7610	0	0
2017/06/07 13:20:00	BASE	16.41	17	18.78	20	-2.2	68	-7.2	0	0	983.0	NA	0.0000		9999	6530	7580	0	0
2017/06/07 13:21:00	BASE	15.06	18	18.73	23	-2.2	68	-7.2	0	0	983.3	NA	0.0000		9999	7150	7580	0	0
2017/06/07 13:22:00	BASE	14.28	17	18.73	23	-2.2	68	-7.3	0	0	983.2	NA	0.0000		9999	6660	7150	0	0
2017/06/07 13:23:00	BASE	15.22	17	18.73	23	-2.2	68	-7.3	0	0	983.2	NA	0.0000		9999	6560	0	0	0
2017/06/07 13:24:00	BASE	14.82	15	18.73	23	-2.2	68	-7.3	0	0	983.2	NA	0.0000		9999	6500	0	0	0
2017/06/07 13:25:00	BASE	15.00	13	18.78	10	-2.2	68	-7.4	0	0	983.1	NA	0.0000		9999	6460	0	0	0
2017/06/07 13:26:00	BASE	15.59	17	18.78	10	-2.3	68	-7.4	0	0	983.2	NA	0.0000		9999	6330	0	0	0
2017/06/07 13:27:00	BASE	15.92	18	18.78	10	-2.2	68	-7.4	0	1	983.2	NA	0.0000		9999	6400	0	0	0
2017/06/07 13:28:00	BASE	14.63	15	18.78	10	-2.2	68	-7.3	0	1	983.5	NA	0.0000		9999	6460	0	0	0
2017/06/07 13:29:00	BASE	13.10	14	18.78	10	-2.2	68	-7.4	0	1	983.2	NA	0.0000		9999	7090	0	0	0
2017/06/07 13:30:00	BASE	13.17	17	18.78	10	-2.2	68	-7.4	0	1	983.4	NA	0.0000		9999	7150	0	0	0
2017/06/07 13:31:00	BASE	14.31	21	18.78	10	-2.2	67	-7.4	0	1	983.3	NA	0.0000		9999	7120	0	0	0
2017/06/07 13:32:00	BASE	15.75	19	18.78	10	-2.2	67	-7.5	0	1	983.2	NA	0.0000		9999	7220	0	0	0
2017/06/07 13:33:00	BASE	15.70	18	18.78	10	-2.2	67	-7.5	1	1	983.3	NA	0.0000		9999	7250	0	0	0
2017/06/07 13:34:00	BASE	14.92	16	18.78	10	-2.2	67	-7.5	1	1	983.4	NA	0.0000		9999	7150	0	0	0
2017/06/07 13:35:00	BASE	13.31	13	17.49	24	-2.1	66	-7.6	1	1	983.5	NA	0.0000		9999	7090	0	0	0
2017/06/07 13:36:00	BASE	12.64	14	17.49	24	-2.1	66	-7.6	1	1	983.4	NA	0.0000		9999	7020	0	0	0
2017/06/07 13:37:00	BASE	13.64	17	17.49	24	-2.1	66	-7.6	1	2	983.3	NA	0.0000		9999	7220	0	0	0
2017/06/07 13:38:00	BASE	14.44	17	17.49	24	-2.1	66	-7.6	1	2	983.3	NA	0.0000		9999	7220	0	0	0
2017/06/07 13:39:00	BASE	14.94	17	17.70	23	-2.1	66	-7.6	1	2	983.3	NA	0.0000		9999	7380	0	0	0
2017/06/07 13:40:00	BASE	14.80	14	17.70	23	-2.1	66	-7.6	1	2	983.3	NA	0.0000		9999	7510	0	0	0
2017/06/07 13:41:00	BASE	13.87	13	17.70	23	-2.1	66	-7.7	1	2	983.3	NA	0.0000		9999	7510	0	0	0
2017/06/07 13:42:00	BASE	14.06	12	17.70	23	-2.1	65	-7.7	1	2	983.2	NA	0.0000		9999	7420	0	0	0
2017/06/07 13:43:00	BASE	15.28	12	17.90	10	-2.1	65	-7.7	1	2	983.2	NA	0.0000		9999	7320	0	0	0
2017/06/07 13:44:00	BASE	15.64	15	17.90	10	-2.1	65	-7.8	1	3	983.2	NA	0.0000		9999	7350	9060	0	0
2017/06/07 13:45:00	BASE	15.18	16	17.90	10	-2.1	65	-7.8	1	3	983.2	NA	0.0000		9999	8600	0	0	0
2017/06/07 13:46:00	BASE	15.21	16	18.73	6	-2.1	65	-7.8	1	3	983.2	NA	0.0000		9999	8690	0	0	0
2017/06/07 13:47:00	BASE	15.53	18	18.73	6	-2.1	65	-7.8	1	3	983.2	NA	0.0000		9999	0	0	0	0
2017/06/07 13:48:00	BASE	15.33	19	18.73	6	-2.1	65	-7.8	1	3	983.2	NA	0.0000		9999	0	0	0	0
2017/06/07 13:49:00	BASE	15.05	20	18.73	6	-2.1	65	-7.8	1	3	983.3	NA	0.0000		9999	6660	9480	11940	0
2017/06/07 13:50:00	BASE	15.23	21	18.73	6	-2.0	64	-7.8	1	4	983.3	NA	0.0000		9999	6790	9350	0	0
2017/06/07 13:51:00	BASE	14.82	19	18.73	6	-2.0	64	-7.9	1	4	983.4	NA	0.0000		9999	6790	9380	11940	0
2017/06/07 13:52:00	BASE	14.78	19	18.73	6	-2.0	64	-7.9	1	4	983.3	NA	0.0000		9999	11880	0	0	0
2017/06/07 13:53:00	BASE	15.03	20	18.73	6	-2.0	64	-7.9	2	4	983.4	NA	0.0000		9999	7640	11940	0	0
2017/06/07 13:54:00	BASE	15.02	21	18.73	6	-2.0	64	-7.9	2	4	983.4	NA	0.0000		9999	11840	0	0	0
2017/06/07 13:55:00	BASE	15.38	22	18.73	6	-2.0	64	-7.9	2	4	983.4	NA	0.0000		9999	6760	11940	0	0
2017/06/07 13:56:00	BASE	14.86	21	18.21	11	-2.0	64	-8.0	2	5	983.4	NA	0.0000		9999	6760	0	0	0
2017/06/07 13:57:00	BASE	14.74	22	18.21	11	-2.0	64	-7.9	2	5	983.5	NA	0.0000		9999	11750	0	0	0
2017/06/07 13:58:00	BASE	14.76	23	17.75	19	-1.9	64	-7.9	2	5	983.5	NA	0.0000		9999	6860	11880	0	0
2017/06/07 13:59:00	BASE	14.73	24	17.75	19	-1.9	64	-7.9	2	5	983.5	NA	0.0000		9999	6730	0	0	0
2017/06/07 14:00:00	BASE	15.20	24	17.75	19	-1.9	64	-7.9	2	6	983.6	NA	0.0000		9999	11880	0	0	0
2017/06/07 14:01:00	BASE	15.03	24	17.75	19	-2.0	64	-7.9	2	6	983.6	NA	0.0000		9999	6920	0	0	0
2017/06/07 14:02:00	BASE	14.58	25	17.75	19	-2.0	64	-7.9	2	6	983.6	NA	0.0000		9999	6990	11750	0	0
2017/06/07 14:03:00	BASE	14.34	26	17.75	19	-2.0	64	-7.9	2	6	983.6	NA	0.0000		9999	7090	11750	0	0
2017/06/07 14:04:00	BASE	13.95	27	17.39	20	-2.0	64	-7.9	2	6	983.7	NA	0.0000		9999	11650	0	0	0
2017/06/07 14:05:00	BASE	14.08	29	16.98	25	-2.1	64	-7.9	2	7	983.6	NA	0.0000		9999	11780	0	0	0
2017/06/07 14:06:00	BASE	13.99	30	16.98	25	-2.1	64	-7.9	2	7	983.6	NA	0.0000		9999	11650	0	0	0
2017/06/07 14:07:00	BASE	13.84	31	16.93	25	-2.1	65	-7.9	2	7	983.6	NA	0.0000		9999	11650	0	0	0
2017/06/07 14:08:00	BASE	13.85	32	16.93	25	-2.2	65	-7.8	2	7	983.6	NA	0.0000		9999	11710	0	0	0
2017/06/07 14:09:00	BASE	13.31	33	16.31	26	-2.2	66	-7.7	3	7	983.6	NA	0.0000		9999	6300	11610	0	0
2017/06/07 14:10:00	BASE	13.60	32	16.31	26	-2.2	66	-7.7	3	8	983.5	NA	0.0000		9999	11350	0	0	0
2017/06/07 14:11:00	BASE	13.79	29	15.95	20	-2.3	67	-7.7	3	8	983.5	NA	0.0000		9999	11160	0	0	0
2017/06/07 14:12:00	BASE	12.76	26	15.59	27	-2.3	67	-7.6	3	8	983.7	NA	0.0000		9999	11320	0	0	0
2017/06/07 14:13:00	BASE	12.12	22	15.59	27	-2.4	68	-7.6	3	8	983.7	NA	0.0000		9999	5710	11480	0	0
2017/06/07 14:14:00	BASE	12.63	22	15.59	27	-2.4	68	-7.5	3	8	983.6	NA	0.0000		9999	6000	0	0	0
2017/06/07 14:15:00	BASE	13.48	24	16.31	26	-2.4	68	-7.4	3	9	983.6	NA	0.0000		9999	6100	0	0	0
2017/06/07 14:16:00	BASE	13.73	20	16.31	26	-2.4	69	-7.3	3	9	983.5	NA	0.0000		9999	6230	0	0	0
2017/06/07 14:17:00	BASE	13.32	18	16.31	26	-2.3	69	-7.3	3	9	983.6	NA	0.0000		9999	6370	0	0	0
2017/06/07 14:18:00	BASE	13.15	19	16.31	26	-2.3	69	-7.2	3	9	983.6	NA	0.0000		9999	6590	0	0	0
2017/06/07 14:19:00	BASE	13.96	21	16.31	26	-2.2	69	-7.2	3	10	983.5	NA	0.0000		9999	6730	0	0	0
2017/06/07 14:20:00	BASE	13.84	20	16.41	8	-2.2	69	-7.2	3	10	983.5	NA	0.0000		9999	10830	0	0	0
2017/06/07 14:21:00	BASE	13.94	20	16.62	20	-2.2	69	-7.2	3	10	983.4	NA	0.0000		9999	10760	0	0	0
2017/06/07 14:22:00	BASE	13.86	21	16.62	20	-2.1	69	-7.1	3	10	983.5	NA	0.0000		9999	0	0	0	0
2017/06/07 14:23:00	BASE	14.12	20	18.57	21	-2.1	69	-7.1	4	10	983.4	NA	0.0000		9999	7420	0	0	0
2017/06/07 14:24:00	BASE	14.83	18	18.57	21	-2.1	69	-7.1	4	11	983.4	NA	0.0000		9999	11550	0	0	0
2017/06/07 14:25:00	BASE	15.00	18	18.57	21	-2.1	69	-7.1	4	11	983.4	NA	0.0000		9999	0	0	0	0
2017/06/07 14:26:00	BASE	15.39	19	18.57	21	-2.0	69	-7.0	4	11	983.4	NA	0.0000		9999	0	0	0	0
2017/06/07 14:27:00	BASE	14.76	16	18.57	21	-2.0	69	-6.9	4	11	983.5	NA	0.0000		9999	0	0	0	0
2017/06/07 14:28:00	BASE	14.79	14	18.57	21	-2.0	69	-6.9	4	12	983.4	NA	0.0000		9999	0	0	0	0
2017/06/07 14:29:00	BASE	14.95	16	18.57	21	-1.9	69	-6.9	4	12	983.4	NA	0.0000		9999	11120	0	0	0
2017/06/07 14:30:00	BASE	14.83	17	18.57	21	-1.9	69	-6.9	4	12	983.4	NA	0.0000		9999	10860	0	0	0
2017/06/07 14:31:00	BASE	14.81	17	18.57	21	-1.9	69	-6.9	4	13	983.5	NA	0.0000		9999	8690	10730	0	0
2017/06/07 14:32:00	BASE	14.30	16	18.57	21	-1.9	68	-7.0	4	13	983.4	NA	0.0000		9999	7970	0	0	0
2017/06/07 14:33:00	BASE	14.49	15	18.06	22	-1.9	68	-7.0	5	13	983.4	NA	0.0000		9999	8200	0	0	0
2017/06/07 14:34:00	BASE	14.28	16	18.06	22	-1.9	68	-7.0	5	13	983.4	NA	0.0000		9999	0	0	0	0
2017/06/07 14:35:00	BASE	14.08	17	18.06	22	-1.9	68	-7.0	5	13	983.4	NA	0.0000		9999	0	0	0	0
2017/06/07 14:36:00	BASE	14.80	18	18.06	22	-1.9	68	-6.9	5	13	983.4	NA	0.0000		9999	8140	0	0	0
2017/06/07 14:37:00	BASE	15.30	18	18.06	22	-1.9	68	-6.9	5	13	983.4	NA	0.0000		9999	10830	0	0	0
2017/06/07 14:38:00	BASE	15.32	16	17.59	25	-1.9	68	-6.9	5	13	983.4	NA	0.0000		9999	7580	0	0	0
2017/06/07 14:39:00	BASE	15.06	14	17.59	25	-1.9	68	-6.9	5	14	983.4	NA	0.0000		9999	7840	0	0	0
2017/06/07 14:40:00	BASE	15.01	15	17.49	18	-1.8	68	-6.9	5	14	983.4	NA	0.0000		9999	0	0	0	0
2017/06/07 14:41:00	BASE	14.70	15	17.49	18	-1.8	68	-6.9	5	14	983.4	NA	0.0000		9999	0	0	0	0
2017/06/07 14:42:00	BASE	14.64	16	17.49	18	-1.8	68	-6.9	5	14	983.4	NA	0.0000		9999	4200	0	0	0
2017/06/07 14:43:00	BASE	14.65	17	17.49	18	-1.8	68	-6.9	5	15	983.4	NA	0.0000		9999	0	0	0	0
2017/06/07 14:44:00	BASE	14.46	17	17.49	18	-1.8	68	-6.9	6	15	983.4	NA	0.0000		9999	0	0	0	0
2017/06/07 14:45:00	BASE	14.55	16	17.49	18	-1.8	68	-6.9	6	16	983.5	NA	0.0000		9999	4040	0	0	0
2017/06/07 14:46:00	BASE	14.55	19	17.49	18	-1.8	68	-6.9	6	17	983.5	NA	0.0000		9999	4170	0	0	0
2017/06/07 14:47:00	BASE	14.15	19	17.13	14	-1.8	68	-6.9	6	17	983.6	NA	0.0000		9999	4200	0	0	0
2017/06/07 14:48:00	BASE	13.71	18	17.13	14	-1.8	68	-6.9	6	17	983.6	NA	0.0000		9999	4130	0	0	0
2017/06/07 14:49:00	BASE	13.32	20	17.13	14	-1.8	68	-7.0	6	18	983.7	NA	0.0000		9999	4460	0	0	0
2017/06/07 14:50:00	BASE	13.30	21	16.98	13	-1.9	68	-7.0	7	18	983.6	NA	0.0000		9999	10560	0	0	0
2017/06/07 14:51:00	BASE	13.99	21	17.29	17	-1.9	68	-7.0	7	18	983.6	NA	0.0000		9999	10040	0	0	0
2017/06/07 14:52:00	BASE	13.99	20	17.29	17	-1.9	68	-7.0	7	19	983.7	NA	0.0000		9999	0	0	0	0
2017/06/07 14:53:00	BASE	13.25	19	17.29	17	-1.9	68	-7.0	7	20	983.7	NA	0.0000		9999	9740	0	0	0
2017/06/07 14:54:00	BASE	13.35	18	17.29	17	-1.9	68	-7.0	8	20	983.7	NA	0.0000		9999	5350	0	0	0
2017/06/07 14:55:00	BASE	13.26	18	17.29	17	-1.9	68	-7.1	8	20	983.7	NA	0.0000		9999	5510	0	0	0
2017/06/07 14:56:00	BASE	13.09	18	17.29	17	-2.0	68	-7.0	8	21	983.8	NA	0.0000		9999	5380	0	0	0
2017/06/07 14:57:00	BASE	12.89	19	17.29	17	-2.0	68	-7.0	8	21	983.8	NA	0.0000		9999	4460	5510	0	0
2017/06/07 14:58:00	BASE	11.92	23	17.29	17	-2.0	69	-7.0	8	22	983.9	NA	0.0000		9999	4530	5220	0	0
2017/06/07 14:59:00	BASE	11.72	26	17.29	17	-2.0	69	-7.0	8	22	983.8	NA	0.0000		9999	4490	5180	0	0
2017/06/07 15:00:00	BASE	11.83	26	17.29	17	-2.0	69	-6.9	8	22	983.8	NA	0.0000		9999	5150	0	0	0
2017/06/07 15:01:00	BASE	11.56	27	16.05	19	-2.0	69	-6.9	8	22	983.8	NA	0.0000		9999	5280	0	0	0
2017/06/07 15:02:00	BASE	11.47	28	15.07	12	-2.0	69	-6.9	8	22	983.8	NA	0.0000		9999	4720	5770	0	0
2017/06/07 15:03:00	BASE	11.14	23	14.97	18	-2.1	70	-6.9	8	22	983.8	NA	0.0000		9999	5280	0	0	0
2017/06/07 15:04:00	BASE	10.64	16	14.97	18	-2.1	70	-6.8	8	22	983.8	NA	0.0000		9999	4990	5410	0	0
2017/06/07 15:05:00	BASE	11.26	15	14.97	18	-2.1	70	-6.8	8	23	983.8	NA	0.0000		9999	6100	0	0	0
2017/06/07 15:06:00	BASE	11.48	18	14.61	21	-2.1	70	-6.7	8	23	983.8	NA	0.0000		9999	5510	9320	0	0
2017/06/07 15:07:00	BASE	11.21	20	14.61	21	-2.1	70	-6.8	8	23	983.8	NA	0.0000		9999	9350	0	0	0
2017/06/07 15:08:00	BASE	10.78	20	14.61	21	-2.0	70	-6.8	8	23	983.8	NA	0.0000		9999	9320	0	0	0
2017/06/07 15:09:00	BASE	10.28	18	14.61	21	-2.0	70	-6.8	9	23	983.7	NA	0.0000		9999	9320	0	0	0
2017/06/07 15:10:00	BASE	11.65	17	14.92	16	-2.0	69	-6.9	9	24	983.6	NA	0.0000		9999	9320	0	0	0
2017/06/07 15:11:00	BASE	13.01	19	15.07	11	-2.0	69	-7.0	9	24	983.5	NA	0.0000		9999	9350	0	0	0
2017/06/07 15:12:00	BASE	13.14	18	16.20	18	-2.0	68	-7.0	9	24	983.5	NA	0.0000		9999	0	0	0	0
2017/06/07 15:13:00	BASE	12.84	15	16.20	18	-2.0	68	-7.1	9	24	983.5	NA	0.0000		9999	0	0	0	0
2017/06/07 15:14:00	BASE	12.51	14	16.20	18	-2.0	68	-7.1	9	25	983.5	NA	0.0000		9999	11090	0	0	0
2017/06/07 15:15:00	BASE	12.42	10	16.20	18	-2.0	68	-7.1	9	25	983.5	NA	0.0000		9999	10930	0	0	0
2017/06/07 15:16:00	BASE	12.44	10	16.20	18	-2.0	68	-7.2	9	25	983.5	NA	0.0000		9999	9380	10830	0	0
2017/06/07 15:17:00	BASE	13.45	10	16.57	16	-2.0	68	-7.1	9	25	983.3	NA	0.0000		9999	9420	10860	0	0
2017/06/07 15:18:00	BASE	14.31	8	16.87	7	-2.0	68	-7.1	9	26	983.4	NA	0.0000		9999	9480	10760	0	0
2017/06/07 15:19:00	BASE	14.41	8	16.87	7	-1.9	68	-7.1	9	26	983.3	NA	0.0000		9999	9480	10790	0	0
2017/06/07 15:20:00	BASE	13.75	10	16.87	7	-1.9	68	-7.1	9	26	983.4	NA	0.0000		9999	10760	0	0	0
2017/06/07 15:21:00	BASE	12.88	11	16.87	7	-1.8	67	-7.1	9	26	983.3	NA	0.0000		9999	10760	0	0	0
2017/06/07 15:22:00	BASE	13.67	11	16.87	7	-1.8	67	-7.1	9	26	983.3	NA	0.0000		9999	10730	0	0	0
2017/06/07 15:23:00	BASE	14.10	12	16.87	7	-1.8	67	-7.0	9	26	983.3	NA	0.0000		9999	10660	0	0	0
2017/06/07 15:24:00	BASE	13.84	11	16.87	7	-1.8	68	-7.0	9	26	983.3	NA	0.0000		9999	10930	0	0	0
2017/06/07 15:25:00	BASE	13.67	9	16.87	7	-1.8	68	-7.0	9	26	983.3	NA	0.0000		9999	0	0	0	0
2017/06/07 15:26:00	BASE	14.03	10	16.87	7	-1.8	68	-6.9	10	26	983.3	NA	0.0000		9999	10860	0	0	0
2017/06/07 15:27:00	BASE	14.73	10	17.54	10	-1.8	68	-6.9	10	27	983.3	NA	0.0000		9999	10730	0	0	0
2017/06/07 15:28:00	BASE	14.86	10	17.54	10	-1.7	68	-6.9	10	27	983.3	NA	0.0000		9999	10660	0	0	0
2017/06/07 15:29:00	BASE	14.47	10	17.54	10	-1.7	67	-7.0	10	27	983.2	NA	0.0000		9999	10730	0	0	0
2017/06/07 15:30:00	BASE	14.18	10	17.54	10	-1.7	67	-7.0	10	27	983.3	NA	0.0000		9999	10600	0	0	0
2017/06/07 15:31:00	BASE	14.23	11	17.75	7	-1.7	67	-7.0	10	28	983.2	NA	0.0000		9999	9810	10660	0	0
2017/06/07 15:32:00	BASE	15.21	8	17.75	7	-1.7	67	-7.0	10	28	983.1	NA	0.0000		9999	10760	0	0	0
2017/06/07 15:33:00	BASE	16.05	8	17.85	12	-1.7	67	-7.0	10	28	983.0	NA	0.0000		9999	9810	10500	0	0
2017/06/07 15:34:00	BASE	16.05	9	18.73	16	-1.8	68	-7.0	10	28	982.9	NA	0.0000		9999	10500	0	0	0
2017/06/07 15:35:00	BASE	16.97	9	20.27	17	-1.8	68	-6.9	10	28	982.8	NA	0.0000		9999	10600	0	0	0
2017/06/07 15:36:00	BASE	17.08	10	20.27	17	-1.8	68	-6.9	10	28	982.9	NA	0.0000		9999	10730	0	0	0
2017/06/07 15:37:00	BASE	16.54	9	20.27	17	-1.7	68	-6.9	10	28	982.9	NA	0.0000		9999	10700	0	0	0
2017/06/07 15:38:00	BASE	16.92	7	20.27	17	-1.7	68	-6.8	10	28	982.8	NA	0.0000		9999	10500	0	0	0
2017/06/07 15:39:00	BASE	17.39	8	20.27	17	-1.7	68	-6.8	10	28	982.7	NA	0.0000		9999	10470	0	0	0
2017/06/07 15:40:00	BASE	18.09	7	20.27	17	-1.6	68	-6.7	10	28	982.6	NA	0.0000		9999	10660	0	0	0
2017/06/07 15:41:00	BASE	18.37	6	20.27	17	-1.5	68	-6.8	10	28	982.7	NA	0.0000		9999	10470	0	0	0
2017/06/07 15:42:00	BASE	18.10	5	20.27	2	-1.5	67	-6.8	10	28	982.7	NA	0.0000		9999	10470	0	0	0
2017/06/07 15:43:00	BASE	18.90	4	21.25	7	-1.4	67	-6.8	10	27	982.6	NA	0.0000		9999	10240	0	0	0
2017/06/07 15:44:00	BASE	18.86	6	21.25	7	-1.3	66	-6.9	9	27	982.7	NA	0.0000		9999	10170	0	0	0
2017/06/07 15:45:00	BASE	18.08	6	21.25	7	-1.2	65	-7.0	9	26	982.7	NA	0.0000		9999	10140	0	0	0
2017/06/07 15:46:00	BASE	18.64	4	21.25	7	-1.2	65	-7.0	8	24	982.7	NA	0.0000		9999	9910	0	0	0
2017/06/07 15:47:00	BASE	18.24	5	21.25	7	-1.2	64	-7.1	8	23	982.8	NA	0.0000		9999	850	10340	0	0
2017/06/07 15:48:00	BASE	18.27	2	21.25	7	-1.2	64	-7.1	9	24	982.8	NA	0.0000		9999	890	0	0	0
2017/06/07 15:49:00	BASE	18.74	4	21.25	7	-1.2	64	-7.1	10	25	982.9	NA	0.0000		9999	890	0	0	0
2017/06/07 15:50:00	BASE	18.20	7	21.25	7	-1.2	64	-7.1	11	28	982.9	NA	0.0000		9999	0	0	0	3120
2017/06/07 15:51:00	BASE	17.35	6	21.25	7	-1.1	64	-7.2	11	30	983.0	NA	0.0000		9999	0	0	0	4130
2017/06/07 15:52:00	BASE	16.97	7	21.25	7	-1.1	64	-7.2	12	31	983.0	NA	0.0000		9999	0	0	0	4890
2017/06/07 15:53:00	BASE	17.17	9	20.17	7	-1.1	64	-7.2	12	31	983.0	NA	0.0000		9999	5480	0	0	0
2017/06/07 15:54:00	BASE	17.01	9	20.17	7	-1.1	64	-7.2	12	31	983.0	NA	0.0000		9999	3250	8860	0	0
2017/06/07 15:55:00	BASE	16.59	8	20.17	7	-1.1	64	-7.1	12	31	983.1	NA	0.0000		9999	3580	8760	0	0
2017/06/07 15:56:00	BASE	16.18	7	20.11	5	-1.1	64	-7.1	11	30	983.1	NA	0.0000		9999	8560	0	0	0
2017/06/07 15:57:00	BASE	15.80	7	20.11	5	-1.1	64	-7.2	11	29	983.1	NA	0.0000		9999	7680	0	0	0
2017/06/07 15:58:00	BASE	15.65	6	19.96	7	-1.1	63	-7.2	11	29	983.1	NA	0.0000		9999	0	0	0	2230
2017/06/07 15:59:00	BASE	15.54	8	19.81	14	-1.1	63	-7.2	11	29	983.1	NA	0.0000		9999	8960	0	0	0
2017/06/07 16:00:00	BASE	15.01	9	19.81	14	-1.1	63	-7.2	11	29	983.2	NA	0.0000		9999	8790	0	0	0
2017/06/07 16:01:00	BASE	15.40	8	19.81	14	-1.1	63	-7.2	11	29	983.1	NA	0.0000		9999	0	0	0	1050
2017/06/07 16:02:00	BASE	15.42	8	19.39	12	-1.1	63	-7.2	11	29	983.1	NA	0.0000		9999	0	0	0	690
2017/06/07 16:03:00	BASE	14.83	9	18.83	10	-1.1	63	-7.2	11	29	983.2	NA	0.0000	UP	9999	0	0	0	750
2017/06/07 16:04:00	BASE	15.03	8	18.67	15	-1.1	63	-7.2	11	29	983.2	NA	0.0000	UP	9999	0	0	0	390
2017/06/07 16:05:00	BASE	14.72	8	18.67	15	-1.2	64	-7.2	11	30	983.2	NA	0.0000	UP	9999	0	0	0	0
2017/06/07 16:06:00	BASE	14.70	7	17.75	7	-1.2	64	-7.1	11	29	983.2	NA	0.0000	UP	9999	4760	0	0	0
2017/06/07 16:07:00	BASE	14.92	8	17.75	7	-1.3	65	-7.1	11	29	983.2	NA	0.0000	UP	9999	4890	0	0	0
2017/06/07 16:08:00	BASE	14.91	11	17.75	7	-1.3	65	-7.1	10	29	983.2	NA	0.0000	UP	9999	0	0	0	0
2017/06/07 16:09:00	BASE	15.25	11	17.75	7	-1.4	66	-7.0	10	29	983.2	NA	0.0000	UP	9999	0	0	0	0
2017/06/07 16:10:00	BASE	15.26	9	17.75	7	-1.5	66	-7.0	11	29	983.2	NA	0.0000	UP	9999	0	0	0	330
2017/06/07 16:11:00	BASE	15.29	7	17.75	7	-1.5	67	-6.9	12	31	983.2	NA	0.0000	UP	9000	0	0	0	2430
2017/06/07 16:12:00	BASE	15.43	9	17.75	7	-1.5	67	-6.9	12	32	983.3	NA	0.0000	UP	9999	0	0	0	2990
2017/06/07 16:13:00	BASE	15.17	13	17.75	7	-1.6	67	-6.8	13	32	983.3	NA	0.0000	UP	9999	0	0	0	0
2017/06/07 16:14:00	BASE	14.81	12	17.75	7	-1.6	68	-6.8	13	32	983.3	NA	0.0000	UP	9999	0	0	0	0
2017/06/07 16:15:00	BASE	15.05	10	17.75	7	-1.6	68	-6.8	12	32	983.3	NA	0.0000	UP	9999	0	0	0	0
2017/06/07 16:16:00	BASE	14.80	11	17.70	10	-1.6	68	-6.7	13	32	983.4	NA	0.0000	UP	9999	0	0	0	0
2017/06/07 16:17:00	BASE	14.39	10	17.70	10	-1.6	68	-6.7	13	32	983.3	NA	0.0000	UP	9999	0	0	0	0
2017/06/07 16:18:00	BASE	13.78	8	17.70	10	-1.6	68	-6.7	13	32	983.4	NA	0.0000	UP	9999	0	0	0	620
2017/06/07 16:19:00	BASE	13.76	9	17.70	10	-1.6	68	-6.7	13	32	983.3	NA	0.0000	UP	9999	0	0	0	0
2017/06/07 16:20:00	BASE	14.86	12	17.18	10	-1.6	68	-6.7	13	32	983.4	NA	0.0000	UP	9999	0	0	0	0
2017/06/07 16:21:00	BASE	14.69	9	17.18	10	-1.6	68	-6.7	13	33	983.4	NA	0.0000	UP	9999	0	0	0	0
2017/06/07 16:22:00	BASE	14.90	6	17.54	15	-1.6	69	-6.6	13	33	983.3	NA	0.0000	UP	9999	0	0	0	0
2017/06/07 16:23:00	BASE	15.63	9	17.54	15	-1.6	69	-6.6	13	33	983.3	NA	0.0000	UP	9999	8430	0	0	0
2017/06/07 16:24:00	BASE	15.34	9	17.54	15	-1.6	68	-6.6	13	33	983.4	NA	0.0000	UP	9999	0	0	0	0
2017/06/07 16:25:00	BASE	14.70	7	17.54	15	-1.6	68	-6.7	13	33	983.5	NA	0.0000		9999	0	0	0	430
2017/06/07 16:26:00	BASE	14.62	6	17.54	15	-1.6	68	-6.7	13	34	983.4	NA	0.0000		9999	0	0	0	0
2017/06/07 16:27:00	BASE	15.03	6	17.54	15	-1.6	68	-6.8	14	34	983.5	NA	0.0000	UP	9999	0	0	0	0
2017/06/07 16:28:00	BASE	15.25	5	17.54	15	-1.7	68	-6.8	14	34	983.5	NA	0.0000	UP	9999	0	0	0	0
2017/06/07 16:29:00	BASE	15.24	2	17.70	4	-1.7	69	-6.7	14	34	983.5	NA	0.0000	UP	9999	0	0	0	0
2017/06/07 16:30:00	BASE	15.81	2	17.85	360	-1.8	69	-6.7	14	34	983.4	NA	0.0000	UP	9999	0	0	0	0
2017/06/07 16:31:00	BASE	16.34	5	18.26	5	-1.8	69	-6.6	14	34	983.4	NA	0.0000	UP	9999	0	0	0	0
2017/06/07 16:32:00	BASE	16.50	3	18.26	5	-1.8	70	-6.6	14	34	983.4	NA	0.0000	UP	9999	0	0	0	0
2017/06/07 16:33:00	BASE	16.17	4	18.26	5	-1.7	69	-6.6	14	34	983.5	NA	0.0000	UP	9999	0	0	0	0
2017/06/07 16:34:00	BASE	15.29	5	18.26	5	-1.7	69	-6.6	14	34	983.6	NA	0.0000	UP	9999	0	0	0	0
2017/06/07 16:35:00	BASE	15.10	2	18.26	5	-1.6	68	-6.7	14	34	983.6	NA	0.0000	UP	9999	0	0	0	0
2017/06/07 16:36:00	BASE	14.69	4	18.26	5	-1.5	68	-6.7	14	34	983.6	NA	0.0000	UP	9999	0	0	0	0
2017/06/07 16:37:00	BASE	14.54	8	18.26	5	-1.6	68	-6.8	14	34	983.6	NA	0.0000	UP	9999	0	0	0	0
2017/06/07 16:38:00	BASE	15.19	7	18.26	5	-1.6	68	-6.8	14	34	983.6	NA	0.0000		9999	0	0	0	0
2017/06/07 16:39:00	BASE	14.92	4	18.26	5	-1.6	68	-6.8	14	34	983.6	NA	0.0000		9999	0	0	0	0
2017/06/07 16:40:00	BASE	14.62	6	18.26	5	-1.6	68	-6.8	13	33	983.6	NA	0.0000		9999	0	0	0	0
2017/06/07 16:41:00	BASE	14.71	7	18.11	10	-1.6	68	-6.8	12	31	983.7	NA	0.0000		9999	0	0	0	0
2017/06/07 16:42:00	BASE	14.87	7	17.54	9	-1.6	68	-6.8	12	31	983.7	NA	0.0000		9999	0	0	0	1440
2017/06/07 16:43:00	BASE	14.87	7	17.49	9	-1.6	68	-6.8	13	31	983.8	NA	0.0000		9999	360	0	0	0
2017/06/07 16:44:00	BASE	14.95	6	17.49	9	-1.6	68	-6.7	13	32	983.8	NA	0.0000		9999	300	0	0	0
2017/06/07 16:45:00	BASE	15.24	9	18.01	8	-1.7	69	-6.7	13	32	983.8	NA	0.0000	UP	8000	0	0	0	1570
2017/06/07 16:46:00	BASE	14.90	11	18.01	8	-1.8	69	-6.7	13	32	983.8	NA	0.0000	UP	7000	0	0	0	490
2017/06/07 16:47:00	BASE	15.18	10	18.62	12	-1.9	70	-6.6	13	32	983.7	NA	0.0000	-SN	8000	0	0	0	0
2017/06/07 16:48:00	BASE	15.65	9	18.62	12	-2.0	71	-6.6	13	32	983.7	NA	0.0000	-SN	9999	0	0	0	0
2017/06/07 16:49:00	BASE	15.64	7	18.62	12	-2.1	72	-6.5	13	32	983.8	NA	0.0000	-SN	9999	0	0	0	0
2017/06/07 16:50:00	BASE	15.34	5	18.62	12	-2.1	73	-6.4	13	32	983.8	NA	0.0000	-SN	9999	7910	0	0	0
2017/06/07 16:51:00	BASE	15.81	4	18.73	2	-2.2	73	-6.3	13	32	983.7	NA	0.0000	-SN	9999	0	0	0	0
2017/06/07 16:52:00	BASE	16.80	5	18.73	2	-2.1	74	-6.2	13	32	983.6	NA	0.0000	-SN	9999	0	0	0	0
2017/06/07 16:53:00	BASE	16.91	5	18.83	3	-2.1	74	-6.1	13	31	983.6	NA	0.0000	-SN	9999	0	0	0	0
2017/06/07 16:54:00	BASE	16.83	4	18.83	3	-2.0	74	-6.1	13	31	983.7	NA	0.0000	-SN	9999	0	0	0	0
2017/06/07 16:55:00	BASE	16.48	3	18.83	3	-1.9	73	-6.1	13	31	983.8	NA	0.0000	-SN	9999	0	0	0	0
2017/06/07 16:56:00	BASE	15.33	2	18.83	3	-1.9	73	-6.1	13	31	983.9	NA	0.0000	-SN	9999	0	0	0	0
2017/06/07 16:57:00	BASE	14.72	357	18.83	3	-1.9	73	-6.1	13	31	983.9	NA	0.0000	-SN	9999	0	0	0	0
2017/06/07 16:58:00	BASE	14.52	354	18.83	3	-1.9	73	-6.1	13	31	984.0	NA	0.0000		9999	0	0	0	0
2017/06/07 16:59:00	BASE	13.53	356	18.83	3	-1.9	73	-6.1	13	30	984.0	NA	0.0000		9999	0	0	0	0
2017/06/07 17:00:00	BASE	14.25	358	18.83	3	-1.9	73	-6.1	13	30	983.9	NA	0.0000		9999	0	0	0	0
2017/06/07 17:01:00	BASE	15.79	2	18.83	3	-2.0	73	-6.1	12	30	983.8	NA	0.0000		9999	0	0	0	0
2017/06/07 17:02:00	BASE	16.38	4	18.88	4	-2.0	73	-6.1	12	30	983.7	NA	0.0000		9999	0	0	0	0
2017/06/07 17:03:00	BASE	17.95	4	20.58	5	-2.0	73	-6.1	12	30	983.6	NA	0.0000		9999	0	0	0	0
2017/06/07 17:04:00	BASE	18.88	4	20.58	5	-1.9	73	-6.1	12	30	983.6	NA	0.0000		9999	0	0	0	0
2017/06/07 17:05:00	BASE	17.91	3	20.58	5	-1.9	73	-6.1	12	29	983.8	NA	0.0000		9999	0	0	0	0
2017/06/07 17:06:00	BASE	17.15	1	20.58	5	-1.8	73	-6.1	12	29	983.8	NA	0.0000		9999	0	0	0	0
2017/06/07 17:07:00	BASE	16.99	2	20.58	5	-1.8	73	-6.1	12	29	983.8	NA	0.0000		9999	0	0	0	0
2017/06/07 17:08:00	BASE	16.99	4	20.58	5	-1.8	73	-6.1	12	29	983.7	NA	0.0000		9999	0	0	0	0
2017/06/07 17:09:00	BASE	16.90	3	20.58	5	-1.8	72	-6.1	12	29	983.8	NA	0.0000		9999	0	0	0	0
2017/06/07 17:10:00	BASE	16.97	3	20.58	5	-1.9	72	-6.2	11	29	983.7	NA	0.0000		9999	0	0	0	0
2017/06/07 17:11:00	BASE	17.58	3	20.58	5	-1.9	72	-6.2	11	28	983.7	NA	0.0000		9999	0	0	0	0
2017/06/07 17:12:00	BASE	18.06	4	20.58	5	-1.9	72	-6.3	11	28	983.6	NA	0.0000		9999	0	0	0	0
2017/06/07 17:13:00	BASE	18.51	5	20.17	2	-1.9	72	-6.2	11	28	983.6	NA	0.0000		9999	0	0	0	0
2017/06/07 17:14:00	BASE	18.21	4	20.17	2	-1.9	73	-6.2	11	28	983.7	NA	0.0000		9999	0	0	0	0
2017/06/07 17:15:00	BASE	17.70	4	20.17	2	-1.9	73	-6.1	11	27	983.7	NA	0.0000		9999	0	0	0	0
2017/06/07 17:16:00	BASE	17.59	2	20.17	2	-1.9	73	-6.1	11	27	983.7	NA	0.0000		9999	0	0	0	0
2017/06/07 17:17:00	BASE	17.56	2	20.17	2	-1.8	73	-6.0	11	27	983.7	NA	0.0000		9999	0	0	0	0
2017/06/07 17:18:00	BASE	17.75	4	20.47	1	-1.8	73	-6.1	11	27	983.7	NA	0.0000		9999	0	0	0	0
2017/06/07 17:19:00	BASE	17.46	4	20.47	1	-1.8	73	-6.0	11	26	983.7	NA	0.0000		9999	0	0	0	0
2017/06/07 17:20:00	BASE	17.37	6	20.47	1	-1.8	73	-6.1	10	26	983.6	NA	0.0000		9999	0	0	0	0
2017/06/07 17:21:00	BASE	16.94	6	20.47	1	-1.9	73	-6.1	10	26	983.8	NA	0.0000		9999	0	0	0	0
2017/06/07 17:22:00	BASE	17.24	7	20.47	1	-1.9	73	-6.1	10	26	983.8	NA	0.0000		9999	0	0	0	0
2017/06/07 17:23:00	BASE	17.32	6	20.47	1	-1.9	73	-6.2	10	25	983.8	NA	0.0000		9999	0	0	0	0
2017/06/07 17:24:00	BASE	16.52	5	20.47	1	-1.9	72	-6.2	10	25	983.8	NA	0.0000		9999	0	0	0	0
2017/06/07 17:25:00	BASE	16.22	6	20.47	1	-1.9	72	-6.2	10	25	983.9	NA	0.0000		9999	0	0	0	0
2017/06/07 17:26:00	BASE	16.34	7	20.47	1	-1.9	72	-6.3	10	25	983.8	NA	0.0000		9999	0	0	0	0
2017/06/07 17:27:00	BASE	16.68	9	20.47	1	-1.9	72	-6.3	9	24	983.9	NA	0.0000		9999	0	0	0	0
2017/06/07 17:28:00	BASE	16.36	10	19.91	9	-1.9	72	-6.3	9	24	983.9	NA	0.0000		9999	0	0	0	0
2017/06/07 17:29:00	BASE	16.23	9	19.91	9	-1.9	71	-6.4	9	23	983.9	NA	0.0000		9999	0	0	0	0
2017/06/07 17:30:00	BASE	16.31	9	19.91	9	-1.9	71	-6.4	9	23	983.9	NA	0.0000		9999	0	0	0	0
2017/06/07 17:31:00	BASE	15.98	9	19.91	9	-1.9	71	-6.4	9	23	983.9	NA	0.0000		9999	0	0	0	0
2017/06/07 17:32:00	BASE	15.76	8	19.03	4	-2.0	72	-6.4	9	23	983.8	NA	0.0000		9999	0	0	0	0
2017/06/07 17:33:00	BASE	16.32	8	19.03	4	-2.0	72	-6.3	9	22	983.8	NA	0.0000		9999	0	0	0	0
2017/06/07 17:34:00	BASE	16.42	11	19.03	4	-2.0	73	-6.3	8	22	983.9	NA	0.0000		9999	0	0	0	0
2017/06/07 17:35:00	BASE	16.59	10	19.03	4	-2.0	73	-6.2	8	22	983.8	NA	0.0000		9999	0	0	0	0
2017/06/07 17:36:00	BASE	16.35	7	18.88	9	-1.9	73	-6.2	8	21	983.8	NA	0.0000		9999	0	0	0	0
2017/06/07 17:37:00	BASE	16.71	6	18.88	9	-1.9	72	-6.2	8	21	983.7	NA	0.0000		9999	0	0	0	0
2017/06/07 17:38:00	BASE	17.17	4	18.88	9	-1.9	72	-6.2	8	21	983.8	NA	0.0000		9999	0	0	0	0
2017/06/07 17:39:00	BASE	16.64	6	18.88	9	-1.8	72	-6.2	8	21	983.9	NA	0.0000		9999	0	0	0	0
2017/06/07 17:40:00	BASE	16.65	5	18.88	9	-1.8	72	-6.2	8	20	983.8	NA	0.0000		9999	0	0	0	0
2017/06/07 17:41:00	BASE	16.95	5	18.88	9	-1.7	72	-6.2	8	20	983.8	NA	0.0000		9999	0	0	0	0
2017/06/07 17:42:00	BASE	16.95	6	18.88	10	-1.7	71	-6.2	7	20	983.9	NA	0.0000		9999	0	0	0	0
2017/06/07 17:43:00	BASE	16.40	5	18.88	10	-1.7	71	-6.2	7	19	983.9	NA	0.0000		9999	0	0	0	0
2017/06/07 17:44:00	BASE	16.13	6	18.88	10	-1.7	71	-6.3	7	19	983.9	NA	0.0000		9999	0	0	0	0
2017/06/07 17:45:00	BASE	16.32	8	18.88	10	-1.7	71	-6.3	7	19	983.9	NA	0.0000		9999	0	0	0	0
2017/06/07 17:46:00	BASE	16.60	10	18.88	10	-1.8	71	-6.3	7	18	983.9	NA	0.0000		9999	0	0	0	0
2017/06/07 17:47:00	BASE	16.53	10	18.88	10	-1.8	71	-6.4	6	18	983.8	NA	0.0000		9999	0	0	0	0
2017/06/07 17:48:00	BASE	17.02	9	19.14	6	-1.9	71	-6.4	6	17	983.9	NA	0.0000		9999	0	0	0	0
2017/06/07 17:49:00	BASE	16.23	8	19.14	6	-1.9	71	-6.5	6	17	984.0	NA	0.0000		9999	0	0	0	0
2017/06/07 17:50:00	BASE	15.20	7	19.14	6	-1.9	71	-6.5	6	17	984.1	NA	0.0000		9999	0	0	0	0
2017/06/07 17:51:00	BASE	15.96	8	19.14	6	-2.0	71	-6.5	6	16	984.0	NA	0.0000		9999	0	0	0	0
2017/06/07 17:52:00	BASE	15.59	7	19.14	6	-2.0	71	-6.6	6	16	984.0	NA	0.0000		9999	0	0	0	0
2017/06/07 17:53:00	BASE	15.16	11	19.14	6	-2.0	71	-6.6	5	16	984.0	NA	0.0000		9999	0	0	0	0
2017/06/07 17:54:00	BASE	16.77	15	19.55	17	-2.0	71	-6.6	5	15	983.8	NA	0.0000		9999	0	0	0	0
2017/06/07 17:55:00	BASE	17.53	13	19.55	17	-2.0	70	-6.7	5	15	983.9	NA	0.0000		9999	0	0	0	0
2017/06/07 17:56:00	BASE	15.68	11	19.55	17	-2.0	70	-6.7	5	15	984.1	NA	0.0000		9999	0	0	0	0
2017/06/07 17:57:00	BASE	14.29	10	19.55	17	-2.0	69	-6.8	5	14	984.1	NA	0.0000		9999	0	0	0	0
2017/06/07 17:58:00	BASE	15.00	11	19.55	17	-2.0	69	-6.9	5	14	984.0	NA	0.0000		9999	0	0	0	520
2017/06/07 17:59:00	BASE	15.62	11	19.55	17	-2.0	69	-6.9	5	13	984.0	NA	0.0000		9999	0	0	0	360
2017/06/07 18:00:00	BASE	16.06	10	19.55	17	-2.1	70	-6.8	4	13	983.9	NA	0.0000		9000	0	0	0	0
2017/06/07 18:01:00	BASE	15.79	9	19.55	17	-2.1	70	-6.8	4	13	984.1	NA	0.0000	UP	9000	0	0	0	0
2017/06/07 18:02:00	BASE	15.04	10	19.55	17	-2.1	71	-6.7	4	12	984.1	NA	0.0000	UP	9000	0	0	0	0
2017/06/07 18:03:00	BASE	15.11	10	19.55	17	-2.1	71	-6.7	4	12	984.1	NA	0.0000	UP	9000	0	0	0	430
2017/06/07 18:04:00	BASE	16.09	10	19.03	9	-2.1	71	-6.6	4	11	984.0	NA	0.0000	UP	9999	0	0	0	260
2017/06/07 18:05:00	BASE	17.00	10	18.57	10	-2.1	72	-6.5	4	11	984.0	NA	0.0000	UP	9999	0	0	0	890
2017/06/07 18:06:00	BASE	16.73	9	18.57	10	-2.1	72	-6.5	4	10	984.1	NA	0.0000	UP	9999	0	0	0	2260
2017/06/07 18:07:00	BASE	16.58	8	18.98	12	-2.1	72	-6.5	3	10	984.1	NA	0.0000	UP	5000	850	0	0	0
2017/06/07 18:08:00	BASE	16.45	9	18.98	12	-2.1	72	-6.5	4	10	984.1	NA	0.0000	UP	2500	200	0	0	0
2017/06/07 18:09:00	BASE	16.00	10	18.98	12	-2.1	72	-6.4	4	10	984.2	NA	0.0000	-SN	2100	0	0	0	3120
2017/06/07 18:10:00	BASE	15.27	10	18.98	12	-2.1	72	-6.4	4	10	984.2	NA	0.0000	-SN	3400	0	0	0	3180
2017/06/07 18:11:00	BASE	15.68	11	18.98	12	-2.1	73	-6.4	4	10	984.1	NA	0.0000	-SN	9999	0	0	0	1120
2017/06/07 18:12:00	BASE	16.59	11	18.98	12	-2.1	73	-6.4	4	10	984.1	NA	0.0000	-SN	9999	0	0	0	430
2017/06/07 18:13:00	BASE	16.50	9	18.98	12	-2.1	73	-6.4	4	10	984.1	NA	0.0000	-SN	9999	0	0	0	390
2017/06/07 18:14:00	BASE	15.32	8	18.98	12	-2.1	73	-6.4	3	9	984.2	NA	0.0000	-SN	9999	0	0	0	0
2017/06/07 18:15:00	BASE	15.65	10	19.14	10	-2.1	72	-6.4	3	9	984.1	NA	0.0000	-SN	9999	0	0	0	0
2017/06/07 18:16:00	BASE	17.38	10	21.35	12	-2.1	72	-6.5	3	9	984.0	NA	0.0000	-SN	9999	0	0	0	0
2017/06/07 18:17:00	BASE	16.81	10	21.35	12	-2.1	72	-6.5	3	8	984.2	NA	0.0000	-SN	9999	0	0	0	0
2017/06/07 18:18:00	BASE	16.12	9	21.35	12	-2.1	72	-6.5	3	8	984.2	NA	0.0000	-SN	9999	0	0	0	0
2017/06/07 18:19:00	BASE	15.74	9	21.35	12	-2.1	71	-6.6	3	8	984.3	NA	0.0000	-SN	9999	0	0	0	390
2017/06/07 18:20:00	BASE	14.75	9	21.35	12	-2.1	71	-6.6	3	8	984.3	NA	0.0000	-SN	9999	0	0	0	660
2017/06/07 18:21:00	BASE	14.94	10	21.35	12	-2.1	71	-6.6	3	7	984.2	NA	0.0000	-SN	9999	0	0	0	0
2017/06/07 18:22:00	BASE	16.31	9	21.35	12	-2.1	71	-6.6	3	7	984.2	NA	0.0000	-SN	9999	0	0	0	0
2017/06/07 18:23:00	BASE	16.20	9	21.35	12	-2.1	71	-6.6	3	7	984.3	NA	0.0000	-SN	9999	0	0	0	0
2017/06/07 18:24:00	BASE	15.75	11	21.35	12	-2.1	71	-6.6	3	7	984.3	NA	0.0000	-SN	9999	0	0	0	0
2017/06/07 18:25:00	BASE	16.53	10	21.35	12	-2.0	71	-6.6	3	6	984.2	NA	0.0000	-SN	9999	0	0	0	0
2017/06/07 18:26:00	BASE	16.44	11	19.81	3	-2.0	71	-6.6	3	6	984.2	NA	0.0000	-SN	9999	0	0	0	0
2017/06/07 18:27:00	BASE	15.87	11	19.81	3	-2.0	70	-6.7	3	6	984.3	NA	0.0000	-SN	9999	0	0	0	0
2017/06/07 18:28:00	BASE	15.29	10	19.81	3	-2.0	70	-6.7	3	5	984.4	NA	0.0000	-SN	9999	0	0	0	0
2017/06/07 18:29:00	BASE	14.39	11	19.81	3	-2.0	70	-6.7	3	5	984.4	NA	0.0000	-SN	9999	0	0	0	0
2017/06/07 18:30:00	BASE	14.00	10	19.81	3	-2.0	71	-6.6	3	5	984.4	NA	0.0000	-SN	9999	0	0	0	0
2017/06/07 18:31:00	BASE	14.75	9	19.81	3	-2.0	71	-6.6	3	5	984.3	NA	0.0000	-SN	9999	0	0	0	0
2017/06/07 18:32:00	BASE	15.55	10	18.78	2	-2.0	71	-6.5	3	5	984.2	NA	0.0000	-SN	9999	0	0	0	0
2017/06/07 18:33:00	BASE	15.04	11	18.78	2	-1.9	71	-6.5	3	5	984.4	NA	0.0000	-SN	9999	0	0	0	0
2017/06/07 18:34:00	BASE	15.34	10	18.78	2	-1.9	71	-6.4	3	5	984.3	NA	0.0000	-SN	9999	7840	0	0	0
2017/06/07 18:35:00	BASE	15.99	8	18.26	22	-1.8	71	-6.4	3	4	984.4	NA	0.0000	-SN	9999	6960	0	0	0
2017/06/07 18:36:00	BASE	15.37	10	17.85	3	-1.8	70	-6.5	3	4	984.4	NA	0.0000		9999	2260	0	0	0
2017/06/07 18:37:00	BASE	15.79	10	18.26	11	-1.7	70	-6.5	3	4	984.3	NA	0.0000		9999	5940	0	0	0
2017/06/07 18:38:00	BASE	15.99	9	18.78	9	-1.7	70	-6.6	2	4	984.3	NA	0.0000		9999	6100	0	0	0
2017/06/07 18:39:00	BASE	15.63	9	18.78	9	-1.8	69	-6.7	2	4	984.4	NA	0.0000		9999	6920	0	0	0
2017/06/07 18:40:00	BASE	15.71	11	18.78	9	-1.8	69	-6.7	2	3	984.3	NA	0.0000		9999	7480	0	0	0
2017/06/07 18:41:00	BASE	15.87	13	18.78	9	-1.8	69	-6.8	2	3	984.3	NA	0.0000		9999	5940	0	0	0
2017/06/07 18:42:00	BASE	16.47	10	18.78	9	-1.9	69	-6.8	2	3	984.3	NA	0.0000		9999	5640	0	0	0
2017/06/07 18:43:00	BASE	16.48	9	18.78	9	-1.9	69	-6.7	2	3	984.4	NA	0.0000		9999	5050	0	0	0
2017/06/07 18:44:00	BASE	15.82	8	18.78	9	-1.9	70	-6.7	2	2	984.4	NA	0.0000		9999	460	5220	0	0
2017/06/07 18:45:00	BASE	15.43	10	18.78	9	-1.9	70	-6.7	2	2	984.5	NA	0.0000		9000	390	0	0	0
2017/06/07 18:46:00	BASE	15.11	11	18.78	9	-1.9	70	-6.6	1	2	984.5	NA	0.0000		6000	360	0	0	0
2017/06/07 18:47:00	BASE	15.13	10	18.78	9	-1.9	70	-6.6	1	1	984.5	NA	0.0000	-SN	8000	430	0	0	0
2017/06/07 18:48:00	BASE	15.73	11	18.67	6	-1.8	70	-6.6	1	1	984.6	NA	0.0000	-SN	8000	390	0	0	0
2017/06/07 18:49:00	BASE	15.27	7	18.62	4	-1.8	70	-6.6	1	1	984.7	NA	0.0000	-SN	8000	330	0	0	0
2017/06/07 18:50:00	BASE	13.43	9	18.62	4	-1.8	70	-6.6	1	1	984.7	NA	0.0000	-SN	9999	0	0	0	2200
2017/06/07 18:51:00	BASE	14.41	14	18.62	4	-1.8	69	-6.6	1	1	984.5	NA	0.0000	-SN	8000	890	0	0	0
2017/06/07 18:52:00	BASE	15.01	12	17.90	12	-1.7	69	-6.6	1	1	984.8	NA	0.0000	-SN	9000	0	0	0	4070
2017/06/07 18:53:00	BASE	13.25	10	17.90	12	-1.7	69	-6.7	1	1	984.8	NA	0.0000	-SN	9999	1180	0	0	0
2017/06/07 18:54:00	BASE	13.03	9	17.90	12	-1.7	69	-6.8	1	1	984.6	NA	0.0000	-SN	9999	2660	0	0	0
2017/06/07 18:55:00	BASE	14.62	11	17.90	12	-1.8	69	-6.8	1	1	984.5	NA	0.0000	-SN	9999	0	0	0	0
2017/06/07 18:56:00	BASE	15.12	14	17.90	12	-1.8	69	-6.8	1	1	984.6	NA	0.0000	-SN	9999	0	0	0	0
2017/06/07 18:57:00	BASE	14.88	12	18.21	5	-1.9	69	-6.8	1	1	984.5	NA	0.0000	-SN	9999	0	0	0	5380
2017/06/07 18:58:00	BASE	15.89	7	18.21	5	-2.0	70	-6.7	1	0	984.5	NA	0.0000	-SN	9999	0	0	0	3410
2017/06/07 18:59:00	BASE	15.99	8	18.21	5	-2.0	71	-6.6	0	0	984.5	NA	0.0000	-SN	4300	0	0	0	3380
2017/06/07 19:00:00	BASE	15.51	9	18.21	5	-2.1	72	-6.4	0	0	984.6	NA	0.0000	-SN	2300	0	0	0	720
2017/06/07 19:01:00	BASE	15.07	8	18.21	5	-2.1	73	-6.3	0	0	984.6	NA	0.0000	-SN	2000	0	0	0	690
2017/06/07 19:02:00	BASE	15.18	9	18.21	5	-2.2	74	-6.2	0	0	984.7	NA	0.0000	-SN	2100	0	0	0	690
2017/06/07 19:03:00	BASE	15.02	11	18.21	5	-2.2	75	-6.1	0	0	984.7	NA	0.0000	-SN	2300	0	0	0	750
2017/06/07 19:04:00	BASE	15.11	12	18.21	5	-2.2	75	-6.0	0	0	984.7	NA	0.0000	-SN	2900	0	0	0	950
2017/06/07 19:05:00	BASE	15.60	12	18.21	5	-2.3	76	-6.0	0	0	984.7	NA	0.0000	-SN	3600	0	0	0	1180
2017/06/07 19:06:00	BASE	15.72	12	18.21	5	-2.3	76	-6.0	0	0	984.7	NA	0.0000	-SN	3800	0	0	0	1250
2017/06/07 19:07:00	BASE	15.17	10	17.90	11	-2.3	76	-6.0	0	0	984.8	NA	0.0000	-SN	2800	0	0	0	1080
2017/06/07 19:08:00	BASE	14.26	11	17.90	11	-2.3	76	-5.9	0	0	984.8	NA	0.0000	-SN	2200	0	0	0	1570
2017/06/07 19:09:00	BASE	14.01	15	17.90	11	-2.3	76	-5.9	0	0	984.8	NA	0.0000	-SN	2200	0	0	0	1610
2017/06/07 19:10:00	BASE	13.78	18	17.90	11	-2.4	77	-5.9	0	0	984.8	NA	0.0000	-SN	2300	300	0	0	0
2017/06/07 19:11:00	BASE	13.73	17	17.90	11	-2.4	77	-5.9	0	0	984.8	NA	0.0000	-SN	2800	720	0	0	0
2017/06/07 19:12:00	BASE	13.93	15	17.90	11	-2.4	77	-5.8	0	0	984.8	NA	0.0000	-SN	3800	1570	0	0	0
2017/06/07 19:13:00	BASE	14.58	17	17.90	11	-2.4	78	-5.8	0	0	984.7	NA	0.0000	-SN	4600	1180	0	0	0
2017/06/07 19:14:00	BASE	15.28	18	17.90	11	-2.5	78	-5.8	0	0	984.7	NA	0.0000	-SN	3300	330	0	0	0
2017/06/07 19:15:00	BASE	15.10	13	17.90	11	-2.5	78	-5.7	0	0	984.7	NA	0.0000	-SN	2100	0	0	0	1080
2017/06/07 19:16:00	BASE	14.79	11	18.01	13	-2.5	79	-5.7	0	0	984.7	NA	0.0000	-SN	1500	0	0	0	1120
2017/06/07 19:17:00	BASE	15.23	15	18.01	13	-2.5	79	-5.6	0	0	984.7	NA	0.0000	-SN	1500	0	0	0	890
2017/06/07 19:18:00	BASE	15.42	15	18.01	13	-2.6	80	-5.5	0	0	984.8	NA	0.0000	-SN	1900	0	0	0	850
2017/06/07 19:19:00	BASE	15.21	12	18.26	12	-2.6	81	-5.5	0	0	984.8	NA	0.0000	-SN	2700	0	0	0	750
2017/06/07 19:20:00	BASE	15.37	10	18.26	12	-2.6	81	-5.4	0	0	984.8	NA	0.0000	-SN	3100	0	0	0	820
2017/06/07 19:21:00	BASE	14.76	12	18.26	12	-2.6	82	-5.3	0	0	984.9	NA	0.0000	-SN	2600	0	0	0	750
2017/06/07 19:22:00	BASE	14.22	15	18.26	12	-2.6	83	-5.2	0	0	984.9	NA	0.0000	-SN	2200	0	0	0	750
2017/06/07 19:23:00	BASE	14.18	19	18.26	12	-2.6	83	-5.1	0	0	984.9	NA	0.0000	-SN	1800	0	0	0	1020
2017/06/07 19:24:00	BASE	13.67	19	18.26	12	-2.7	84	-5.1	0	0	984.9	NA	0.0000	-SN	1700	0	0	0	1770
2017/06/07 19:25:00	BASE	12.93	16	18.26	12	-2.7	84	-5.0	0	0	984.9	NA	0.0000	-SN	2000	0	0	0	3150
2017/06/07 19:26:00	BASE	12.42	16	18.26	12	-2.7	84	-5.0	0	0	984.9	NA	0.0000	-SN	2500	0	0	0	2200
2017/06/07 19:27:00	BASE	13.29	18	18.26	12	-2.7	84	-5.0	0	0	984.8	NA	0.0000	-SN	2300	0	0	0	2360
2017/06/07 19:28:00	BASE	14.10	17	18.26	12	-2.7	84	-4.9	0	0	984.8	NA	0.0000	-SN	2500	0	0	0	2920
2017/06/07 19:29:00	BASE	14.19	15	16.72	5	-2.6	85	-4.9	0	0	984.8	NA	0.0000	-SN	2600	0	0	0	1280
2017/06/07 19:30:00	BASE	14.45	16	16.41	18	-2.6	85	-4.9	0	0	984.8	NA	0.0000	-SN	2100	0	0	0	1150
2017/06/07 19:31:00	BASE	14.22	16	16.41	18	-2.6	85	-4.9	0	0	984.8	NA	0.0000	-SN	1700	0	0	0	1440
2017/06/07 19:32:00	BASE	13.49	17	16.41	18	-2.6	84	-4.9	0	0	984.9	NA	0.0000	-SN	2000	0	0	0	1480
2017/06/07 19:33:00	BASE	13.25	17	16.41	18	-2.6	84	-4.9	0	0	984.8	NA	0.0000	-SN	3100	0	0	0	1670
2017/06/07 19:34:00	BASE	13.43	16	16.41	18	-2.6	84	-5.0	0	0	984.8	NA	0.0000	-SN	3700	0	0	0	1840
2017/06/07 19:35:00	BASE	12.87	17	16.41	18	-2.6	84	-5.0	0	0	984.9	NA	0.0000	-SN	4900	0	0	0	2100
2017/06/07 19:36:00	BASE	12.49	18	16.41	18	-2.6	84	-5.0	0	0	984.8	NA	0.0000	-SN	8000	1480	0	0	0
2017/06/07 19:37:00	BASE	13.10	19	16.41	18	-2.5	83	-5.0	0	0	984.7	NA	0.0000	-SN	9999	0	0	0	4890
2017/06/07 19:38:00	BASE	13.51	16	15.79	25	-2.4	83	-5.0	0	0	984.8	NA	0.0000	-SN	9999	0	0	0	4820
2017/06/07 19:39:00	BASE	11.73	12	15.79	25	-2.3	82	-5.1	0	0	984.9	NA	0.0000	-SN	9999	3770	0	0	0
2017/06/07 19:40:00	BASE	10.78	11	15.59	16	-2.3	81	-5.1	0	0	984.9	NA	0.0000	-SN	9999	15060	0	0	0
2017/06/07 19:41:00	BASE	12.62	9	15.59	16	-2.2	79	-5.3	0	0	984.8	NA	0.0000	-SN	9999	5480	0	0	0
2017/06/07 19:42:00	BASE	14.19	9	15.59	16	-2.1	78	-5.4	0	0	984.8	NA	0.0000	-SN	9000	950	0	0	0
2017/06/07 19:43:00	BASE	14.74	11	15.59	16	-2.0	77	-5.5	0	0	984.7	NA	0.0000	-SN	3100	230	0	0	0
2017/06/07 19:44:00	BASE	14.65	10	16.87	3	-2.0	77	-5.6	0	0	984.8	NA	0.0000	-SN	1800	0	0	0	1710
2017/06/07 19:45:00	BASE	14.80	9	17.54	20	-2.1	77	-5.6	0	0	984.7	NA	0.0000	-SN	1600	0	0	0	2200
2017/06/07 19:46:00	BASE	15.40	10	17.54	20	-2.2	77	-5.6	0	0	984.7	NA	0.0000	-SN	1900	0	0	0	3510
2017/06/07 19:47:00	BASE	15.01	10	17.54	20	-2.2	78	-5.6	0	0	984.8	NA	0.0000	-SN	3400	0	0	0	1870
2017/06/07 19:48:00	BASE	14.35	12	17.54	20	-2.3	79	-5.5	0	0	984.7	NA	0.0000	-SN	M	0	0	0	1480
2017/06/07 19:49:00	BASE	14.75	14	17.54	20	-2.4	80	-5.4	0	0	984.7	NA	0.0000	-SN	9999	0	0	0	2400
2017/06/07 19:50:00	BASE	14.75	16	17.54	20	-2.5	81	-5.3	0	0	984.7	NA	0.0000	-SN	9999	0	0	0	4000
2017/06/07 19:51:00	BASE	15.05	15	17.95	11	-2.5	82	-5.2	0	0	984.6	NA	0.0000	-SN	M	0	0	0	1050
2017/06/07 19:52:00	BASE	15.50	15	17.95	11	-2.6	82	-5.2	0	0	984.6	NA	0.0000	-SN	M	15420	0	0	0
2017/06/07 19:53:00	BASE	15.50	14	17.95	17	-2.5	83	-5.1	0	0	984.6	NA	0.0000	-SN	M	15650	0	0	0
2017/06/07 19:54:00	BASE	15.03	12	17.95	17	-2.5	83	-5.1	0	0	984.7	NA	0.0000	-SN	M	0	0	0	1640
2017/06/07 19:55:00	BASE	14.60	12	17.95	17	-2.5	83	-5.0	0	0	984.8	NA	0.0000	-SN	M	750	0	0	0
2017/06/07 19:56:00	BASE	13.50	12	17.95	17	-2.4	82	-5.0	0	0	984.9	NA	0.0000	-SN	M	0	0	0	1710
2017/06/07 19:57:00	BASE	13.26	10	17.95	17	-2.4	82	-5.1	0	0	984.8	NA	0.0000		M	15060	0	0	0
2017/06/07 19:58:00	BASE	14.17	10	17.95	17	-2.4	81	-5.1	0	0	984.8	NA	0.0000		M	0	0	0	2070
2017/06/07 19:59:00	BASE	13.81	11	17.95	17	-2.3	81	-5.2	0	0	984.8	NA	0.0000		M	0	0	0	3080
2017/06/07 20:00:00	BASE	13.57	10	17.95	17	-2.3	80	-5.3	0	0	984.8	NA	0.0000		M	0	0	0	2990
2017/06/07 20:01:00	BASE	14.09	5	17.95	17	-2.3	80	-5.3	0	0	984.9	NA	0.0000		M	15750	0	0	0
2017/06/07 20:02:00	BASE	14.59	4	17.95	17	-2.3	79	-5.4	0	0	984.8	NA	0.0000		M	15220	0	0	0
2017/06/07 20:03:00	BASE	14.48	7	17.34	15	-2.2	79	-5.4	0	0	984.8	NA	0.0000		M	15260	0	0	0
2017/06/07 20:04:00	BASE	14.11	8	17.34	15	-2.1	78	-5.4	0	0	984.8	NA	0.0000		M	15360	0	0	0
2017/06/07 20:05:00	BASE	13.66	9	17.34	15	-2.0	77	-5.5	0	0	984.8	NA	0.0000		M	15320	0	0	0
2017/06/07 20:06:00	BASE	13.39	8	17.34	15	-1.9	76	-5.6	0	0	984.8	NA	0.0000		9999	15090	0	0	0
2017/06/07 20:07:00	BASE	14.18	7	17.13	6	-1.9	75	-5.7	0	0	984.7	NA	0.0000		9999	15130	0	0	0
2017/06/07 20:08:00	BASE	15.01	8	17.13	6	-1.9	74	-5.8	0	0	984.7	NA	0.0000		9999	15190	0	0	0
2017/06/07 20:09:00	BASE	15.02	9	17.13	6	-1.9	73	-6.0	0	0	984.8	NA	0.0000		9999	15290	0	0	0
2017/06/07 20:10:00	BASE	15.40	7	17.75	7	-1.9	73	-6.2	0	0	984.8	NA	0.0000		9999	15290	0	0	0
2017/06/07 20:11:00	BASE	15.74	6	17.90	9	-1.9	72	-6.2	0	0	984.9	NA	0.0000		9999	15850	0	0	0
2017/06/07 20:12:00	BASE	15.60	9	17.90	9	-2.0	73	-6.3	0	0	984.9	NA	0.0000		9999	0	0	0	1080
2017/06/07 20:13:00	BASE	15.33	10	17.90	9	-2.1	73	-6.2	0	0	984.9	NA	0.0000	-SN	9999	0	0	0	1150
2017/06/07 20:14:00	BASE	14.70	8	17.90	9	-2.2	75	-6.1	0	0	984.9	NA	0.0000	-SN	M	0	0	0	920
2017/06/07 20:15:00	BASE	14.50	13	17.90	9	-2.3	76	-6.0	0	0	984.9	NA	0.0000	-SN	M	0	0	0	690
2017/06/07 20:16:00	BASE	14.56	14	17.90	9	-2.4	77	-5.8	0	0	984.9	NA	0.0000	-SN	M	15750	0	0	0
2017/06/07 20:17:00	BASE	15.34	13	17.90	9	-2.5	79	-5.7	0	0	984.8	NA	0.0000	-SN	M	15680	0	0	0
2017/06/07 20:18:00	BASE	15.63	13	17.90	9	-2.6	80	-5.6	0	0	984.8	NA	0.0000	-SN	M	15680	0	0	0
2017/06/07 20:19:00	BASE	15.55	12	18.78	8	-2.6	80	-5.5	0	0	984.7	NA	0.2540	-SN	M	15160	0	0	0
2017/06/07 20:20:00	BASE	16.22	11	18.78	8	-2.6	81	-5.4	0	0	984.8	NA	0.0000		M	0	0	0	720
2017/06/07 20:21:00	BASE	15.89	8	18.78	8	-2.6	81	-5.4	0	0	984.8	NA	0.0000		M	15060	0	0	0
2017/06/07 20:22:00	BASE	14.98	8	18.78	8	-2.6	82	-5.3	0	0	984.9	NA	0.0000		M	15130	15750	0	0
2017/06/07 20:23:00	BASE	14.66	12	18.78	8	-2.6	82	-5.3	0	0	984.8	NA	0.0000		M	15090	15680	0	0
2017/06/07 20:24:00	BASE	15.25	12	18.78	8	-2.6	82	-5.2	0	0	984.8	NA	0.0000		M	15030	15620	0	0
2017/06/07 20:25:00	BASE	15.78	12	18.78	8	-2.5	82	-5.2	0	0	984.8	NA	0.0000		M	14930	0	0	0
2017/06/07 20:26:00	BASE	15.92	11	18.78	8	-2.5	82	-5.1	0	0	984.8	NA	0.0000		M	14800	0	0	0
2017/06/07 20:27:00	BASE	15.33	9	18.78	8	-2.4	81	-5.1	0	0	984.8	NA	0.0000		M	14700	0	0	0
2017/06/07 20:28:00	BASE	15.22	9	18.78	8	-2.3	81	-5.1	0	0	984.8	NA	0.0000		M	14700	0	0	0
2017/06/07 20:29:00	BASE	15.59	12	18.16	5	-2.2	80	-5.2	0	0	984.8	NA	0.0000		M	14760	0	0	0
2017/06/07 20:30:00	BASE	16.02	13	18.31	5	-2.2	79	-5.3	0	0	984.8	NA	0.0000		M	460	14800	0	0
2017/06/07 20:31:00	BASE	16.48	13	18.31	5	-2.2	78	-5.5	0	0	984.8	NA	0.0000		M	14730	0	0	0
2017/06/07 20:32:00	BASE	15.97	15	18.31	5	-2.3	78	-5.6	0	0	984.8	NA	0.0000		M	300	14730	0	0
2017/06/07 20:33:00	BASE	15.09	15	18.31	5	-2.4	78	-5.7	0	0	984.9	NA	0.0000		M	0	0	0	890
2017/06/07 20:34:00	BASE	15.47	14	18.31	5	-2.4	78	-5.8	0	0	984.8	NA	0.0000		M	14830	0	0	0
2017/06/07 20:35:00	BASE	16.00	13	18.31	5	-2.5	78	-5.8	0	0	984.9	NA	0.0000		M	14800	0	0	0
2017/06/07 20:36:00	BASE	15.08	11	18.31	5	-2.5	79	-5.8	0	0	984.8	NA	0.0000		M	11980	14760	15490	0
2017/06/07 20:37:00	BASE	14.88	10	18.31	5	-2.5	79	-5.7	0	0	984.9	NA	0.0000		M	14800	15420	0	0
2017/06/07 20:38:00	BASE	15.42	8	18.31	5	-2.5	79	-5.7	0	0	984.9	NA	0.0000		M	11910	14800	15320	0
2017/06/07 20:39:00	BASE	15.56	10	18.31	5	-2.5	79	-5.7	0	0	984.9	NA	0.0000		M	11840	14830	0	0
2017/06/07 20:40:00	BASE	15.78	9	18.11	13	-2.4	78	-5.7	0	0	984.8	NA	0.0000		M	11980	14830	0	0
2017/06/07 20:41:00	BASE	16.00	6	18.11	13	-2.3	78	-5.7	0	0	984.8	NA	0.0000		M	11980	14860	0	0
2017/06/07 20:42:00	BASE	15.84	7	18.11	13	-2.2	77	-5.7	0	0	984.8	NA	0.0000		M	11980	14860	0	0
2017/06/07 20:43:00	BASE	15.55	7	18.11	13	-2.1	76	-5.8	0	0	984.8	NA	0.0000		M	14760	0	0	0
2017/06/07 20:44:00	BASE	15.33	8	17.75	10	-2.1	75	-5.9	0	0	984.9	NA	0.0000		M	14760	0	0	0
2017/06/07 20:45:00	BASE	15.23	8	17.75	10	-2.0	74	-5.9	0	0	984.9	NA	0.0000		M	14800	0	0	0
2017/06/07 20:46:00	BASE	15.85	7	18.01	8	-1.9	74	-6.0	0	0	984.9	NA	0.0000		M	14760	0	0	0
2017/06/07 20:47:00	BASE	16.13	6	18.47	11	-1.9	73	-6.1	0	0	984.9	NA	0.0000		M	9740	14830	15450	0
2017/06/07 20:48:00	BASE	15.32	5	18.47	11	-1.9	73	-6.1	0	0	985.0	NA	0.0000		M	14990	0	0	0
2017/06/07 20:49:00	BASE	15.12	8	18.47	11	-1.9	72	-6.2	0	0	985.0	NA	0.0000		M	14900	0	0	0
2017/06/07 20:50:00	BASE	15.19	11	18.47	11	-2.0	73	-6.2	0	0	985.0	NA	0.0000		M	300	14960	0	0
2017/06/07 20:51:00	BASE	14.88	11	18.47	11	-2.1	74	-6.2	0	0	985.0	NA	0.0000		M	14990	0	0	0
2017/06/07 20:52:00	BASE	14.72	11	18.47	11	-2.2	75	-6.1	0	0	985.0	NA	0.0000		M	12040	14960	0	0
2017/06/07 20:53:01	BASE	14.18	13	18.47	11	-2.2	76	-5.9	0	0	985.1	NA	0.0000		M	9680	12070	0	0
2017/06/07 20:54:00	BASE	13.93	12	18.47	11	-2.3	77	-5.8	0	0	985.1	NA	0.0000		M	9610	12110	0	0
2017/06/07 20:55:00	BASE	13.72	11	18.47	11	-2.3	77	-5.7	0	0	985.0	NA	0.0000		M	9580	12140	0	0
2017/06/07 20:56:00	BASE	14.92	10	19.39	10	-2.2	78	-5.6	0	0	985.0	NA	0.0000		M	9550	0	0	0
2017/06/07 20:57:00	BASE	15.69	8	19.39	10	-2.1	77	-5.6	0	0	985.1	NA	0.0000		M	9510	0	0	0
2017/06/07 20:58:00	BASE	15.27	7	19.39	10	-2.1	77	-5.6	0	0	985.0	NA	0.0000		M	9450	0	0	0
2017/06/07 20:59:00	BASE	14.90	7	19.39	10	-2.0	76	-5.7	0	0	985.1	NA	0.0000		M	9550	14830	0	0
2017/06/07 21:00:00	BASE	14.39	10	19.39	10	-2.0	75	-5.8	0	0	985.0	NA	0.0000		M	9480	14800	0	0
2017/06/07 21:01:00	BASE	14.88	10	19.39	10	-2.0	75	-5.9	0	0	985.0	NA	0.0000		M	9380	0	0	0
2017/06/07 21:02:00	BASE	15.34	8	19.39	10	-2.0	75	-6.0	0	0	985.0	NA	0.0000		M	9480	14930	0	0
2017/06/07 21:03:00	BASE	15.51	8	19.39	10	-2.1	75	-6.0	0	0	985.0	NA	0.0000		M	9550	14930	0	0
2017/06/07 21:04:00	BASE	14.98	8	19.39	10	-2.1	75	-5.9	0	0	985.1	NA	0.0000		M	9550	0	0	0
2017/06/07 21:05:00	BASE	15.69	8	19.39	10	-2.0	75	-5.9	0	0	984.9	NA	0.0000		M	9550	0	0	0
2017/06/07 21:06:00	BASE	16.88	8	18.67	7	-2.0	75	-5.9	0	0	984.9	NA	0.0000		M	9510	0	0	0
2017/06/07 21:07:00	BASE	16.68	9	18.67	7	-1.9	74	-5.9	0	0	984.9	NA	0.0000		M	9480	0	0	0
2017/06/07 21:08:00	BASE	16.08	8	18.47	10	-1.9	74	-5.9	0	0	985.0	NA	0.0000		M	9480	0	0	0
2017/06/07 21:09:00	BASE	16.11	7	18.47	10	-1.9	74	-5.9	0	0	984.9	NA	0.0000		M	9510	0	0	0
2017/06/07 21:10:00	BASE	16.04	5	18.47	10	-1.8	73	-6.0	0	0	985.0	NA	0.0000		M	9480	14860	0	0
2017/06/07 21:11:00	BASE	15.41	2	18.47	10	-1.8	73	-6.0	0	0	985.0	NA	0.0000		M	9680	0	0	0
2017/06/07 21:12:00	BASE	15.10	4	18.47	10	-1.8	73	-6.0	0	0	985.0	NA	0.0000		M	14760	0	0	0
2017/06/07 21:13:00	BASE	15.45	5	18.47	10	-1.8	73	-6.0	0	0	985.0	NA	0.0000		M	9940	0	0	0
2017/06/07 21:14:00	BASE	15.43	3	18.47	10	-1.7	73	-6.0	0	0	985.1	NA	0.0000		M	8920	0	0	0
2017/06/07 21:15:00	BASE	14.84	5	18.47	10	-1.7	73	-6.0	0	0	985.1	NA	0.0000		M	9580	0	0	0
2017/06/07 21:16:00	BASE	14.13	3	17.65	6	-1.7	73	-6.0	0	0	985.1	NA	0.0000		M	9420	0	0	0
2017/06/07 21:17:00	BASE	14.40	3	17.65	6	-1.6	72	-6.0	0	0	985.1	NA	0.0000		M	9320	0	0	0
2017/06/07 21:18:00	BASE	14.30	6	17.65	6	-1.6	72	-6.0	0	0	985.2	NA	0.0000		M	9350	0	0	0
2017/06/07 21:19:00	BASE	13.82	5	17.49	1	-1.6	72	-6.0	0	0	985.1	NA	0.0000		M	9290	0	0	0
2017/06/07 21:20:00	BASE	14.68	5	17.18	6	-1.6	72	-6.1	0	0	985.1	NA	0.0000		M	8920	0	0	0
2017/06/07 21:21:00	BASE	15.25	7	17.65	12	-1.7	71	-6.2	0	0	985.1	NA	0.0000		M	10140	0	0	0
2017/06/07 21:22:00	BASE	15.25	10	17.65	12	-1.7	71	-6.2	0	0	985.1	NA	0.0000		M	8830	0	0	0
2017/06/07 21:23:00	BASE	14.91	10	17.65	12	-1.7	71	-6.3	0	0	985.1	NA	0.0000		M	0	0	0	950
2017/06/07 21:24:00	BASE	14.84	8	17.65	12	-1.8	71	-6.3	0	0	985.1	NA	0.0000		M	0	0	0	390
2017/06/07 21:25:00	BASE	14.92	9	17.65	12	-1.9	72	-6.3	0	0	985.2	NA	0.0000		M	0	0	0	980
2017/06/07 21:26:00	BASE	15.44	10	18.06	10	-1.9	72	-6.3	0	0	985.1	NA	0.0000		M	0	0	0	890
2017/06/07 21:27:00	BASE	15.33	9	18.06	10	-2.0	73	-6.2	0	0	985.1	NA	0.0000		M	0	0	0	980
2017/06/07 21:28:00	BASE	14.70	10	18.06	10	-2.0	73	-6.1	0	0	985.1	NA	0.0000		M	0	0	0	890
2017/06/07 21:29:00	BASE	15.38	8	18.06	10	-2.0	74	-6.1	0	0	985.1	NA	0.0000		M	9380	0	0	0
2017/06/07 21:30:00	BASE	15.97	8	18.06	10	-2.0	74	-6.0	0	0	985.1	NA	0.0000		M	9150	0	0	0
2017/06/07 21:31:00	BASE	15.36	9	18.06	10	-2.0	74	-6.0	0	0	985.2	NA	0.0000		M	3540	0	0	0
2017/06/07 21:32:00	BASE	15.23	7	18.06	10	-1.9	74	-6.0	0	0	985.1	NA	0.0000		M	3640	0	0	0
2017/06/07 21:33:00	BASE	15.77	5	18.06	10	-1.9	73	-6.0	0	0	985.1	NA	0.0000		M	0	0	0	5410
2017/06/07 21:34:00	BASE	15.81	6	18.06	10	-1.9	73	-6.0	0	0	985.1	NA	0.0000		M	0	0	0	5220
2017/06/07 21:35:00	BASE	15.36	8	18.06	10	-1.8	73	-6.1	0	0	985.2	NA	0.0000		M	0	0	0	5320
2017/06/07 21:36:00	BASE	15.02	7	17.49	11	-1.8	73	-6.1	0	0	985.1	NA	0.0000		M	0	0	0	5120
2017/06/07 21:37:00	BASE	15.47	8	17.80	9	-1.8	72	-6.1	0	0	985.1	NA	0.0000		M	0	0	0	5380
2017/06/07 21:38:00	BASE	15.45	9	17.80	9	-1.8	72	-6.1	0	0	985.2	NA	0.0000		M	0	0	0	5450
2017/06/07 21:39:00	BASE	15.17	9	17.80	9	-1.7	72	-6.2	0	0	985.1	NA	0.0000		M	5540	0	0	0
2017/06/07 21:40:00	BASE	15.37	10	17.80	9	-1.7	71	-6.3	0	0	985.1	NA	0.0000		M	4400	0	0	0
2017/06/07 21:41:00	BASE	15.01	12	17.80	9	-1.8	71	-6.4	0	0	985.2	NA	0.0000		M	4100	0	0	0
2017/06/07 21:42:00	BASE	14.85	12	17.80	9	-1.8	70	-6.5	0	0	985.1	NA	0.0000		M	0	0	0	2460
2017/06/07 21:43:00	BASE	14.81	14	17.80	9	-1.9	70	-6.6	0	0	985.1	NA	0.0000		M	1900	0	0	0
2017/06/07 21:44:00	BASE	14.56	12	17.80	9	-1.9	70	-6.7	0	0	985.2	NA	0.0000		M	0	0	0	1380
2017/06/07 21:45:00	BASE	13.75	9	17.80	9	-2.0	70	-6.7	0	0	985.2	NA	0.0000		M	0	0	0	0
2017/06/07 21:46:00	BASE	13.98	10	18.16	24	-2.0	70	-6.7	0	0	985.1	NA	0.0000		M	0	0	0	0
2017/06/07 21:47:00	BASE	15.17	11	18.16	24	-2.0	71	-6.6	0	0	985.2	NA	0.0000		M	0	0	0	1640
2017/06/07 21:48:00	BASE	14.90	10	18.16	24	-2.1	71	-6.6	0	0	985.2	NA	0.0000		M	0	0	0	1080
2017/06/07 21:49:00	BASE	15.04	9	18.16	24	-2.1	72	-6.5	0	0	985.2	NA	0.0000		M	0	0	0	1250
2017/06/07 21:50:00	BASE	14.87	9	18.16	24	-2.1	72	-6.5	0	0	985.2	NA	0.0000		M	0	0	0	1710
2017/06/07 21:51:00	BASE	14.61	10	18.16	24	-2.1	72	-6.5	0	0	985.2	NA	0.0000		M	0	0	0	2720
2017/06/07 21:52:00	BASE	15.21	11	18.16	24	-2.1	72	-6.4	0	0	985.2	NA	0.0000		M	0	0	0	2330
2017/06/07 21:53:00	BASE	14.37	9	18.16	24	-2.1	73	-6.4	0	0	985.3	NA	0.0000		M	0	0	0	5050
2017/06/07 21:54:00	BASE	13.40	6	18.16	24	-2.1	73	-6.4	0	0	985.3	NA	0.0000		M	0	0	0	4920
2017/06/07 21:55:00	BASE	13.66	8	18.16	24	-2.1	73	-6.4	0	0	985.2	NA	0.0000		M	0	0	0	1570
2017/06/07 21:56:00	BASE	14.44	12	17.54	12	-2.1	72	-6.4	0	0	985.2	NA	0.0000		M	0	0	0	1120
2017/06/07 21:57:00	BASE	15.50	13	17.85	10	-2.1	72	-6.4	0	0	985.1	NA	0.0000		M	4690	0	0	0
2017/06/07 21:58:00	BASE	15.41	13	17.85	10	-2.1	72	-6.5	0	0	985.2	NA	0.0000		9999	1610	0	0	0
2017/06/07 21:59:00	BASE	15.10	11	17.85	10	-2.1	72	-6.5	0	0	985.2	NA	0.0000		9999	1410	0	0	0
2017/06/07 22:00:00	BASE	14.85	9	17.85	10	-2.1	72	-6.6	0	0	985.2	NA	0.0000		9999	1180	0	0	0
2017/06/07 22:01:00	BASE	14.27	10	17.85	10	-2.1	71	-6.6	0	0	985.2	NA	0.0000		9999	4720	0	0	0
2017/06/07 22:02:00	BASE	14.92	9	17.85	10	-2.1	71	-6.6	0	0	985.1	NA	0.0000		9999	4950	0	0	0
2017/06/07 22:03:00	BASE	15.57	7	17.85	10	-2.1	71	-6.7	0	0	985.1	NA	0.0000		9999	0	0	0	660
2017/06/07 22:04:00	BASE	15.31	9	17.85	10	-2.1	71	-6.6	0	0	985.2	NA	0.0000		9999	0	0	0	890
2017/06/07 22:05:00	BASE	14.81	12	17.85	10	-2.1	72	-6.5	0	0	985.2	NA	0.0000		9999	0	0	0	5150
2017/06/07 22:06:00	BASE	14.90	12	17.85	10	-2.0	72	-6.5	0	0	985.1	NA	0.0000		9999	1120	0	0	0
2017/06/07 22:07:00	BASE	14.33	10	17.54	17	-2.0	72	-6.4	0	0	985.2	NA	0.0000		9999	1250	0	0	0
2017/06/07 22:08:00	BASE	13.68	10	17.54	17	-1.9	71	-6.4	0	0	985.2	NA	0.0000		9999	1870	4660	0	0
2017/06/07 22:09:00	BASE	14.34	11	17.54	17	-1.9	71	-6.4	0	0	985.2	NA	0.0000		9999	4430	0	0	0
2017/06/07 22:10:00	BASE	14.01	11	17.54	17	-1.9	71	-6.5	0	0	985.2	NA	0.0000		9999	0	0	0	1210
2017/06/07 22:11:00	BASE	12.90	13	17.54	17	-1.9	71	-6.6	0	0	985.3	NA	0.0000		9999	820	0	0	0
2017/06/07 22:12:00	BASE	12.30	11	17.54	17	-2.0	70	-6.6	0	0	985.3	NA	0.0000		9999	0	0	0	1310
2017/06/07 22:13:00	BASE	12.93	10	17.13	8	-2.0	70	-6.7	0	0	985.2	NA	0.0000		9999	0	0	0	1410
2017/06/07 22:14:00	BASE	13.48	12	17.13	8	-2.1	70	-6.7	0	0	985.2	NA	0.0000		9999	0	0	0	260
2017/06/07 22:15:00	BASE	14.38	12	17.13	8	-2.2	71	-6.7	0	0	985.0	NA	0.0000		9999	0	0	0	0
2017/06/07 22:16:00	BASE	14.90	10	17.13	8	-2.2	71	-6.7	0	0	985.2	NA	0.0000		9999	0	0	0	0
2017/06/07 22:17:00	BASE	15.08	9	18.31	12	-2.2	72	-6.7	0	0	985.0	NA	0.0000		9999	0	0	0	390
2017/06/07 22:18:00	BASE	16.37	10	19.50	10	-2.2	72	-6.6	0	0	984.9	NA	0.0000		9999	0	0	0	300
2017/06/07 22:19:00	BASE	16.65	10	19.50	10	-2.3	72	-6.6	0	0	985.0	NA	0.0000		9999	0	0	0	230
2017/06/07 22:20:00	BASE	16.20	10	19.50	10	-2.3	72	-6.6	0	0	985.1	NA	0.0000		9999	0	0	0	230
2017/06/07 22:21:00	BASE	15.72	11	19.50	10	-2.3	73	-6.6	0	0	985.0	NA	0.0000		M	0	0	0	0
2017/06/07 22:22:00	BASE	14.93	11	19.50	10	-2.3	73	-6.5	0	0	985.1	NA	0.0000		M	6760	0	0	0
2017/06/07 22:23:00	BASE	15.00	13	19.50	10	-2.4	74	-6.5	0	0	985.0	NA	0.0000		M	6920	0	0	0
2017/06/07 22:24:00	BASE	15.99	11	19.50	10	-2.4	74	-6.4	0	0	985.0	NA	0.0000		M	0	0	0	790
2017/06/07 22:25:00	BASE	16.27	10	19.50	10	-2.4	75	-6.3	0	0	985.0	NA	0.0000		M	0	0	0	1280
2017/06/07 22:26:00	BASE	16.50	11	19.50	10	-2.4	75	-6.2	0	0	985.0	NA	0.0000		M	0	0	0	1440
2017/06/07 22:27:00	BASE	16.23	12	19.50	10	-2.4	75	-6.1	0	0	985.0	NA	0.0000		M	330	0	0	0
2017/06/07 22:28:00	BASE	15.68	12	18.37	15	-2.3	75	-6.1	0	0	985.1	NA	0.0000		M	390	0	0	0
2017/06/07 22:29:00	BASE	15.44	10	18.37	15	-2.3	75	-6.1	0	0	985.1	NA	0.0000		M	0	0	0	2070
2017/06/07 22:30:00	BASE	15.30	11	18.37	15	-2.2	75	-6.1	0	0	985.1	NA	0.0000		M	0	0	0	2330
2017/06/07 22:31:00	BASE	15.69	11	18.37	15	-2.2	74	-6.2	0	0	985.0	NA	0.0000		M	0	0	0	2330
2017/06/07 22:32:00	BASE	15.67	12	18.37	15	-2.1	74	-6.2	0	0	985.0	NA	0.0000		M	0	0	0	790
2017/06/07 22:33:00	BASE	15.59	13	18.37	15	-2.1	73	-6.3	0	0	985.0	NA	0.0000		M	0	0	0	490
2017/06/07 22:34:00	BASE	15.77	12	18.37	15	-2.1	73	-6.3	0	0	985.0	NA	0.0000		M	0	0	0	490
2017/06/07 22:35:00	BASE	15.47	12	18.37	15	-2.1	72	-6.5	0	0	985.1	NA	0.0000		M	0	0	0	620
2017/06/07 22:36:00	BASE	15.28	14	18.01	14	-2.1	72	-6.5	0	0	985.1	NA	0.0000		M	0	0	0	660
2017/06/07 22:37:00	BASE	15.30	15	17.75	2	-2.2	71	-6.6	0	0	985.1	NA	0.0000		M	0	0	0	750
2017/06/07 22:38:00	BASE	15.50	15	17.75	2	-2.2	71	-6.7	0	0	985.1	NA	0.0000		M	0	0	0	0
2017/06/07 22:39:00	BASE	14.81	13	17.75	2	-2.2	71	-6.8	0	0	985.2	NA	0.0000		9999	0	0	0	0
2017/06/07 22:40:00	BASE	13.91	11	17.70	11	-2.2	70	-6.9	0	0	985.2	NA	0.0000		9999	0	0	0	520
2017/06/07 22:41:00	BASE	14.58	13	17.70	11	-2.2	70	-6.9	0	0	985.1	NA	0.0000		9999	0	0	0	0
2017/06/07 22:42:00	BASE	15.10	14	18.11	14	-2.2	70	-7.0	0	0	985.1	NA	0.0000		9999	0	0	0	0
2017/06/07 22:43:00	BASE	14.73	10	18.11	14	-2.2	70	-7.0	0	0	985.2	NA	0.0000		9999	0	0	0	0
2017/06/07 22:44:00	BASE	14.65	10	18.11	14	-2.2	69	-7.1	0	0	985.2	NA	0.0000		9999	0	0	0	0
2017/06/07 22:45:00	BASE	15.16	12	18.11	14	-2.3	69	-7.1	0	0	985.2	NA	0.0000		9999	0	0	0	0
2017/06/07 22:46:00	BASE	15.15	14	18.11	16	-2.3	69	-7.1	0	0	985.1	NA	0.0000		9999	3710	0	0	0
2017/06/07 22:47:00	BASE	15.09	17	18.11	16	-2.4	70	-7.2	0	0	985.1	NA	0.0000		9999	3150	0	0	0
2017/06/07 22:48:00	BASE	14.86	17	18.11	16	-2.4	70	-7.1	0	0	985.2	NA	0.0000		9999	0	0	0	260
2017/06/07 22:49:00	BASE	14.42	16	18.11	16	-2.5	71	-7.1	0	0	985.2	NA	0.0000		9999	0	0	0	330
2017/06/07 22:50:00	BASE	14.52	15	18.11	16	-2.6	71	-7.1	0	0	985.2	NA	0.0000		9999	0	0	0	360
2017/06/07 22:51:00	BASE	15.24	14	18.11	16	-2.6	72	-7.0	0	0	985.2	NA	0.0000		9999	0	0	0	620
2017/06/07 22:52:00	BASE	14.97	13	18.11	16	-2.7	73	-6.9	0	0	985.3	NA	0.0000		9999	0	0	0	3480
2017/06/07 22:53:00	BASE	13.97	13	18.11	16	-2.7	74	-6.8	0	0	985.3	NA	0.0000		9999	0	0	0	3610
2017/06/07 22:54:00	BASE	14.62	13	18.11	16	-2.7	74	-6.7	0	0	985.2	NA	0.0000		9999	1050	0	0	0
2017/06/07 22:55:00	BASE	15.37	12	18.11	16	-2.7	75	-6.6	0	0	985.3	NA	0.0000		9999	0	0	0	3710
2017/06/07 22:56:00	BASE	15.12	13	17.65	20	-2.7	75	-6.6	0	0	985.3	NA	0.0000		9999	0	0	0	3250
2017/06/07 22:57:00	BASE	14.99	14	17.65	20	-2.8	75	-6.5	0	0	985.3	NA	0.0000		9999	0	0	0	3220
2017/06/07 22:58:00	BASE	15.28	15	17.65	20	-2.8	76	-6.5	0	0	985.3	NA	0.0000		9999	0	0	0	4100
2017/06/07 22:59:00	BASE	15.25	15	17.65	20	-2.8	76	-6.4	0	0	985.3	NA	0.0000		9999	390	0	0	0
2017/06/07 23:00:00	BASE	14.55	14	17.65	20	-2.7	76	-6.3	0	0	985.3	NA	0.0000		9999	330	0	0	0
2017/06/07 23:01:00	BASE	14.67	14	17.65	20	-2.7	77	-6.3	0	0	985.2	NA	0.0000		9999	390	0	0	0
2017/06/07 23:02:00	BASE	15.02	15	17.65	20	-2.7	77	-6.2	0	0	985.3	NA	0.0000		9999	360	0	0	0
2017/06/07 23:03:00	BASE	14.55	16	17.65	20	-2.7	77	-6.2	0	0	985.3	NA	0.0000		9999	300	0	0	0
2017/06/07 23:04:00	BASE	14.56	15	17.65	20	-2.7	77	-6.2	0	0	985.3	NA	0.0000		9999	300	0	0	0
2017/06/07 23:05:00	BASE	14.97	15	17.65	20	-2.7	77	-6.1	0	0	985.3	NA	0.0000	-SN	9999	300	0	0	0
2017/06/07 23:06:00	BASE	14.61	15	17.34	20	-2.7	77	-6.1	0	0	985.4	NA	0.0000	-SN	M	0	0	0	2820
2017/06/07 23:07:00	BASE	14.14	16	17.34	20	-2.7	78	-6.1	0	0	985.3	NA	0.0000	-SN	M	0	0	0	1120
2017/06/07 23:08:00	BASE	14.20	15	17.34	20	-2.7	78	-6.0	0	0	985.3	NA	0.0000	-SN	M	0	0	0	720
2017/06/07 23:09:00	BASE	14.38	15	16.87	2	-2.7	78	-6.0	0	0	985.3	NA	0.0000	-SN	M	0	0	0	980
2017/06/07 23:10:00	BASE	14.83	15	16.87	2	-2.7	78	-6.0	0	0	985.2	NA	0.0000	-SN	9999	0	0	0	1120
2017/06/07 23:11:00	BASE	14.52	15	16.67	12	-2.7	78	-6.0	0	0	985.2	NA	0.0000	-SN	9999	0	0	0	490
2017/06/07 23:12:00	BASE	15.20	16	18.26	16	-2.6	78	-6.0	0	0	985.1	NA	0.0000	-SN	9999	0	0	0	0
2017/06/07 23:13:00	BASE	16.24	15	18.26	16	-2.6	77	-6.0	0	0	985.1	NA	0.0000	-SN	9999	0	0	0	0
2017/06/07 23:14:00	BASE	15.68	14	18.26	16	-2.6	77	-6.1	0	0	985.2	NA	0.0000	-SN	9999	0	0	0	0
2017/06/07 23:15:00	BASE	15.51	14	18.26	16	-2.6	77	-6.1	0	0	985.1	NA	0.0000	-SN	9999	0	0	0	0
2017/06/07 23:16:00	BASE	15.80	12	18.78	8	-2.6	76	-6.2	0	0	985.1	NA	0.0000	-SN	9999	0	0	0	0
2017/06/07 23:17:00	BASE	16.13	10	18.78	8	-2.6	76	-6.2	0	0	985.1	NA	0.0000	-SN	9999	0	0	0	0
2017/06/07 23:18:00	BASE	15.75	12	18.78	8	-2.6	76	-6.3	0	0	985.2	NA	0.0000		9999	0	0	0	0
2017/06/07 23:19:00	BASE	14.90	13	18.78	8	-2.6	75	-6.3	0	0	985.2	NA	0.0000		9999	0	0	0	0
2017/06/07 23:20:00	BASE	15.59	11	18.78	8	-2.5	75	-6.3	0	0	985.1	NA	0.0000		9999	0	0	0	0
2017/06/07 23:21:00	BASE	16.32	8	18.78	8	-2.5	75	-6.4	0	0	985.2	NA	0.0000		9999	0	0	0	0
2017/06/07 23:22:00	BASE	16.07	10	18.78	8	-2.4	75	-6.3	0	0	985.2	NA	0.0000		9999	0	0	0	0
2017/06/07 23:23:00	BASE	15.74	10	18.78	8	-2.4	74	-6.4	0	0	985.2	NA	0.0000		9999	0	0	0	0
2017/06/07 23:24:00	BASE	15.06	8	18.78	8	-2.4	74	-6.4	0	0	985.3	NA	0.0000		9999	0	0	0	0
2017/06/07 23:25:00	BASE	14.64	9	18.78	8	-2.3	73	-6.5	0	0	985.3	NA	0.0000		9999	0	0	0	0
2017/06/07 23:26:00	BASE	14.56	11	18.67	6	-2.3	73	-6.6	0	0	985.3	NA	0.0000		9999	0	0	0	0
2017/06/07 23:27:00	BASE	14.41	12	18.01	3	-2.3	72	-6.7	0	0	985.3	NA	0.0000		9999	0	0	0	0
2017/06/07 23:28:00	BASE	14.45	10	18.01	3	-2.3	72	-6.7	0	0	985.3	NA	0.0000		9999	0	0	0	0
2017/06/07 23:29:00	BASE	14.76	11	18.01	3	-2.3	72	-6.7	0	0	985.3	NA	0.0000		9999	0	0	0	0
2017/06/07 23:30:00	BASE	15.27	12	18.01	3	-2.4	72	-6.7	0	0	985.3	NA	0.0000		9999	0	0	0	0
2017/06/07 23:31:00	BASE	14.97	10	18.01	3	-2.4	72	-6.7	0	0	985.4	NA	0.0000		9999	0	0	0	0
2017/06/07 23:32:00	BASE	14.65	9	18.01	3	-2.4	72	-6.7	0	0	985.4	NA	0.0000		9999	0	0	0	0
2017/06/07 23:33:00	BASE	14.86	11	17.34	12	-2.4	72	-6.7	0	0	985.5	NA	0.0000		9999	0	0	0	0
2017/06/07 23:34:00	BASE	14.28	15	17.34	12	-2.4	72	-6.7	0	0	985.5	NA	0.0000		9999	0	0	0	0
2017/06/07 23:35:00	BASE	14.34	15	17.34	12	-2.4	72	-6.7	0	0	985.5	NA	0.0000		9999	0	0	0	0
2017/06/07 23:36:00	BASE	14.72	9	17.49	13	-2.4	72	-6.8	0	0	985.5	NA	0.0000		9999	3840	0	0	0
2017/06/07 23:37:00	BASE	14.02	11	17.49	13	-2.4	72	-6.7	0	0	985.6	NA	0.0000		9999	5410	0	0	0
2017/06/07 23:38:00	BASE	13.67	14	17.49	13	-2.4	73	-6.7	0	0	985.6	NA	0.0000		9999	4950	5770	0	0
2017/06/07 23:39:00	BASE	14.25	12	17.49	13	-2.5	73	-6.7	0	0	985.5	NA	0.0000		9999	4820	0	0	0
2017/06/07 23:40:00	BASE	14.51	12	17.49	13	-2.5	74	-6.6	0	0	985.6	NA	0.0000		9999	4300	0	0	0
2017/06/07 23:41:00	BASE	13.74	13	17.49	13	-2.5	74	-6.5	0	0	985.6	NA	0.0000		9999	4070	0	0	0
2017/06/07 23:42:00	BASE	12.61	12	17.49	13	-2.5	75	-6.4	0	0	985.7	NA	0.0000		9999	4330	0	0	0
2017/06/07 23:43:01	BASE	12.99	11	17.49	13	-2.5	75	-6.3	0	0	985.6	NA	0.0000		9999	3810	0	0	0
2017/06/07 23:44:00	BASE	13.15	10	17.49	13	-2.5	75	-6.2	0	0	985.7	NA	0.0000		9999	4430	0	0	0
2017/06/07 23:45:00	BASE	12.98	10	17.49	13	-2.5	76	-6.2	0	0	985.7	NA	0.0000		9999	1870	0	0	0
2017/06/07 23:46:00	BASE	13.42	9	16.20	11	-2.4	76	-6.2	0	0	985.7	NA	0.0000		9999	3970	0	0	0
2017/06/07 23:47:00	BASE	12.72	9	16.10	15	-2.4	76	-6.1	0	0	985.8	NA	0.0000		9999	4400	0	0	0
2017/06/07 23:48:00	BASE	12.60	11	16.10	15	-2.4	75	-6.1	0	0	985.7	NA	0.0000		9999	3610	0	0	0
2017/06/07 23:49:00	BASE	13.57	10	16.26	16	-2.4	75	-6.2	0	0	985.7	NA	0.0000		9999	0	0	0	980
2017/06/07 23:50:00	BASE	14.31	13	16.26	16	-2.4	75	-6.2	0	0	985.6	NA	0.0000		9999	0	0	0	920
2017/06/07 23:51:00	BASE	14.02	16	16.26	16	-2.5	76	-6.2	0	0	985.6	NA	0.0000		9999	4890	0	0	0
2017/06/07 23:52:00	BASE	13.15	13	16.26	16	-2.5	76	-6.1	0	0	985.6	NA	0.0000	-SN	9999	5020	0	0	0
2017/06/07 23:53:00	BASE	12.95	9	16.26	16	-2.5	77	-6.0	0	0	985.6	NA	0.0000	-SN	9999	4690	14110	0	0
2017/06/07 23:54:00	BASE	13.93	9	16.26	16	-2.6	78	-5.9	0	0	985.5	NA	0.0000	-SN	9999	13880	0	0	0
2017/06/07 23:55:00	BASE	14.52	11	16.41	9	-2.6	78	-5.8	0	0	985.6	NA	0.0000	-SN	9999	13420	0	0	0
2017/06/07 23:56:00	BASE	14.34	14	16.82	2	-2.5	79	-5.7	0	0	985.5	NA	0.0000	-SN	9999	13850	0	0	0
2017/06/07 23:57:00	BASE	15.05	8	17.75	2	-2.4	78	-5.7	0	0	985.5	NA	0.0000	-SN	9999	11940	13980	0	0
2017/06/07 23:58:00	BASE	15.36	2	17.75	2	-2.4	78	-5.7	0	0	985.5	NA	0.0000	-SN	9999	11880	14010	0	0
2017/06/07 23:59:00	BASE	16.32	4	19.24	4	-2.3	77	-5.7	0	0	985.4	NA	0.0000	-SN	9999	11910	14140	0	0